<?xml version="1.0" encoding="UTF-8" standalone="no" ?>
<gpx xmlns="http://www.topografix.com/GPX/1/1" xmlns:xsi="http://www.w3.org/2001/XMLSchema-instance" xsi:schemaLocation="http://www.topografix.com/GPX/1/1 http://www.topografix.com/GPX/1/1/gpx.xsd" version="1.1" creator="VisuGPX - https://www.visugpx.com">
  <metadata>
    <name>Alsace</name>
  </metadata>
  <trk>
    <name><![CDATA[12621002-TDV 2021 CVSA]]></name>
    <extensions>
      <line xmlns="http://www.topografix.com/GPX/gpx_style/0/2">
        <color>0000FF</color>
        <width>4</width>
      </line>
    </extensions>
    <trkseg>
      <trkpt lat="47.85843" lon="7.04675">
        <ele>386</ele>
        <time>2021-08-25T05:28:53Z</time>
      </trkpt>
      <trkpt lat="47.85843" lon="7.04675">
        <ele>386</ele>
        <time>2021-08-25T05:28:53Z</time>
      </trkpt>
      <trkpt lat="47.85768" lon="7.04591">
        <ele>393</ele>
        <time>2021-08-25T05:30:08Z</time>
      </trkpt>
      <trkpt lat="47.85717" lon="7.04515">
        <ele>400</ele>
        <time>2021-08-25T05:31:06Z</time>
      </trkpt>
      <trkpt lat="47.85697" lon="7.04469">
        <ele>401</ele>
        <time>2021-08-25T05:31:35Z</time>
      </trkpt>
      <trkpt lat="47.85666" lon="7.04426">
        <ele>402</ele>
        <time>2021-08-25T05:32:09Z</time>
      </trkpt>
      <trkpt lat="47.85608" lon="7.04441">
        <ele>416</ele>
        <time>2021-08-25T05:32:56Z</time>
      </trkpt>
      <trkpt lat="47.85579" lon="7.04471">
        <ele>427</ele>
        <time>2021-08-25T05:33:25Z</time>
      </trkpt>
      <trkpt lat="47.85517" lon="7.04461">
        <ele>432</ele>
        <time>2021-08-25T05:34:15Z</time>
      </trkpt>
      <trkpt lat="47.85449" lon="7.04517">
        <ele>447</ele>
        <time>2021-08-25T05:35:17Z</time>
      </trkpt>
      <trkpt lat="47.85371" lon="7.0454">
        <ele>460</ele>
        <time>2021-08-25T05:36:20Z</time>
      </trkpt>
      <trkpt lat="47.85332" lon="7.04523">
        <ele>461</ele>
        <time>2021-08-25T05:36:53Z</time>
      </trkpt>
      <trkpt lat="47.85296" lon="7.04512">
        <ele>468</ele>
        <time>2021-08-25T05:37:22Z</time>
      </trkpt>
      <trkpt lat="47.85257" lon="7.04525">
        <ele>480</ele>
        <time>2021-08-25T05:37:54Z</time>
      </trkpt>
      <trkpt lat="47.85207" lon="7.04533">
        <ele>494</ele>
        <time>2021-08-25T05:38:35Z</time>
      </trkpt>
      <trkpt lat="47.85103" lon="7.04466">
        <ele>508</ele>
        <time>2021-08-25T05:40:05Z</time>
      </trkpt>
      <trkpt lat="47.85015" lon="7.04423">
        <ele>520</ele>
        <time>2021-08-25T05:41:20Z</time>
      </trkpt>
      <trkpt lat="47.84895" lon="7.044">
        <ele>539</ele>
        <time>2021-08-25T05:42:56Z</time>
      </trkpt>
      <trkpt lat="47.84844" lon="7.04318">
        <ele>555</ele>
        <time>2021-08-25T05:43:56Z</time>
      </trkpt>
      <trkpt lat="47.84815" lon="7.04257">
        <ele>570</ele>
        <time>2021-08-25T05:44:37Z</time>
      </trkpt>
      <trkpt lat="47.84849" lon="7.04094">
        <ele>569</ele>
        <time>2021-08-25T05:46:08Z</time>
      </trkpt>
      <trkpt lat="47.84835" lon="7.03979">
        <ele>571</ele>
        <time>2021-08-25T05:47:11Z</time>
      </trkpt>
      <trkpt lat="47.84782" lon="7.03936">
        <ele>580</ele>
        <time>2021-08-25T05:47:59Z</time>
      </trkpt>
      <trkpt lat="47.84728" lon="7.03897">
        <ele>585</ele>
        <time>2021-08-25T05:48:48Z</time>
      </trkpt>
      <trkpt lat="47.84683" lon="7.03849">
        <ele>584</ele>
        <time>2021-08-25T05:49:32Z</time>
      </trkpt>
      <trkpt lat="47.84601" lon="7.03828">
        <ele>604</ele>
        <time>2021-08-25T05:50:38Z</time>
      </trkpt>
      <trkpt lat="47.84546" lon="7.03798">
        <ele>623</ele>
        <time>2021-08-25T05:51:25Z</time>
      </trkpt>
      <trkpt lat="47.84508" lon="7.03742">
        <ele>636</ele>
        <time>2021-08-25T05:52:08Z</time>
      </trkpt>
      <trkpt lat="47.84505" lon="7.0368">
        <ele>644</ele>
        <time>2021-08-25T05:52:42Z</time>
      </trkpt>
      <trkpt lat="47.84616" lon="7.03566">
        <ele>630</ele>
        <time>2021-08-25T05:54:29Z</time>
      </trkpt>
      <trkpt lat="47.84638" lon="7.03509">
        <ele>634</ele>
        <time>2021-08-25T05:55:05Z</time>
      </trkpt>
      <trkpt lat="47.84653" lon="7.03444">
        <ele>635</ele>
        <time>2021-08-25T05:55:42Z</time>
      </trkpt>
      <trkpt lat="47.84681" lon="7.03361">
        <ele>628</ele>
        <time>2021-08-25T05:56:32Z</time>
      </trkpt>
      <trkpt lat="47.84688" lon="7.03327">
        <ele>626</ele>
        <time>2021-08-25T05:56:51Z</time>
      </trkpt>
      <trkpt lat="47.84675" lon="7.03289">
        <ele>618</ele>
        <time>2021-08-25T05:57:14Z</time>
      </trkpt>
      <trkpt lat="47.84635" lon="7.03294">
        <ele>622</ele>
        <time>2021-08-25T05:57:46Z</time>
      </trkpt>
      <trkpt lat="47.84545" lon="7.03329">
        <ele>631</ele>
        <time>2021-08-25T05:59:00Z</time>
      </trkpt>
      <trkpt lat="47.84504" lon="7.03362">
        <ele>634</ele>
        <time>2021-08-25T05:59:38Z</time>
      </trkpt>
      <trkpt lat="47.84471" lon="7.03402">
        <ele>648</ele>
        <time>2021-08-25T06:00:12Z</time>
      </trkpt>
      <trkpt lat="47.84425" lon="7.03392">
        <ele>640</ele>
        <time>2021-08-25T06:00:49Z</time>
      </trkpt>
      <trkpt lat="47.84333" lon="7.03409">
        <ele>661</ele>
        <time>2021-08-25T06:02:03Z</time>
      </trkpt>
      <trkpt lat="47.84282" lon="7.03374">
        <ele>667</ele>
        <time>2021-08-25T06:02:48Z</time>
      </trkpt>
      <trkpt lat="47.84253" lon="7.03364">
        <ele>676</ele>
        <time>2021-08-25T06:03:12Z</time>
      </trkpt>
      <trkpt lat="47.84245" lon="7.03347">
        <ele>676</ele>
        <time>2021-08-25T06:03:23Z</time>
      </trkpt>
      <trkpt lat="47.84268" lon="7.03406">
        <ele>683</ele>
        <time>2021-08-25T06:04:00Z</time>
      </trkpt>
      <trkpt lat="47.84254" lon="7.03403">
        <ele>687</ele>
        <time>2021-08-25T06:04:11Z</time>
      </trkpt>
      <trkpt lat="47.84229" lon="7.03363">
        <ele>688</ele>
        <time>2021-08-25T06:04:40Z</time>
      </trkpt>
      <trkpt lat="47.84203" lon="7.03304">
        <ele>693</ele>
        <time>2021-08-25T06:05:18Z</time>
      </trkpt>
      <trkpt lat="47.8419" lon="7.03265">
        <ele>698</ele>
        <time>2021-08-25T06:05:42Z</time>
      </trkpt>
      <trkpt lat="47.84196" lon="7.03194">
        <ele>691</ele>
        <time>2021-08-25T06:06:20Z</time>
      </trkpt>
      <trkpt lat="47.84208" lon="7.0314">
        <ele>680</ele>
        <time>2021-08-25T06:06:51Z</time>
      </trkpt>
      <trkpt lat="47.84172" lon="7.03053">
        <ele>685</ele>
        <time>2021-08-25T06:07:46Z</time>
      </trkpt>
      <trkpt lat="47.84158" lon="7.03037">
        <ele>686</ele>
        <time>2021-08-25T06:08:00Z</time>
      </trkpt>
      <trkpt lat="47.84138" lon="7.03034">
        <ele>688</ele>
        <time>2021-08-25T06:08:16Z</time>
      </trkpt>
      <trkpt lat="47.84128" lon="7.03041">
        <ele>692</ele>
        <time>2021-08-25T06:08:25Z</time>
      </trkpt>
      <trkpt lat="47.84095" lon="7.03075">
        <ele>710</ele>
        <time>2021-08-25T06:08:57Z</time>
      </trkpt>
      <trkpt lat="47.84065" lon="7.03095">
        <ele>719</ele>
        <time>2021-08-25T06:09:23Z</time>
      </trkpt>
      <trkpt lat="47.84041" lon="7.03094">
        <ele>719</ele>
        <time>2021-08-25T06:09:42Z</time>
      </trkpt>
      <trkpt lat="47.84011" lon="7.03081">
        <ele>715</ele>
        <time>2021-08-25T06:10:07Z</time>
      </trkpt>
      <trkpt lat="47.83971" lon="7.03074">
        <ele>715</ele>
        <time>2021-08-25T06:10:40Z</time>
      </trkpt>
      <trkpt lat="47.83943" lon="7.03066">
        <ele>716</ele>
        <time>2021-08-25T06:11:03Z</time>
      </trkpt>
      <trkpt lat="47.83922" lon="7.03088">
        <ele>721</ele>
        <time>2021-08-25T06:11:23Z</time>
      </trkpt>
      <trkpt lat="47.8389" lon="7.03133">
        <ele>728</ele>
        <time>2021-08-25T06:11:58Z</time>
      </trkpt>
      <trkpt lat="47.83879" lon="7.03159">
        <ele>731</ele>
        <time>2021-08-25T06:12:15Z</time>
      </trkpt>
      <trkpt lat="47.83862" lon="7.03165">
        <ele>730</ele>
        <time>2021-08-25T06:12:29Z</time>
      </trkpt>
      <trkpt lat="47.83843" lon="7.03165">
        <ele>729</ele>
        <time>2021-08-25T06:12:44Z</time>
      </trkpt>
      <trkpt lat="47.83821" lon="7.03172">
        <ele>731</ele>
        <time>2021-08-25T06:13:02Z</time>
      </trkpt>
      <trkpt lat="47.83801" lon="7.03171">
        <ele>735</ele>
        <time>2021-08-25T06:13:18Z</time>
      </trkpt>
      <trkpt lat="47.83765" lon="7.0318">
        <ele>740</ele>
        <time>2021-08-25T06:13:47Z</time>
      </trkpt>
      <trkpt lat="47.83736" lon="7.03176">
        <ele>747</ele>
        <time>2021-08-25T06:14:11Z</time>
      </trkpt>
      <trkpt lat="47.8368" lon="7.03116">
        <ele>769</ele>
        <time>2021-08-25T06:15:06Z</time>
      </trkpt>
      <trkpt lat="47.8365" lon="7.03107">
        <ele>777</ele>
        <time>2021-08-25T06:15:30Z</time>
      </trkpt>
      <trkpt lat="47.83617" lon="7.03115">
        <ele>782</ele>
        <time>2021-08-25T06:15:57Z</time>
      </trkpt>
      <trkpt lat="47.83563" lon="7.03109">
        <ele>794</ele>
        <time>2021-08-25T06:16:40Z</time>
      </trkpt>
      <trkpt lat="47.83491" lon="7.03141">
        <ele>799</ele>
        <time>2021-08-25T06:17:41Z</time>
      </trkpt>
      <trkpt lat="47.83454" lon="7.03116">
        <ele>803</ele>
        <time>2021-08-25T06:18:13Z</time>
      </trkpt>
      <trkpt lat="47.83415" lon="7.0313">
        <ele>801</ele>
        <time>2021-08-25T06:18:45Z</time>
      </trkpt>
      <trkpt lat="47.83434" lon="7.03045">
        <ele>811</ele>
        <time>2021-08-25T06:19:33Z</time>
      </trkpt>
      <trkpt lat="47.83409" lon="7.03045">
        <ele>814</ele>
        <time>2021-08-25T06:19:53Z</time>
      </trkpt>
      <trkpt lat="47.8339" lon="7.03041">
        <ele>817</ele>
        <time>2021-08-25T06:20:09Z</time>
      </trkpt>
      <trkpt lat="47.83363" lon="7.03005">
        <ele>828</ele>
        <time>2021-08-25T06:20:38Z</time>
      </trkpt>
      <trkpt lat="47.83327" lon="7.03017">
        <ele>833</ele>
        <time>2021-08-25T06:21:07Z</time>
      </trkpt>
      <trkpt lat="47.83265" lon="7.03046">
        <ele>841</ele>
        <time>2021-08-25T06:21:59Z</time>
      </trkpt>
      <trkpt lat="47.83242" lon="7.03047">
        <ele>847</ele>
        <time>2021-08-25T06:22:18Z</time>
      </trkpt>
      <trkpt lat="47.83219" lon="7.03053">
        <ele>851</ele>
        <time>2021-08-25T06:22:37Z</time>
      </trkpt>
      <trkpt lat="47.83188" lon="7.03052">
        <ele>859</ele>
        <time>2021-08-25T06:23:01Z</time>
      </trkpt>
      <trkpt lat="47.83223" lon="7.03015">
        <ele>865</ele>
        <time>2021-08-25T06:23:36Z</time>
      </trkpt>
      <trkpt lat="47.83236" lon="7.02982">
        <ele>870</ele>
        <time>2021-08-25T06:23:56Z</time>
      </trkpt>
      <trkpt lat="47.83233" lon="7.02957">
        <ele>874</ele>
        <time>2021-08-25T06:24:10Z</time>
      </trkpt>
      <trkpt lat="47.83183" lon="7.02983">
        <ele>887</ele>
        <time>2021-08-25T06:24:52Z</time>
      </trkpt>
      <trkpt lat="47.8315" lon="7.03011">
        <ele>888</ele>
        <time>2021-08-25T06:25:23Z</time>
      </trkpt>
      <trkpt lat="47.8313" lon="7.03006">
        <ele>897</ele>
        <time>2021-08-25T06:25:39Z</time>
      </trkpt>
      <trkpt lat="47.83152" lon="7.02994">
        <ele>894</ele>
        <time>2021-08-25T06:25:58Z</time>
      </trkpt>
      <trkpt lat="47.83165" lon="7.0296">
        <ele>899</ele>
        <time>2021-08-25T06:26:19Z</time>
      </trkpt>
      <trkpt lat="47.83166" lon="7.0293">
        <ele>907</ele>
        <time>2021-08-25T06:26:35Z</time>
      </trkpt>
      <trkpt lat="47.8315" lon="7.02951">
        <ele>907</ele>
        <time>2021-08-25T06:26:52Z</time>
      </trkpt>
      <trkpt lat="47.83119" lon="7.02972">
        <ele>912</ele>
        <time>2021-08-25T06:27:19Z</time>
      </trkpt>
      <trkpt lat="47.83106" lon="7.02971">
        <ele>917</ele>
        <time>2021-08-25T06:27:30Z</time>
      </trkpt>
      <trkpt lat="47.83073" lon="7.0298">
        <ele>925</ele>
        <time>2021-08-25T06:27:57Z</time>
      </trkpt>
      <trkpt lat="47.83098" lon="7.02919">
        <ele>936</ele>
        <time>2021-08-25T06:28:35Z</time>
      </trkpt>
      <trkpt lat="47.8308" lon="7.02924">
        <ele>941</ele>
        <time>2021-08-25T06:28:50Z</time>
      </trkpt>
      <trkpt lat="47.83015" lon="7.02975">
        <ele>944</ele>
        <time>2021-08-25T06:29:48Z</time>
      </trkpt>
      <trkpt lat="47.82997" lon="7.0298">
        <ele>946</ele>
        <time>2021-08-25T06:30:03Z</time>
      </trkpt>
      <trkpt lat="47.8302" lon="7.02922">
        <ele>963</ele>
        <time>2021-08-25T06:30:39Z</time>
      </trkpt>
      <trkpt lat="47.83023" lon="7.02873">
        <ele>970</ele>
        <time>2021-08-25T06:31:06Z</time>
      </trkpt>
      <trkpt lat="47.82981" lon="7.02907">
        <ele>974</ele>
        <time>2021-08-25T06:31:44Z</time>
      </trkpt>
      <trkpt lat="47.82982" lon="7.02837">
        <ele>987</ele>
        <time>2021-08-25T06:32:22Z</time>
      </trkpt>
      <trkpt lat="47.82968" lon="7.02859">
        <ele>984</ele>
        <time>2021-08-25T06:32:38Z</time>
      </trkpt>
      <trkpt lat="47.8296" lon="7.02831">
        <ele>992</ele>
        <time>2021-08-25T06:32:54Z</time>
      </trkpt>
      <trkpt lat="47.82938" lon="7.02831">
        <ele>996</ele>
        <time>2021-08-25T06:33:12Z</time>
      </trkpt>
      <trkpt lat="47.82929" lon="7.02807">
        <ele>1003</ele>
        <time>2021-08-25T06:33:27Z</time>
      </trkpt>
      <trkpt lat="47.82933" lon="7.02739">
        <ele>1016</ele>
        <time>2021-08-25T06:34:03Z</time>
      </trkpt>
      <trkpt lat="47.82922" lon="7.02636">
        <ele>1027</ele>
        <time>2021-08-25T06:34:59Z</time>
      </trkpt>
      <trkpt lat="47.82897" lon="7.02569">
        <ele>1037</ele>
        <time>2021-08-25T06:35:41Z</time>
      </trkpt>
      <trkpt lat="47.82858" lon="7.02434">
        <ele>1038</ele>
        <time>2021-08-25T06:37:00Z</time>
      </trkpt>
      <trkpt lat="47.8279" lon="7.02368">
        <ele>1044</ele>
        <time>2021-08-25T06:38:05Z</time>
      </trkpt>
      <trkpt lat="47.82712" lon="7.02272">
        <ele>1051</ele>
        <time>2021-08-25T06:39:26Z</time>
      </trkpt>
      <trkpt lat="47.82667" lon="7.02186">
        <ele>1050</ele>
        <time>2021-08-25T06:40:24Z</time>
      </trkpt>
      <trkpt lat="47.8263" lon="7.02104">
        <ele>1052</ele>
        <time>2021-08-25T06:41:17Z</time>
      </trkpt>
      <trkpt lat="47.82604" lon="7.02066">
        <ele>1055</ele>
        <time>2021-08-25T06:41:47Z</time>
      </trkpt>
      <trkpt lat="47.82567" lon="7.02021">
        <ele>1059</ele>
        <time>2021-08-25T06:42:25Z</time>
      </trkpt>
      <trkpt lat="47.82532" lon="7.01938">
        <ele>1062</ele>
        <time>2021-08-25T06:43:17Z</time>
      </trkpt>
      <trkpt lat="47.82502" lon="7.01659">
        <ele>1053</ele>
        <time>2021-08-25T06:45:49Z</time>
      </trkpt>
      <trkpt lat="47.825" lon="7.01539">
        <ele>1051</ele>
        <time>2021-08-25T06:46:54Z</time>
      </trkpt>
      <trkpt lat="47.82503" lon="7.01411">
        <ele>1049</ele>
        <time>2021-08-25T06:48:03Z</time>
      </trkpt>
      <trkpt lat="47.82522" lon="7.01342">
        <ele>1054</ele>
        <time>2021-08-25T06:48:43Z</time>
      </trkpt>
      <trkpt lat="47.82534" lon="7.01327">
        <ele>1056</ele>
        <time>2021-08-25T06:48:55Z</time>
      </trkpt>
      <trkpt lat="47.82627" lon="7.01319">
        <ele>1054</ele>
        <time>2021-08-25T06:50:10Z</time>
      </trkpt>
      <trkpt lat="47.82683" lon="7.01324">
        <ele>1048</ele>
        <time>2021-08-25T06:50:55Z</time>
      </trkpt>
      <trkpt lat="47.82746" lon="7.01252">
        <ele>1043</ele>
        <time>2021-08-25T06:51:58Z</time>
      </trkpt>
      <trkpt lat="47.82787" lon="7.01061">
        <ele>1053</ele>
        <time>2021-08-25T06:53:46Z</time>
      </trkpt>
      <trkpt lat="47.82818" lon="7.01018">
        <ele>1043</ele>
        <time>2021-08-25T06:54:20Z</time>
      </trkpt>
      <trkpt lat="47.82824" lon="7.00995">
        <ele>1043</ele>
        <time>2021-08-25T06:54:33Z</time>
      </trkpt>
      <trkpt lat="47.82848" lon="7.00974">
        <ele>1042</ele>
        <time>2021-08-25T06:54:56Z</time>
      </trkpt>
      <trkpt lat="47.82877" lon="7.00982">
        <ele>1039</ele>
        <time>2021-08-25T06:55:19Z</time>
      </trkpt>
      <trkpt lat="47.82923" lon="7.00974">
        <ele>1040</ele>
        <time>2021-08-25T06:55:56Z</time>
      </trkpt>
      <trkpt lat="47.82974" lon="7.01024">
        <ele>1034</ele>
        <time>2021-08-25T06:56:45Z</time>
      </trkpt>
      <trkpt lat="47.83031" lon="7.01089">
        <ele>1025</ele>
        <time>2021-08-25T06:57:43Z</time>
      </trkpt>
      <trkpt lat="47.8308" lon="7.01109">
        <ele>1023</ele>
        <time>2021-08-25T06:58:23Z</time>
      </trkpt>
      <trkpt lat="47.83132" lon="7.01107">
        <ele>1030</ele>
        <time>2021-08-25T06:59:05Z</time>
      </trkpt>
      <trkpt lat="47.83196" lon="7.01121">
        <ele>1035</ele>
        <time>2021-08-25T06:59:57Z</time>
      </trkpt>
      <trkpt lat="47.83278" lon="7.01157">
        <ele>1034</ele>
        <time>2021-08-25T07:01:05Z</time>
      </trkpt>
      <trkpt lat="47.83316" lon="7.01167">
        <ele>1034</ele>
        <time>2021-08-25T07:01:36Z</time>
      </trkpt>
      <trkpt lat="47.8339" lon="7.01146">
        <ele>1029</ele>
        <time>2021-08-25T07:02:37Z</time>
      </trkpt>
      <trkpt lat="47.83415" lon="7.01112">
        <ele>1029</ele>
        <time>2021-08-25T07:03:04Z</time>
      </trkpt>
      <trkpt lat="47.83409" lon="7.00969">
        <ele>1038</ele>
        <time>2021-08-25T07:04:21Z</time>
      </trkpt>
      <trkpt lat="47.83409" lon="7.00789">
        <ele>1051</ele>
        <time>2021-08-25T07:05:57Z</time>
      </trkpt>
      <trkpt lat="47.83386" lon="7.00743">
        <ele>1058</ele>
        <time>2021-08-25T07:06:28Z</time>
      </trkpt>
      <trkpt lat="47.83322" lon="7.00697">
        <ele>1070</ele>
        <time>2021-08-25T07:07:25Z</time>
      </trkpt>
      <trkpt lat="47.83276" lon="7.00685">
        <ele>1079</ele>
        <time>2021-08-25T07:08:03Z</time>
      </trkpt>
      <trkpt lat="47.83263" lon="7.00671">
        <ele>1080</ele>
        <time>2021-08-25T07:08:15Z</time>
      </trkpt>
      <trkpt lat="47.83218" lon="7.0066">
        <ele>1089</ele>
        <time>2021-08-25T07:08:52Z</time>
      </trkpt>
      <trkpt lat="47.83175" lon="7.00625">
        <ele>1096</ele>
        <time>2021-08-25T07:09:31Z</time>
      </trkpt>
      <trkpt lat="47.83137" lon="7.00559">
        <ele>1102</ele>
        <time>2021-08-25T07:10:18Z</time>
      </trkpt>
      <trkpt lat="47.83082" lon="7.0048">
        <ele>1115</ele>
        <time>2021-08-25T07:11:19Z</time>
      </trkpt>
      <trkpt lat="47.83016" lon="7.00402">
        <ele>1136</ele>
        <time>2021-08-25T07:12:27Z</time>
      </trkpt>
      <trkpt lat="47.83011" lon="7.00357">
        <ele>1141</ele>
        <time>2021-08-25T07:12:51Z</time>
      </trkpt>
      <trkpt lat="47.83029" lon="7.00286">
        <ele>1141</ele>
        <time>2021-08-25T07:13:32Z</time>
      </trkpt>
      <trkpt lat="47.83052" lon="7.00211">
        <ele>1141</ele>
        <time>2021-08-25T07:14:16Z</time>
      </trkpt>
      <trkpt lat="47.83055" lon="7.00184">
        <ele>1142</ele>
        <time>2021-08-25T07:14:31Z</time>
      </trkpt>
      <trkpt lat="47.83044" lon="7.00133">
        <ele>1137</ele>
        <time>2021-08-25T07:15:00Z</time>
      </trkpt>
      <trkpt lat="47.8305" lon="7.0012">
        <ele>1135</ele>
        <time>2021-08-25T07:15:08Z</time>
      </trkpt>
      <trkpt lat="47.83063" lon="7.00185">
        <ele>1141</ele>
        <time>2021-08-25T07:15:45Z</time>
      </trkpt>
      <trkpt lat="47.83085" lon="7.00137">
        <ele>1135</ele>
        <time>2021-08-25T07:16:16Z</time>
      </trkpt>
      <trkpt lat="47.83099" lon="7.00092">
        <ele>1121</ele>
        <time>2021-08-25T07:16:42Z</time>
      </trkpt>
      <trkpt lat="47.83091" lon="7.0004">
        <ele>1115</ele>
        <time>2021-08-25T07:17:11Z</time>
      </trkpt>
      <trkpt lat="47.83098" lon="6.99996">
        <ele>1105</ele>
        <time>2021-08-25T07:17:35Z</time>
      </trkpt>
      <trkpt lat="47.83116" lon="6.99933">
        <ele>1091</ele>
        <time>2021-08-25T07:18:12Z</time>
      </trkpt>
      <trkpt lat="47.83145" lon="6.99873">
        <ele>1084</ele>
        <time>2021-08-25T07:18:52Z</time>
      </trkpt>
      <trkpt lat="47.83181" lon="6.99815">
        <ele>1074</ele>
        <time>2021-08-25T07:19:34Z</time>
      </trkpt>
      <trkpt lat="47.83186" lon="6.9977">
        <ele>1063</ele>
        <time>2021-08-25T07:19:59Z</time>
      </trkpt>
      <trkpt lat="47.83169" lon="6.99698">
        <ele>1059</ele>
        <time>2021-08-25T07:20:40Z</time>
      </trkpt>
      <trkpt lat="47.83194" lon="6.99624">
        <ele>1053</ele>
        <time>2021-08-25T07:21:25Z</time>
      </trkpt>
      <trkpt lat="47.83219" lon="6.99589">
        <ele>1049</ele>
        <time>2021-08-25T07:21:52Z</time>
      </trkpt>
      <trkpt lat="47.83237" lon="6.99544">
        <ele>1051</ele>
        <time>2021-08-25T07:22:20Z</time>
      </trkpt>
      <trkpt lat="47.83268" lon="6.99514">
        <ele>1051</ele>
        <time>2021-08-25T07:22:50Z</time>
      </trkpt>
      <trkpt lat="47.8333" lon="6.99479">
        <ele>1046</ele>
        <time>2021-08-25T07:23:43Z</time>
      </trkpt>
      <trkpt lat="47.83367" lon="6.99443">
        <ele>1045</ele>
        <time>2021-08-25T07:24:18Z</time>
      </trkpt>
      <trkpt lat="47.83396" lon="6.99425">
        <ele>1042</ele>
        <time>2021-08-25T07:24:43Z</time>
      </trkpt>
      <trkpt lat="47.83442" lon="6.99415">
        <ele>1035</ele>
        <time>2021-08-25T07:25:21Z</time>
      </trkpt>
      <trkpt lat="47.83461" lon="6.99399">
        <ele>1031</ele>
        <time>2021-08-25T07:25:38Z</time>
      </trkpt>
      <trkpt lat="47.83468" lon="6.99381">
        <ele>1030</ele>
        <time>2021-08-25T07:25:49Z</time>
      </trkpt>
      <trkpt lat="47.83525" lon="6.99278">
        <ele>1019</ele>
        <time>2021-08-25T07:27:01Z</time>
      </trkpt>
      <trkpt lat="47.83574" lon="6.99179">
        <ele>1010</ele>
        <time>2021-08-25T07:28:07Z</time>
      </trkpt>
      <trkpt lat="47.83682" lon="6.99132">
        <ele>986</ele>
        <time>2021-08-25T07:29:37Z</time>
      </trkpt>
      <trkpt lat="47.83735" lon="6.99082">
        <ele>981</ele>
        <time>2021-08-25T07:30:27Z</time>
      </trkpt>
      <trkpt lat="47.8378" lon="6.99061">
        <ele>980</ele>
        <time>2021-08-25T07:31:05Z</time>
      </trkpt>
      <trkpt lat="47.83841" lon="6.99062">
        <ele>975</ele>
        <time>2021-08-25T07:31:54Z</time>
      </trkpt>
      <trkpt lat="47.83993" lon="6.98963">
        <ele>977</ele>
        <time>2021-08-25T07:34:07Z</time>
      </trkpt>
      <trkpt lat="47.84022" lon="6.98919">
        <ele>980</ele>
        <time>2021-08-25T07:34:40Z</time>
      </trkpt>
      <trkpt lat="47.84028" lon="6.98875">
        <ele>978</ele>
        <time>2021-08-25T07:35:04Z</time>
      </trkpt>
      <trkpt lat="47.84073" lon="6.98825">
        <ele>980</ele>
        <time>2021-08-25T07:35:49Z</time>
      </trkpt>
      <trkpt lat="47.84089" lon="6.98721">
        <ele>973</ele>
        <time>2021-08-25T07:36:46Z</time>
      </trkpt>
      <trkpt lat="47.84106" lon="6.98646">
        <ele>969</ele>
        <time>2021-08-25T07:37:29Z</time>
      </trkpt>
      <trkpt lat="47.84133" lon="6.98596">
        <ele>971</ele>
        <time>2021-08-25T07:38:03Z</time>
      </trkpt>
      <trkpt lat="47.84155" lon="6.98562">
        <ele>976</ele>
        <time>2021-08-25T07:38:29Z</time>
      </trkpt>
      <trkpt lat="47.84151" lon="6.98445">
        <ele>978</ele>
        <time>2021-08-25T07:39:32Z</time>
      </trkpt>
      <trkpt lat="47.84114" lon="6.98396">
        <ele>965</ele>
        <time>2021-08-25T07:40:11Z</time>
      </trkpt>
      <trkpt lat="47.84106" lon="6.98335">
        <ele>969</ele>
        <time>2021-08-25T07:40:45Z</time>
      </trkpt>
      <trkpt lat="47.84109" lon="6.98226">
        <ele>977</ele>
        <time>2021-08-25T07:41:43Z</time>
      </trkpt>
      <trkpt lat="47.84094" lon="6.98155">
        <ele>973</ele>
        <time>2021-08-25T07:42:23Z</time>
      </trkpt>
      <trkpt lat="47.84084" lon="6.98119">
        <ele>965</ele>
        <time>2021-08-25T07:42:44Z</time>
      </trkpt>
      <trkpt lat="47.84095" lon="6.98065">
        <ele>961</ele>
        <time>2021-08-25T07:43:15Z</time>
      </trkpt>
      <trkpt lat="47.84163" lon="6.9794">
        <ele>954</ele>
        <time>2021-08-25T07:44:41Z</time>
      </trkpt>
      <trkpt lat="47.84187" lon="6.97803">
        <ele>931</ele>
        <time>2021-08-25T07:45:57Z</time>
      </trkpt>
      <trkpt lat="47.84186" lon="6.97737">
        <ele>930</ele>
        <time>2021-08-25T07:46:33Z</time>
      </trkpt>
      <trkpt lat="47.84195" lon="6.97678">
        <ele>935</ele>
        <time>2021-08-25T07:47:05Z</time>
      </trkpt>
      <trkpt lat="47.84196" lon="6.97614">
        <ele>941</ele>
        <time>2021-08-25T07:47:40Z</time>
      </trkpt>
      <trkpt lat="47.84127" lon="6.97367">
        <ele>962</ele>
        <time>2021-08-25T07:50:03Z</time>
      </trkpt>
      <trkpt lat="47.8411" lon="6.97269">
        <ele>963</ele>
        <time>2021-08-25T07:50:58Z</time>
      </trkpt>
      <trkpt lat="47.84107" lon="6.97158">
        <ele>963</ele>
        <time>2021-08-25T07:51:58Z</time>
      </trkpt>
      <trkpt lat="47.84124" lon="6.96876">
        <ele>982</ele>
        <time>2021-08-25T07:54:30Z</time>
      </trkpt>
      <trkpt lat="47.84111" lon="6.9687">
        <ele>985</ele>
        <time>2021-08-25T07:54:41Z</time>
      </trkpt>
      <trkpt lat="47.84109" lon="6.96821">
        <ele>991</ele>
        <time>2021-08-25T07:55:07Z</time>
      </trkpt>
      <trkpt lat="47.84129" lon="6.96738">
        <ele>994</ele>
        <time>2021-08-25T07:55:54Z</time>
      </trkpt>
      <trkpt lat="47.84177" lon="6.96658">
        <ele>990</ele>
        <time>2021-08-25T07:56:52Z</time>
      </trkpt>
      <trkpt lat="47.84226" lon="6.96597">
        <ele>985</ele>
        <time>2021-08-25T07:57:43Z</time>
      </trkpt>
      <trkpt lat="47.84295" lon="6.96544">
        <ele>989</ele>
        <time>2021-08-25T07:58:45Z</time>
      </trkpt>
      <trkpt lat="47.84347" lon="6.9652">
        <ele>991</ele>
        <time>2021-08-25T07:59:29Z</time>
      </trkpt>
      <trkpt lat="47.84381" lon="6.96395">
        <ele>1003</ele>
        <time>2021-08-25T08:00:41Z</time>
      </trkpt>
      <trkpt lat="47.84392" lon="6.96333">
        <ele>1010</ele>
        <time>2021-08-25T08:01:16Z</time>
      </trkpt>
      <trkpt lat="47.84436" lon="6.96231">
        <ele>1023</ele>
        <time>2021-08-25T08:02:21Z</time>
      </trkpt>
      <trkpt lat="47.84472" lon="6.96139">
        <ele>1035</ele>
        <time>2021-08-25T08:03:18Z</time>
      </trkpt>
      <trkpt lat="47.84503" lon="6.96093">
        <ele>1044</ele>
        <time>2021-08-25T08:03:53Z</time>
      </trkpt>
      <trkpt lat="47.84582" lon="6.96052">
        <ele>1047</ele>
        <time>2021-08-25T08:05:00Z</time>
      </trkpt>
      <trkpt lat="47.84616" lon="6.95996">
        <ele>1060</ele>
        <time>2021-08-25T08:05:41Z</time>
      </trkpt>
      <trkpt lat="47.84639" lon="6.95923">
        <ele>1075</ele>
        <time>2021-08-25T08:06:24Z</time>
      </trkpt>
      <trkpt lat="47.84691" lon="6.9588">
        <ele>1072</ele>
        <time>2021-08-25T08:07:12Z</time>
      </trkpt>
      <trkpt lat="47.84716" lon="6.95829">
        <ele>1069</ele>
        <time>2021-08-25T08:07:46Z</time>
      </trkpt>
      <trkpt lat="47.84716" lon="6.95775">
        <ele>1065</ele>
        <time>2021-08-25T08:08:15Z</time>
      </trkpt>
      <trkpt lat="47.84666" lon="6.95621">
        <ele>1072</ele>
        <time>2021-08-25T08:09:47Z</time>
      </trkpt>
      <trkpt lat="47.84669" lon="6.9553">
        <ele>1063</ele>
        <time>2021-08-25T08:10:36Z</time>
      </trkpt>
      <trkpt lat="47.84661" lon="6.95433">
        <ele>1054</ele>
        <time>2021-08-25T08:11:28Z</time>
      </trkpt>
      <trkpt lat="47.84698" lon="6.95147">
        <ele>1045</ele>
        <time>2021-08-25T08:14:05Z</time>
      </trkpt>
      <trkpt lat="47.84713" lon="6.95107">
        <ele>1046</ele>
        <time>2021-08-25T08:14:29Z</time>
      </trkpt>
      <trkpt lat="47.84738" lon="6.95059">
        <ele>1050</ele>
        <time>2021-08-25T08:15:02Z</time>
      </trkpt>
      <trkpt lat="47.84749" lon="6.95016">
        <ele>1053</ele>
        <time>2021-08-25T08:15:27Z</time>
      </trkpt>
      <trkpt lat="47.84747" lon="6.94938">
        <ele>1052</ele>
        <time>2021-08-25T08:16:09Z</time>
      </trkpt>
      <trkpt lat="47.84741" lon="6.94887">
        <ele>1049</ele>
        <time>2021-08-25T08:16:36Z</time>
      </trkpt>
      <trkpt lat="47.84743" lon="6.94845">
        <ele>1046</ele>
        <time>2021-08-25T08:16:59Z</time>
      </trkpt>
      <trkpt lat="47.84762" lon="6.94798">
        <ele>1043</ele>
        <time>2021-08-25T08:17:29Z</time>
      </trkpt>
      <trkpt lat="47.8477" lon="6.94714">
        <ele>1051</ele>
        <time>2021-08-25T08:18:14Z</time>
      </trkpt>
      <trkpt lat="47.84788" lon="6.94637">
        <ele>1063</ele>
        <time>2021-08-25T08:18:58Z</time>
      </trkpt>
      <trkpt lat="47.84778" lon="6.94634">
        <ele>1066</ele>
        <time>2021-08-25T08:19:06Z</time>
      </trkpt>
      <trkpt lat="47.84783" lon="6.9462">
        <ele>1069</ele>
        <time>2021-08-25T08:19:15Z</time>
      </trkpt>
      <trkpt lat="47.84773" lon="6.9462">
        <ele>1071</ele>
        <time>2021-08-25T08:19:23Z</time>
      </trkpt>
      <trkpt lat="47.84779" lon="6.94602">
        <ele>1075</ele>
        <time>2021-08-25T08:19:33Z</time>
      </trkpt>
      <trkpt lat="47.84776" lon="6.94587">
        <ele>1080</ele>
        <time>2021-08-25T08:19:42Z</time>
      </trkpt>
      <trkpt lat="47.84772" lon="6.94583">
        <ele>1081</ele>
        <time>2021-08-25T08:19:46Z</time>
      </trkpt>
      <trkpt lat="47.84792" lon="6.94528">
        <ele>1093</ele>
        <time>2021-08-25T08:20:19Z</time>
      </trkpt>
      <trkpt lat="47.84816" lon="6.94478">
        <ele>1107</ele>
        <time>2021-08-25T08:20:52Z</time>
      </trkpt>
      <trkpt lat="47.84848" lon="6.94425">
        <ele>1115</ele>
        <time>2021-08-25T08:21:31Z</time>
      </trkpt>
      <trkpt lat="47.84863" lon="6.94349">
        <ele>1124</ele>
        <time>2021-08-25T08:22:13Z</time>
      </trkpt>
      <trkpt lat="47.84884" lon="6.94307">
        <ele>1124</ele>
        <time>2021-08-25T08:22:41Z</time>
      </trkpt>
      <trkpt lat="47.84968" lon="6.94226">
        <ele>1131</ele>
        <time>2021-08-25T08:24:01Z</time>
      </trkpt>
      <trkpt lat="47.85031" lon="6.94187">
        <ele>1144</ele>
        <time>2021-08-25T08:24:56Z</time>
      </trkpt>
      <trkpt lat="47.85067" lon="6.94161">
        <ele>1154</ele>
        <time>2021-08-25T08:25:28Z</time>
      </trkpt>
      <trkpt lat="47.85112" lon="6.94085">
        <ele>1169</ele>
        <time>2021-08-25T08:26:23Z</time>
      </trkpt>
      <trkpt lat="47.85141" lon="6.94045">
        <ele>1170</ele>
        <time>2021-08-25T08:26:54Z</time>
      </trkpt>
      <trkpt lat="47.85156" lon="6.94013">
        <ele>1173</ele>
        <time>2021-08-25T08:27:15Z</time>
      </trkpt>
      <trkpt lat="47.85155" lon="6.9398">
        <ele>1176</ele>
        <time>2021-08-25T08:27:33Z</time>
      </trkpt>
      <trkpt lat="47.85131" lon="6.93882">
        <ele>1177</ele>
        <time>2021-08-25T08:28:29Z</time>
      </trkpt>
      <trkpt lat="47.85117" lon="6.93843">
        <ele>1176</ele>
        <time>2021-08-25T08:28:53Z</time>
      </trkpt>
      <trkpt lat="47.85088" lon="6.93793">
        <ele>1179</ele>
        <time>2021-08-25T08:29:28Z</time>
      </trkpt>
      <trkpt lat="47.85067" lon="6.93736">
        <ele>1178</ele>
        <time>2021-08-25T08:30:03Z</time>
      </trkpt>
      <trkpt lat="47.85046" lon="6.93694">
        <ele>1176</ele>
        <time>2021-08-25T08:30:31Z</time>
      </trkpt>
      <trkpt lat="47.85019" lon="6.9365">
        <ele>1176</ele>
        <time>2021-08-25T08:31:03Z</time>
      </trkpt>
      <trkpt lat="47.84942" lon="6.93478">
        <ele>1173</ele>
        <time>2021-08-25T08:32:54Z</time>
      </trkpt>
      <trkpt lat="47.84926" lon="6.93428">
        <ele>1176</ele>
        <time>2021-08-25T08:33:24Z</time>
      </trkpt>
      <trkpt lat="47.84886" lon="6.93217">
        <ele>1166</ele>
        <time>2021-08-25T08:35:22Z</time>
      </trkpt>
      <trkpt lat="47.84851" lon="6.93112">
        <ele>1153</ele>
        <time>2021-08-25T08:36:25Z</time>
      </trkpt>
      <trkpt lat="47.84834" lon="6.93086">
        <ele>1151</ele>
        <time>2021-08-25T08:36:45Z</time>
      </trkpt>
      <trkpt lat="47.84829" lon="6.9307">
        <ele>1148</ele>
        <time>2021-08-25T08:36:54Z</time>
      </trkpt>
      <trkpt lat="47.84831" lon="6.93022">
        <ele>1140</ele>
        <time>2021-08-25T08:37:20Z</time>
      </trkpt>
      <trkpt lat="47.84862" lon="6.92857">
        <ele>1114</ele>
        <time>2021-08-25T08:38:52Z</time>
      </trkpt>
      <trkpt lat="47.84842" lon="6.92705">
        <ele>1099</ele>
        <time>2021-08-25T08:40:15Z</time>
      </trkpt>
      <trkpt lat="47.84845" lon="6.92666">
        <ele>1095</ele>
        <time>2021-08-25T08:40:36Z</time>
      </trkpt>
      <trkpt lat="47.84854" lon="6.92623">
        <ele>1089</ele>
        <time>2021-08-25T08:41:00Z</time>
      </trkpt>
      <trkpt lat="47.84853" lon="6.92572">
        <ele>1085</ele>
        <time>2021-08-25T08:41:28Z</time>
      </trkpt>
      <trkpt lat="47.84842" lon="6.92545">
        <ele>1082</ele>
        <time>2021-08-25T08:41:45Z</time>
      </trkpt>
      <trkpt lat="47.84825" lon="6.92523">
        <ele>1075</ele>
        <time>2021-08-25T08:42:03Z</time>
      </trkpt>
      <trkpt lat="47.84839" lon="6.9251">
        <ele>1074</ele>
        <time>2021-08-25T08:42:16Z</time>
      </trkpt>
      <trkpt lat="47.84863" lon="6.92514">
        <ele>1074</ele>
        <time>2021-08-25T08:42:35Z</time>
      </trkpt>
      <trkpt lat="47.84865" lon="6.92486">
        <ele>1072</ele>
        <time>2021-08-25T08:42:51Z</time>
      </trkpt>
      <trkpt lat="47.84868" lon="6.92476">
        <ele>1072</ele>
        <time>2021-08-25T08:42:56Z</time>
      </trkpt>
      <trkpt lat="47.84877" lon="6.92462">
        <ele>1074</ele>
        <time>2021-08-25T08:43:07Z</time>
      </trkpt>
      <trkpt lat="47.84897" lon="6.92461">
        <ele>1079</ele>
        <time>2021-08-25T08:43:23Z</time>
      </trkpt>
      <trkpt lat="47.84898" lon="6.92454">
        <ele>1080</ele>
        <time>2021-08-25T08:43:27Z</time>
      </trkpt>
      <trkpt lat="47.84928" lon="6.92456">
        <ele>1088</ele>
        <time>2021-08-25T08:43:51Z</time>
      </trkpt>
      <trkpt lat="47.84972" lon="6.92451">
        <ele>1098</ele>
        <time>2021-08-25T08:44:26Z</time>
      </trkpt>
      <trkpt lat="47.84998" lon="6.92427">
        <ele>1114</ele>
        <time>2021-08-25T08:44:51Z</time>
      </trkpt>
      <trkpt lat="47.85052" lon="6.924">
        <ele>1113</ele>
        <time>2021-08-25T08:45:36Z</time>
      </trkpt>
      <trkpt lat="47.85087" lon="6.92374">
        <ele>1118</ele>
        <time>2021-08-25T08:46:08Z</time>
      </trkpt>
      <trkpt lat="47.85116" lon="6.92332">
        <ele>1128</ele>
        <time>2021-08-25T08:46:40Z</time>
      </trkpt>
      <trkpt lat="47.85145" lon="6.92309">
        <ele>1127</ele>
        <time>2021-08-25T08:47:06Z</time>
      </trkpt>
      <trkpt lat="47.85219" lon="6.92273">
        <ele>1117</ele>
        <time>2021-08-25T08:48:09Z</time>
      </trkpt>
      <trkpt lat="47.85238" lon="6.92256">
        <ele>1118</ele>
        <time>2021-08-25T08:48:26Z</time>
      </trkpt>
      <trkpt lat="47.85251" lon="6.92223">
        <ele>1120</ele>
        <time>2021-08-25T08:48:47Z</time>
      </trkpt>
      <trkpt lat="47.85249" lon="6.92138">
        <ele>1133</ele>
        <time>2021-08-25T08:49:33Z</time>
      </trkpt>
      <trkpt lat="47.85254" lon="6.92094">
        <ele>1136</ele>
        <time>2021-08-25T08:49:57Z</time>
      </trkpt>
      <trkpt lat="47.85269" lon="6.92071">
        <ele>1133</ele>
        <time>2021-08-25T08:50:14Z</time>
      </trkpt>
      <trkpt lat="47.8531" lon="6.92035">
        <ele>1120</ele>
        <time>2021-08-25T08:50:52Z</time>
      </trkpt>
      <trkpt lat="47.85353" lon="6.92008">
        <ele>1107</ele>
        <time>2021-08-25T08:51:29Z</time>
      </trkpt>
      <trkpt lat="47.85375" lon="6.9198">
        <ele>1107</ele>
        <time>2021-08-25T08:51:52Z</time>
      </trkpt>
      <trkpt lat="47.85432" lon="6.91932">
        <ele>1099</ele>
        <time>2021-08-25T08:52:45Z</time>
      </trkpt>
      <trkpt lat="47.85445" lon="6.91892">
        <ele>1101</ele>
        <time>2021-08-25T08:53:09Z</time>
      </trkpt>
      <trkpt lat="47.85448" lon="6.91838">
        <ele>1103</ele>
        <time>2021-08-25T08:53:38Z</time>
      </trkpt>
      <trkpt lat="47.85467" lon="6.9178">
        <ele>1095</ele>
        <time>2021-08-25T08:54:12Z</time>
      </trkpt>
      <trkpt lat="47.85497" lon="6.91725">
        <ele>1086</ele>
        <time>2021-08-25T08:54:51Z</time>
      </trkpt>
      <trkpt lat="47.85502" lon="6.91703">
        <ele>1085</ele>
        <time>2021-08-25T08:55:03Z</time>
      </trkpt>
      <trkpt lat="47.85534" lon="6.91733">
        <ele>1088</ele>
        <time>2021-08-25T08:55:33Z</time>
      </trkpt>
      <trkpt lat="47.85561" lon="6.91723">
        <ele>1089</ele>
        <time>2021-08-25T08:55:56Z</time>
      </trkpt>
      <trkpt lat="47.85579" lon="6.91711">
        <ele>1089</ele>
        <time>2021-08-25T08:56:11Z</time>
      </trkpt>
      <trkpt lat="47.85605" lon="6.91583">
        <ele>1090</ele>
        <time>2021-08-25T08:57:23Z</time>
      </trkpt>
      <trkpt lat="47.85634" lon="6.91489">
        <ele>1091</ele>
        <time>2021-08-25T08:58:19Z</time>
      </trkpt>
      <trkpt lat="47.85684" lon="6.91393">
        <ele>1098</ele>
        <time>2021-08-25T08:59:24Z</time>
      </trkpt>
      <trkpt lat="47.85721" lon="6.91295">
        <ele>1105</ele>
        <time>2021-08-25T09:00:24Z</time>
      </trkpt>
      <trkpt lat="47.85736" lon="6.91233">
        <ele>1107</ele>
        <time>2021-08-25T09:01:00Z</time>
      </trkpt>
      <trkpt lat="47.85785" lon="6.91135">
        <ele>1115</ele>
        <time>2021-08-25T09:02:06Z</time>
      </trkpt>
      <trkpt lat="47.85828" lon="6.91056">
        <ele>1116</ele>
        <time>2021-08-25T09:03:00Z</time>
      </trkpt>
      <trkpt lat="47.85902" lon="6.90973">
        <ele>1114</ele>
        <time>2021-08-25T09:04:14Z</time>
      </trkpt>
      <trkpt lat="47.85933" lon="6.90953">
        <ele>1111</ele>
        <time>2021-08-25T09:04:41Z</time>
      </trkpt>
      <trkpt lat="47.85959" lon="6.9096">
        <ele>1108</ele>
        <time>2021-08-25T09:05:03Z</time>
      </trkpt>
      <trkpt lat="47.86029" lon="6.9099">
        <ele>1102</ele>
        <time>2021-08-25T09:06:01Z</time>
      </trkpt>
      <trkpt lat="47.86072" lon="6.90988">
        <ele>1093</ele>
        <time>2021-08-25T09:06:35Z</time>
      </trkpt>
      <trkpt lat="47.86134" lon="6.91001">
        <ele>1082</ele>
        <time>2021-08-25T09:07:25Z</time>
      </trkpt>
      <trkpt lat="47.86169" lon="6.91022">
        <ele>1081</ele>
        <time>2021-08-25T09:07:56Z</time>
      </trkpt>
      <trkpt lat="47.86217" lon="6.91023">
        <ele>1067</ele>
        <time>2021-08-25T09:08:34Z</time>
      </trkpt>
      <trkpt lat="47.86262" lon="6.91051">
        <ele>1063</ele>
        <time>2021-08-25T09:09:13Z</time>
      </trkpt>
      <trkpt lat="47.86312" lon="6.91053">
        <ele>1057</ele>
        <time>2021-08-25T09:09:53Z</time>
      </trkpt>
      <trkpt lat="47.8634" lon="6.91028">
        <ele>1050</ele>
        <time>2021-08-25T09:10:19Z</time>
      </trkpt>
      <trkpt lat="47.86352" lon="6.90982">
        <ele>1043</ele>
        <time>2021-08-25T09:10:46Z</time>
      </trkpt>
      <trkpt lat="47.86426" lon="6.90903">
        <ele>1041</ele>
        <time>2021-08-25T09:11:59Z</time>
      </trkpt>
      <trkpt lat="47.86468" lon="6.90876">
        <ele>1050</ele>
        <time>2021-08-25T09:12:35Z</time>
      </trkpt>
      <trkpt lat="47.86492" lon="6.90893">
        <ele>1048</ele>
        <time>2021-08-25T09:12:57Z</time>
      </trkpt>
      <trkpt lat="47.86526" lon="6.90939">
        <ele>1043</ele>
        <time>2021-08-25T09:13:33Z</time>
      </trkpt>
      <trkpt lat="47.86551" lon="6.90938">
        <ele>1044</ele>
        <time>2021-08-25T09:13:53Z</time>
      </trkpt>
      <trkpt lat="47.86596" lon="6.90912">
        <ele>1056</ele>
        <time>2021-08-25T09:14:32Z</time>
      </trkpt>
      <trkpt lat="47.86678" lon="6.90893">
        <ele>1071</ele>
        <time>2021-08-25T09:15:38Z</time>
      </trkpt>
      <trkpt lat="47.86697" lon="6.90911">
        <ele>1071</ele>
        <time>2021-08-25T09:15:57Z</time>
      </trkpt>
      <trkpt lat="47.86709" lon="6.9094">
        <ele>1065</ele>
        <time>2021-08-25T09:16:15Z</time>
      </trkpt>
      <trkpt lat="47.86714" lon="6.90972">
        <ele>1055</ele>
        <time>2021-08-25T09:16:32Z</time>
      </trkpt>
      <trkpt lat="47.86724" lon="6.90999">
        <ele>1051</ele>
        <time>2021-08-25T09:16:49Z</time>
      </trkpt>
      <trkpt lat="47.86754" lon="6.91036">
        <ele>1051</ele>
        <time>2021-08-25T09:17:20Z</time>
      </trkpt>
      <trkpt lat="47.86792" lon="6.91077">
        <ele>1058</ele>
        <time>2021-08-25T09:17:58Z</time>
      </trkpt>
      <trkpt lat="47.86814" lon="6.91119">
        <ele>1058</ele>
        <time>2021-08-25T09:18:26Z</time>
      </trkpt>
      <trkpt lat="47.86825" lon="6.91158">
        <ele>1052</ele>
        <time>2021-08-25T09:18:49Z</time>
      </trkpt>
      <trkpt lat="47.86833" lon="6.91207">
        <ele>1045</ele>
        <time>2021-08-25T09:19:16Z</time>
      </trkpt>
      <trkpt lat="47.86831" lon="6.91255">
        <ele>1034</ele>
        <time>2021-08-25T09:19:42Z</time>
      </trkpt>
      <trkpt lat="47.86834" lon="6.91279">
        <ele>1032</ele>
        <time>2021-08-25T09:19:55Z</time>
      </trkpt>
      <trkpt lat="47.86861" lon="6.91344">
        <ele>1032</ele>
        <time>2021-08-25T09:20:36Z</time>
      </trkpt>
      <trkpt lat="47.86892" lon="6.91383">
        <ele>1034</ele>
        <time>2021-08-25T09:21:09Z</time>
      </trkpt>
      <trkpt lat="47.86928" lon="6.91416">
        <ele>1041</ele>
        <time>2021-08-25T09:21:43Z</time>
      </trkpt>
      <trkpt lat="47.86938" lon="6.91432">
        <ele>1038</ele>
        <time>2021-08-25T09:21:54Z</time>
      </trkpt>
      <trkpt lat="47.86957" lon="6.91446">
        <ele>1040</ele>
        <time>2021-08-25T09:22:11Z</time>
      </trkpt>
      <trkpt lat="47.86977" lon="6.9148">
        <ele>1037</ele>
        <time>2021-08-25T09:22:36Z</time>
      </trkpt>
      <trkpt lat="47.8697" lon="6.91565">
        <ele>1021</ele>
        <time>2021-08-25T09:23:22Z</time>
      </trkpt>
      <trkpt lat="47.86964" lon="6.91598">
        <ele>1014</ele>
        <time>2021-08-25T09:23:40Z</time>
      </trkpt>
      <trkpt lat="47.8695" lon="6.91644">
        <ele>1004</ele>
        <time>2021-08-25T09:24:07Z</time>
      </trkpt>
      <trkpt lat="47.8694" lon="6.91657">
        <ele>997</ele>
        <time>2021-08-25T09:24:18Z</time>
      </trkpt>
      <trkpt lat="47.86947" lon="6.91688">
        <ele>999</ele>
        <time>2021-08-25T09:24:35Z</time>
      </trkpt>
      <trkpt lat="47.86944" lon="6.91697">
        <ele>996</ele>
        <time>2021-08-25T09:24:41Z</time>
      </trkpt>
      <trkpt lat="47.86956" lon="6.91741">
        <ele>1000</ele>
        <time>2021-08-25T09:25:06Z</time>
      </trkpt>
      <trkpt lat="47.86967" lon="6.91799">
        <ele>1002</ele>
        <time>2021-08-25T09:25:38Z</time>
      </trkpt>
      <trkpt lat="47.86955" lon="6.91948">
        <ele>982</ele>
        <time>2021-08-25T09:26:59Z</time>
      </trkpt>
      <trkpt lat="47.86969" lon="6.92107">
        <ele>962</ele>
        <time>2021-08-25T09:28:25Z</time>
      </trkpt>
      <trkpt lat="47.86949" lon="6.92084">
        <ele>959</ele>
        <time>2021-08-25T09:28:45Z</time>
      </trkpt>
      <trkpt lat="47.86953" lon="6.92117">
        <ele>953</ele>
        <time>2021-08-25T09:29:03Z</time>
      </trkpt>
      <trkpt lat="47.86969" lon="6.92201">
        <ele>940</ele>
        <time>2021-08-25T09:29:50Z</time>
      </trkpt>
      <trkpt lat="47.86985" lon="6.92221">
        <ele>941</ele>
        <time>2021-08-25T09:30:07Z</time>
      </trkpt>
      <trkpt lat="47.8697" lon="6.92221">
        <ele>936</ele>
        <time>2021-08-25T09:30:19Z</time>
      </trkpt>
      <trkpt lat="47.86982" lon="6.92233">
        <ele>938</ele>
        <time>2021-08-25T09:30:31Z</time>
      </trkpt>
      <trkpt lat="47.86973" lon="6.9223">
        <ele>935</ele>
        <time>2021-08-25T09:30:38Z</time>
      </trkpt>
      <trkpt lat="47.8697" lon="6.92236">
        <ele>933</ele>
        <time>2021-08-25T09:30:42Z</time>
      </trkpt>
      <trkpt lat="47.86977" lon="6.92261">
        <ele>932</ele>
        <time>2021-08-25T09:30:57Z</time>
      </trkpt>
      <trkpt lat="47.86997" lon="6.92266">
        <ele>939</ele>
        <time>2021-08-25T09:31:13Z</time>
      </trkpt>
      <trkpt lat="47.87026" lon="6.92195">
        <ele>940</ele>
        <time>2021-08-25T09:31:58Z</time>
      </trkpt>
      <trkpt lat="47.87073" lon="6.92095">
        <ele>947</ele>
        <time>2021-08-25T09:33:03Z</time>
      </trkpt>
      <trkpt lat="47.87107" lon="6.92053">
        <ele>950</ele>
        <time>2021-08-25T09:33:38Z</time>
      </trkpt>
      <trkpt lat="47.87135" lon="6.92023">
        <ele>953</ele>
        <time>2021-08-25T09:34:06Z</time>
      </trkpt>
      <trkpt lat="47.8717" lon="6.92012">
        <ele>948</ele>
        <time>2021-08-25T09:34:35Z</time>
      </trkpt>
      <trkpt lat="47.8719" lon="6.92018">
        <ele>948</ele>
        <time>2021-08-25T09:34:51Z</time>
      </trkpt>
      <trkpt lat="47.87238" lon="6.92051">
        <ele>939</ele>
        <time>2021-08-25T09:35:33Z</time>
      </trkpt>
      <trkpt lat="47.87289" lon="6.92104">
        <ele>941</ele>
        <time>2021-08-25T09:36:23Z</time>
      </trkpt>
      <trkpt lat="47.87416" lon="6.92286">
        <ele>931</ele>
        <time>2021-08-25T09:38:44Z</time>
      </trkpt>
      <trkpt lat="47.87539" lon="6.92395">
        <ele>919</ele>
        <time>2021-08-25T09:40:39Z</time>
      </trkpt>
      <trkpt lat="47.87591" lon="6.92413">
        <ele>919</ele>
        <time>2021-08-25T09:41:21Z</time>
      </trkpt>
      <trkpt lat="47.87646" lon="6.92467">
        <ele>903</ele>
        <time>2021-08-25T09:42:14Z</time>
      </trkpt>
      <trkpt lat="47.87671" lon="6.92502">
        <ele>896</ele>
        <time>2021-08-25T09:42:42Z</time>
      </trkpt>
      <trkpt lat="47.87699" lon="6.92551">
        <ele>878</ele>
        <time>2021-08-25T09:43:16Z</time>
      </trkpt>
      <trkpt lat="47.87719" lon="6.92542">
        <ele>879</ele>
        <time>2021-08-25T09:43:33Z</time>
      </trkpt>
      <trkpt lat="47.87728" lon="6.92488">
        <ele>884</ele>
        <time>2021-08-25T09:44:03Z</time>
      </trkpt>
      <trkpt lat="47.87716" lon="6.92315">
        <ele>878</ele>
        <time>2021-08-25T09:45:36Z</time>
      </trkpt>
      <trkpt lat="47.87693" lon="6.9224">
        <ele>878</ele>
        <time>2021-08-25T09:46:21Z</time>
      </trkpt>
      <trkpt lat="47.87643" lon="6.92108">
        <ele>883</ele>
        <time>2021-08-25T09:47:42Z</time>
      </trkpt>
      <trkpt lat="47.87633" lon="6.92015">
        <ele>878</ele>
        <time>2021-08-25T09:48:33Z</time>
      </trkpt>
      <trkpt lat="47.87615" lon="6.91962">
        <ele>890</ele>
        <time>2021-08-25T09:49:04Z</time>
      </trkpt>
      <trkpt lat="47.87611" lon="6.91918">
        <ele>891</ele>
        <time>2021-08-25T09:49:28Z</time>
      </trkpt>
      <trkpt lat="47.87612" lon="6.91865">
        <ele>886</ele>
        <time>2021-08-25T09:49:57Z</time>
      </trkpt>
      <trkpt lat="47.87594" lon="6.91794">
        <ele>897</ele>
        <time>2021-08-25T09:50:38Z</time>
      </trkpt>
      <trkpt lat="47.87599" lon="6.917">
        <ele>890</ele>
        <time>2021-08-25T09:51:28Z</time>
      </trkpt>
      <trkpt lat="47.87617" lon="6.91553">
        <ele>886</ele>
        <time>2021-08-25T09:52:48Z</time>
      </trkpt>
      <trkpt lat="47.87643" lon="6.9149">
        <ele>878</ele>
        <time>2021-08-25T09:53:28Z</time>
      </trkpt>
      <trkpt lat="47.8771" lon="6.91416">
        <ele>852</ele>
        <time>2021-08-25T09:54:35Z</time>
      </trkpt>
      <trkpt lat="47.87731" lon="6.91195">
        <ele>870</ele>
        <time>2021-08-25T09:56:35Z</time>
      </trkpt>
      <trkpt lat="47.87766" lon="6.91147">
        <ele>861</ele>
        <time>2021-08-25T09:57:13Z</time>
      </trkpt>
      <trkpt lat="47.87793" lon="6.91084">
        <ele>860</ele>
        <time>2021-08-25T09:57:53Z</time>
      </trkpt>
      <trkpt lat="47.87822" lon="6.91037">
        <ele>852</ele>
        <time>2021-08-25T09:58:27Z</time>
      </trkpt>
      <trkpt lat="47.87858" lon="6.9101">
        <ele>852</ele>
        <time>2021-08-25T09:59:00Z</time>
      </trkpt>
      <trkpt lat="47.87872" lon="6.91013">
        <ele>852</ele>
        <time>2021-08-25T09:59:11Z</time>
      </trkpt>
      <trkpt lat="47.87872" lon="6.9096">
        <ele>862</ele>
        <time>2021-08-25T09:59:39Z</time>
      </trkpt>
      <trkpt lat="47.87886" lon="6.90876">
        <ele>877</ele>
        <time>2021-08-25T10:00:26Z</time>
      </trkpt>
      <trkpt lat="47.87876" lon="6.90821">
        <ele>887</ele>
        <time>2021-08-25T10:00:56Z</time>
      </trkpt>
      <trkpt lat="47.87875" lon="6.90803">
        <ele>890</ele>
        <time>2021-08-25T10:01:06Z</time>
      </trkpt>
      <trkpt lat="47.87885" lon="6.90764">
        <ele>897</ele>
        <time>2021-08-25T10:01:29Z</time>
      </trkpt>
      <trkpt lat="47.87885" lon="6.90719">
        <ele>905</ele>
        <time>2021-08-25T10:01:53Z</time>
      </trkpt>
      <trkpt lat="47.87892" lon="6.90661">
        <ele>913</ele>
        <time>2021-08-25T10:02:24Z</time>
      </trkpt>
      <trkpt lat="47.87885" lon="6.90619">
        <ele>918</ele>
        <time>2021-08-25T10:02:48Z</time>
      </trkpt>
      <trkpt lat="47.87873" lon="6.90579">
        <ele>923</ele>
        <time>2021-08-25T10:03:11Z</time>
      </trkpt>
      <trkpt lat="47.87865" lon="6.90486">
        <ele>932</ele>
        <time>2021-08-25T10:04:01Z</time>
      </trkpt>
      <trkpt lat="47.87848" lon="6.90382">
        <ele>934</ele>
        <time>2021-08-25T10:04:59Z</time>
      </trkpt>
      <trkpt lat="47.87849" lon="6.90342">
        <ele>931</ele>
        <time>2021-08-25T10:05:20Z</time>
      </trkpt>
      <trkpt lat="47.87836" lon="6.90256">
        <ele>914</ele>
        <time>2021-08-25T10:06:08Z</time>
      </trkpt>
      <trkpt lat="47.87835" lon="6.90195">
        <ele>903</ele>
        <time>2021-08-25T10:06:41Z</time>
      </trkpt>
      <trkpt lat="47.87884" lon="6.90186">
        <ele>897</ele>
        <time>2021-08-25T10:07:20Z</time>
      </trkpt>
      <trkpt lat="47.87917" lon="6.90164">
        <ele>888</ele>
        <time>2021-08-25T10:07:49Z</time>
      </trkpt>
      <trkpt lat="47.87979" lon="6.90189">
        <ele>890</ele>
        <time>2021-08-25T10:08:40Z</time>
      </trkpt>
      <trkpt lat="47.88045" lon="6.90231">
        <ele>887</ele>
        <time>2021-08-25T10:09:38Z</time>
      </trkpt>
      <trkpt lat="47.88079" lon="6.9031">
        <ele>891</ele>
        <time>2021-08-25T10:10:28Z</time>
      </trkpt>
      <trkpt lat="47.88103" lon="6.90314">
        <ele>892</ele>
        <time>2021-08-25T10:10:48Z</time>
      </trkpt>
      <trkpt lat="47.88152" lon="6.9028">
        <ele>889</ele>
        <time>2021-08-25T10:11:31Z</time>
      </trkpt>
      <trkpt lat="47.88163" lon="6.90243">
        <ele>884</ele>
        <time>2021-08-25T10:11:53Z</time>
      </trkpt>
      <trkpt lat="47.88171" lon="6.90194">
        <ele>885</ele>
        <time>2021-08-25T10:12:20Z</time>
      </trkpt>
      <trkpt lat="47.88191" lon="6.90136">
        <ele>893</ele>
        <time>2021-08-25T10:12:55Z</time>
      </trkpt>
      <trkpt lat="47.88188" lon="6.90107">
        <ele>893</ele>
        <time>2021-08-25T10:13:11Z</time>
      </trkpt>
      <trkpt lat="47.88172" lon="6.90065">
        <ele>891</ele>
        <time>2021-08-25T10:13:36Z</time>
      </trkpt>
      <trkpt lat="47.88153" lon="6.90033">
        <ele>888</ele>
        <time>2021-08-25T10:13:59Z</time>
      </trkpt>
      <trkpt lat="47.88128" lon="6.89938">
        <ele>888</ele>
        <time>2021-08-25T10:14:54Z</time>
      </trkpt>
      <trkpt lat="47.88116" lon="6.89903">
        <ele>886</ele>
        <time>2021-08-25T10:15:15Z</time>
      </trkpt>
      <trkpt lat="47.88092" lon="6.89853">
        <ele>882</ele>
        <time>2021-08-25T10:15:48Z</time>
      </trkpt>
      <trkpt lat="47.88089" lon="6.89816">
        <ele>883</ele>
        <time>2021-08-25T10:16:08Z</time>
      </trkpt>
      <trkpt lat="47.88093" lon="6.89736">
        <ele>885</ele>
        <time>2021-08-25T10:16:51Z</time>
      </trkpt>
      <trkpt lat="47.88091" lon="6.89655">
        <ele>885</ele>
        <time>2021-08-25T10:17:35Z</time>
      </trkpt>
      <trkpt lat="47.88074" lon="6.89588">
        <ele>875</ele>
        <time>2021-08-25T10:18:13Z</time>
      </trkpt>
      <trkpt lat="47.88085" lon="6.89523">
        <ele>875</ele>
        <time>2021-08-25T10:18:49Z</time>
      </trkpt>
      <trkpt lat="47.88109" lon="6.89488">
        <ele>878</ele>
        <time>2021-08-25T10:19:16Z</time>
      </trkpt>
      <trkpt lat="47.88131" lon="6.89438">
        <ele>869</ele>
        <time>2021-08-25T10:19:48Z</time>
      </trkpt>
      <trkpt lat="47.88175" lon="6.8939">
        <ele>864</ele>
        <time>2021-08-25T10:20:32Z</time>
      </trkpt>
      <trkpt lat="47.88218" lon="6.89314">
        <ele>850</ele>
        <time>2021-08-25T10:21:25Z</time>
      </trkpt>
      <trkpt lat="47.88286" lon="6.8929">
        <ele>856</ele>
        <time>2021-08-25T10:22:21Z</time>
      </trkpt>
      <trkpt lat="47.88307" lon="6.89277">
        <ele>856</ele>
        <time>2021-08-25T10:22:40Z</time>
      </trkpt>
      <trkpt lat="47.88327" lon="6.89196">
        <ele>838</ele>
        <time>2021-08-25T10:23:26Z</time>
      </trkpt>
      <trkpt lat="47.88371" lon="6.89171">
        <ele>844</ele>
        <time>2021-08-25T10:24:04Z</time>
      </trkpt>
      <trkpt lat="47.88397" lon="6.89119">
        <ele>838</ele>
        <time>2021-08-25T10:24:39Z</time>
      </trkpt>
      <trkpt lat="47.88428" lon="6.89024">
        <ele>827</ele>
        <time>2021-08-25T10:25:35Z</time>
      </trkpt>
      <trkpt lat="47.88451" lon="6.88937">
        <ele>819</ele>
        <time>2021-08-25T10:26:25Z</time>
      </trkpt>
      <trkpt lat="47.88486" lon="6.88857">
        <ele>813</ele>
        <time>2021-08-25T10:27:17Z</time>
      </trkpt>
      <trkpt lat="47.88514" lon="6.88784">
        <ele>803</ele>
        <time>2021-08-25T10:28:02Z</time>
      </trkpt>
      <trkpt lat="47.88537" lon="6.88737">
        <ele>795</ele>
        <time>2021-08-25T10:28:33Z</time>
      </trkpt>
      <trkpt lat="47.88558" lon="6.88742">
        <ele>797</ele>
        <time>2021-08-25T10:28:50Z</time>
      </trkpt>
      <trkpt lat="47.88604" lon="6.88758">
        <ele>797</ele>
        <time>2021-08-25T10:29:28Z</time>
      </trkpt>
      <trkpt lat="47.88639" lon="6.88776">
        <ele>793</ele>
        <time>2021-08-25T10:29:58Z</time>
      </trkpt>
      <trkpt lat="47.88675" lon="6.88814">
        <ele>790</ele>
        <time>2021-08-25T10:30:33Z</time>
      </trkpt>
      <trkpt lat="47.88704" lon="6.8886">
        <ele>788</ele>
        <time>2021-08-25T10:31:07Z</time>
      </trkpt>
      <trkpt lat="47.88744" lon="6.88899">
        <ele>782</ele>
        <time>2021-08-25T10:31:45Z</time>
      </trkpt>
      <trkpt lat="47.88783" lon="6.88931">
        <ele>773</ele>
        <time>2021-08-25T10:32:21Z</time>
      </trkpt>
      <trkpt lat="47.88805" lon="6.8896">
        <ele>769</ele>
        <time>2021-08-25T10:32:44Z</time>
      </trkpt>
      <trkpt lat="47.88827" lon="6.89004">
        <ele>766</ele>
        <time>2021-08-25T10:33:14Z</time>
      </trkpt>
      <trkpt lat="47.88842" lon="6.89001">
        <ele>758</ele>
        <time>2021-08-25T10:33:26Z</time>
      </trkpt>
      <trkpt lat="47.88835" lon="6.88982">
        <ele>760</ele>
        <time>2021-08-25T10:33:37Z</time>
      </trkpt>
      <trkpt lat="47.88783" lon="6.88887">
        <ele>766</ele>
        <time>2021-08-25T10:34:43Z</time>
      </trkpt>
      <trkpt lat="47.88782" lon="6.88867">
        <ele>763</ele>
        <time>2021-08-25T10:34:54Z</time>
      </trkpt>
      <trkpt lat="47.88797" lon="6.88869">
        <ele>757</ele>
        <time>2021-08-25T10:35:06Z</time>
      </trkpt>
      <trkpt lat="47.8882" lon="6.88915">
        <ele>757</ele>
        <time>2021-08-25T10:35:37Z</time>
      </trkpt>
      <trkpt lat="47.88849" lon="6.88942">
        <ele>747</ele>
        <time>2021-08-25T10:36:04Z</time>
      </trkpt>
      <trkpt lat="47.88871" lon="6.88958">
        <ele>737</ele>
        <time>2021-08-25T10:36:24Z</time>
      </trkpt>
      <trkpt lat="47.88879" lon="6.88994">
        <ele>737</ele>
        <time>2021-08-25T10:36:44Z</time>
      </trkpt>
      <trkpt lat="47.88879" lon="6.89086">
        <ele>741</ele>
        <time>2021-08-25T10:37:34Z</time>
      </trkpt>
      <trkpt lat="47.88872" lon="6.89158">
        <ele>744</ele>
        <time>2021-08-25T10:38:13Z</time>
      </trkpt>
      <trkpt lat="47.88872" lon="6.8922">
        <ele>743</ele>
        <time>2021-08-25T10:38:46Z</time>
      </trkpt>
      <trkpt lat="47.88877" lon="6.89264">
        <ele>740</ele>
        <time>2021-08-25T10:39:10Z</time>
      </trkpt>
      <trkpt lat="47.88897" lon="6.89308">
        <ele>730</ele>
        <time>2021-08-25T10:39:39Z</time>
      </trkpt>
      <trkpt lat="47.88912" lon="6.89384">
        <ele>734</ele>
        <time>2021-08-25T10:40:21Z</time>
      </trkpt>
      <trkpt lat="47.88928" lon="6.89409">
        <ele>737</ele>
        <time>2021-08-25T10:40:40Z</time>
      </trkpt>
      <trkpt lat="47.88938" lon="6.89433">
        <ele>741</ele>
        <time>2021-08-25T10:40:55Z</time>
      </trkpt>
      <trkpt lat="47.88946" lon="6.89521">
        <ele>755</ele>
        <time>2021-08-25T10:41:42Z</time>
      </trkpt>
      <trkpt lat="47.88951" lon="6.89634">
        <ele>760</ele>
        <time>2021-08-25T10:42:43Z</time>
      </trkpt>
      <trkpt lat="47.88963" lon="6.89639">
        <ele>760</ele>
        <time>2021-08-25T10:42:53Z</time>
      </trkpt>
      <trkpt lat="47.88965" lon="6.89667">
        <ele>761</ele>
        <time>2021-08-25T10:43:08Z</time>
      </trkpt>
      <trkpt lat="47.88984" lon="6.89622">
        <ele>760</ele>
        <time>2021-08-25T10:43:37Z</time>
      </trkpt>
      <trkpt lat="47.8899" lon="6.89651">
        <ele>761</ele>
        <time>2021-08-25T10:43:53Z</time>
      </trkpt>
      <trkpt lat="47.88983" lon="6.89697">
        <ele>763</ele>
        <time>2021-08-25T10:44:19Z</time>
      </trkpt>
      <trkpt lat="47.88996" lon="6.89741">
        <ele>763</ele>
        <time>2021-08-25T10:44:44Z</time>
      </trkpt>
      <trkpt lat="47.89003" lon="6.89741">
        <ele>764</ele>
        <time>2021-08-25T10:44:50Z</time>
      </trkpt>
      <trkpt lat="47.88999" lon="6.89754">
        <ele>762</ele>
        <time>2021-08-25T10:44:58Z</time>
      </trkpt>
      <trkpt lat="47.89" lon="6.89765">
        <ele>760</ele>
        <time>2021-08-25T10:45:04Z</time>
      </trkpt>
      <trkpt lat="47.89006" lon="6.8979">
        <ele>759</ele>
        <time>2021-08-25T10:45:18Z</time>
      </trkpt>
      <trkpt lat="47.89015" lon="6.89803">
        <ele>761</ele>
        <time>2021-08-25T10:45:28Z</time>
      </trkpt>
      <trkpt lat="47.89021" lon="6.89777">
        <ele>768</ele>
        <time>2021-08-25T10:45:43Z</time>
      </trkpt>
      <trkpt lat="47.89024" lon="6.89748">
        <ele>773</ele>
        <time>2021-08-25T10:45:58Z</time>
      </trkpt>
      <trkpt lat="47.89022" lon="6.89728">
        <ele>772</ele>
        <time>2021-08-25T10:46:09Z</time>
      </trkpt>
      <trkpt lat="47.89026" lon="6.89713">
        <ele>773</ele>
        <time>2021-08-25T10:46:18Z</time>
      </trkpt>
      <trkpt lat="47.89054" lon="6.89743">
        <ele>785</ele>
        <time>2021-08-25T10:46:46Z</time>
      </trkpt>
      <trkpt lat="47.89084" lon="6.89747">
        <ele>797</ele>
        <time>2021-08-25T10:47:10Z</time>
      </trkpt>
      <trkpt lat="47.8911" lon="6.89768">
        <ele>796</ele>
        <time>2021-08-25T10:47:33Z</time>
      </trkpt>
      <trkpt lat="47.89107" lon="6.89783">
        <ele>796</ele>
        <time>2021-08-25T10:47:42Z</time>
      </trkpt>
      <trkpt lat="47.8911" lon="6.89804">
        <ele>795</ele>
        <time>2021-08-25T10:47:53Z</time>
      </trkpt>
      <trkpt lat="47.89127" lon="6.89831">
        <ele>797</ele>
        <time>2021-08-25T10:48:13Z</time>
      </trkpt>
      <trkpt lat="47.8918" lon="6.89866">
        <ele>813</ele>
        <time>2021-08-25T10:49:00Z</time>
      </trkpt>
      <trkpt lat="47.89243" lon="6.89902">
        <ele>826</ele>
        <time>2021-08-25T10:49:54Z</time>
      </trkpt>
      <trkpt lat="47.89268" lon="6.89901">
        <ele>831</ele>
        <time>2021-08-25T10:50:14Z</time>
      </trkpt>
      <trkpt lat="47.89296" lon="6.89865">
        <ele>828</ele>
        <time>2021-08-25T10:50:43Z</time>
      </trkpt>
      <trkpt lat="47.89333" lon="6.89851">
        <ele>833</ele>
        <time>2021-08-25T10:51:14Z</time>
      </trkpt>
      <trkpt lat="47.89362" lon="6.8985">
        <ele>837</ele>
        <time>2021-08-25T10:51:37Z</time>
      </trkpt>
      <trkpt lat="47.89389" lon="6.89854">
        <ele>841</ele>
        <time>2021-08-25T10:51:59Z</time>
      </trkpt>
      <trkpt lat="47.8941" lon="6.89866">
        <ele>848</ele>
        <time>2021-08-25T10:52:17Z</time>
      </trkpt>
      <trkpt lat="47.89447" lon="6.89931">
        <ele>864</ele>
        <time>2021-08-25T10:53:03Z</time>
      </trkpt>
      <trkpt lat="47.89458" lon="6.89957">
        <ele>871</ele>
        <time>2021-08-25T10:53:19Z</time>
      </trkpt>
      <trkpt lat="47.89465" lon="6.89986">
        <ele>880</ele>
        <time>2021-08-25T10:53:36Z</time>
      </trkpt>
      <trkpt lat="47.89477" lon="6.90101">
        <ele>905</ele>
        <time>2021-08-25T10:54:38Z</time>
      </trkpt>
      <trkpt lat="47.89532" lon="6.90206">
        <ele>918</ele>
        <time>2021-08-25T10:55:50Z</time>
      </trkpt>
      <trkpt lat="47.89637" lon="6.90284">
        <ele>932</ele>
        <time>2021-08-25T10:57:23Z</time>
      </trkpt>
      <trkpt lat="47.8969" lon="6.90347">
        <ele>946</ele>
        <time>2021-08-25T10:58:18Z</time>
      </trkpt>
      <trkpt lat="47.89709" lon="6.90421">
        <ele>958</ele>
        <time>2021-08-25T10:59:00Z</time>
      </trkpt>
      <trkpt lat="47.89742" lon="6.90737">
        <ele>1014</ele>
        <time>2021-08-25T11:01:52Z</time>
      </trkpt>
      <trkpt lat="47.89776" lon="6.90976">
        <ele>1068</ele>
        <time>2021-08-25T11:04:03Z</time>
      </trkpt>
      <trkpt lat="47.89757" lon="6.91211">
        <ele>1090</ele>
        <time>2021-08-25T11:06:10Z</time>
      </trkpt>
      <trkpt lat="47.89778" lon="6.91427">
        <ele>1114</ele>
        <time>2021-08-25T11:08:07Z</time>
      </trkpt>
      <trkpt lat="47.89804" lon="6.9154">
        <ele>1132</ele>
        <time>2021-08-25T11:09:11Z</time>
      </trkpt>
      <trkpt lat="47.89819" lon="6.91588">
        <ele>1143</ele>
        <time>2021-08-25T11:09:40Z</time>
      </trkpt>
      <trkpt lat="47.89839" lon="6.91635">
        <ele>1150</ele>
        <time>2021-08-25T11:10:10Z</time>
      </trkpt>
      <trkpt lat="47.89906" lon="6.91728">
        <ele>1161</ele>
        <time>2021-08-25T11:11:23Z</time>
      </trkpt>
      <trkpt lat="47.89949" lon="6.91776">
        <ele>1165</ele>
        <time>2021-08-25T11:12:06Z</time>
      </trkpt>
      <trkpt lat="47.8997" lon="6.91769">
        <ele>1164</ele>
        <time>2021-08-25T11:12:23Z</time>
      </trkpt>
      <trkpt lat="47.89991" lon="6.91735">
        <ele>1161</ele>
        <time>2021-08-25T11:12:48Z</time>
      </trkpt>
      <trkpt lat="47.90044" lon="6.91683">
        <ele>1161</ele>
        <time>2021-08-25T11:13:39Z</time>
      </trkpt>
      <trkpt lat="47.90094" lon="6.91623">
        <ele>1158</ele>
        <time>2021-08-25T11:14:30Z</time>
      </trkpt>
      <trkpt lat="47.90131" lon="6.91567">
        <ele>1154</ele>
        <time>2021-08-25T11:15:13Z</time>
      </trkpt>
      <trkpt lat="47.90186" lon="6.91508">
        <ele>1146</ele>
        <time>2021-08-25T11:16:07Z</time>
      </trkpt>
      <trkpt lat="47.90234" lon="6.91442">
        <ele>1137</ele>
        <time>2021-08-25T11:16:59Z</time>
      </trkpt>
      <trkpt lat="47.9025" lon="6.91472">
        <ele>1141</ele>
        <time>2021-08-25T11:17:20Z</time>
      </trkpt>
      <trkpt lat="47.90272" lon="6.91541">
        <ele>1149</ele>
        <time>2021-08-25T11:18:01Z</time>
      </trkpt>
      <trkpt lat="47.90305" lon="6.91588">
        <ele>1152</ele>
        <time>2021-08-25T11:18:37Z</time>
      </trkpt>
      <trkpt lat="47.90377" lon="6.91667">
        <ele>1159</ele>
        <time>2021-08-25T11:19:49Z</time>
      </trkpt>
      <trkpt lat="47.90389" lon="6.91734">
        <ele>1156</ele>
        <time>2021-08-25T11:20:26Z</time>
      </trkpt>
      <trkpt lat="47.90386" lon="6.91774">
        <ele>1155</ele>
        <time>2021-08-25T11:20:48Z</time>
      </trkpt>
      <trkpt lat="47.90372" lon="6.91846">
        <ele>1153</ele>
        <time>2021-08-25T11:21:28Z</time>
      </trkpt>
      <trkpt lat="47.90369" lon="6.9188">
        <ele>1152</ele>
        <time>2021-08-25T11:21:46Z</time>
      </trkpt>
      <trkpt lat="47.90377" lon="6.91944">
        <ele>1148</ele>
        <time>2021-08-25T11:22:21Z</time>
      </trkpt>
      <trkpt lat="47.90388" lon="6.91979">
        <ele>1146</ele>
        <time>2021-08-25T11:22:42Z</time>
      </trkpt>
      <trkpt lat="47.90401" lon="6.91995">
        <ele>1148</ele>
        <time>2021-08-25T11:22:55Z</time>
      </trkpt>
      <trkpt lat="47.9043" lon="6.92053">
        <ele>1145</ele>
        <time>2021-08-25T11:23:34Z</time>
      </trkpt>
      <trkpt lat="47.9044" lon="6.92111">
        <ele>1141</ele>
        <time>2021-08-25T11:24:06Z</time>
      </trkpt>
      <trkpt lat="47.90464" lon="6.92178">
        <ele>1143</ele>
        <time>2021-08-25T11:24:47Z</time>
      </trkpt>
      <trkpt lat="47.9048" lon="6.92212">
        <ele>1142</ele>
        <time>2021-08-25T11:25:09Z</time>
      </trkpt>
      <trkpt lat="47.90525" lon="6.92262">
        <ele>1141</ele>
        <time>2021-08-25T11:25:54Z</time>
      </trkpt>
      <trkpt lat="47.9054" lon="6.92271">
        <ele>1139</ele>
        <time>2021-08-25T11:26:07Z</time>
      </trkpt>
      <trkpt lat="47.9057" lon="6.92396">
        <ele>1146</ele>
        <time>2021-08-25T11:27:19Z</time>
      </trkpt>
      <trkpt lat="47.90573" lon="6.92441">
        <ele>1153</ele>
        <time>2021-08-25T11:27:43Z</time>
      </trkpt>
      <trkpt lat="47.90581" lon="6.92479">
        <ele>1162</ele>
        <time>2021-08-25T11:28:04Z</time>
      </trkpt>
      <trkpt lat="47.9061" lon="6.9258">
        <ele>1177</ele>
        <time>2021-08-25T11:29:03Z</time>
      </trkpt>
      <trkpt lat="47.90652" lon="6.92608">
        <ele>1179</ele>
        <time>2021-08-25T11:29:40Z</time>
      </trkpt>
      <trkpt lat="47.90697" lon="6.92642">
        <ele>1176</ele>
        <time>2021-08-25T11:30:20Z</time>
      </trkpt>
      <trkpt lat="47.90727" lon="6.92666">
        <ele>1175</ele>
        <time>2021-08-25T11:30:48Z</time>
      </trkpt>
      <trkpt lat="47.90731" lon="6.92673">
        <ele>1175</ele>
        <time>2021-08-25T11:30:53Z</time>
      </trkpt>
      <trkpt lat="47.90788" lon="6.92696">
        <ele>1176</ele>
        <time>2021-08-25T11:31:40Z</time>
      </trkpt>
      <trkpt lat="47.90794" lon="6.92705">
        <ele>1176</ele>
        <time>2021-08-25T11:31:47Z</time>
      </trkpt>
      <trkpt lat="47.90815" lon="6.92706">
        <ele>1179</ele>
        <time>2021-08-25T11:32:04Z</time>
      </trkpt>
      <trkpt lat="47.90845" lon="6.92726">
        <ele>1182</ele>
        <time>2021-08-25T11:32:30Z</time>
      </trkpt>
      <trkpt lat="47.90863" lon="6.92731">
        <ele>1185</ele>
        <time>2021-08-25T11:32:44Z</time>
      </trkpt>
      <trkpt lat="47.90872" lon="6.92744">
        <ele>1187</ele>
        <time>2021-08-25T11:32:55Z</time>
      </trkpt>
      <trkpt lat="47.9089" lon="6.92751">
        <ele>1191</ele>
        <time>2021-08-25T11:33:09Z</time>
      </trkpt>
      <trkpt lat="47.909" lon="6.92768">
        <ele>1193</ele>
        <time>2021-08-25T11:33:22Z</time>
      </trkpt>
      <trkpt lat="47.90911" lon="6.92805">
        <ele>1197</ele>
        <time>2021-08-25T11:33:43Z</time>
      </trkpt>
      <trkpt lat="47.90925" lon="6.92836">
        <ele>1201</ele>
        <time>2021-08-25T11:34:03Z</time>
      </trkpt>
      <trkpt lat="47.90942" lon="6.92845">
        <ele>1204</ele>
        <time>2021-08-25T11:34:18Z</time>
      </trkpt>
      <trkpt lat="47.90969" lon="6.92854">
        <ele>1209</ele>
        <time>2021-08-25T11:34:40Z</time>
      </trkpt>
      <trkpt lat="47.90985" lon="6.92873">
        <ele>1211</ele>
        <time>2021-08-25T11:34:56Z</time>
      </trkpt>
      <trkpt lat="47.90997" lon="6.92882">
        <ele>1213</ele>
        <time>2021-08-25T11:35:07Z</time>
      </trkpt>
      <trkpt lat="47.91016" lon="6.92881">
        <ele>1211</ele>
        <time>2021-08-25T11:35:22Z</time>
      </trkpt>
      <trkpt lat="47.91031" lon="6.92865">
        <ele>1209</ele>
        <time>2021-08-25T11:35:37Z</time>
      </trkpt>
      <trkpt lat="47.91077" lon="6.92849">
        <ele>1202</ele>
        <time>2021-08-25T11:36:15Z</time>
      </trkpt>
      <trkpt lat="47.91124" lon="6.92804">
        <ele>1189</ele>
        <time>2021-08-25T11:37:00Z</time>
      </trkpt>
      <trkpt lat="47.91171" lon="6.92769">
        <ele>1181</ele>
        <time>2021-08-25T11:37:42Z</time>
      </trkpt>
      <trkpt lat="47.91234" lon="6.92717">
        <ele>1165</ele>
        <time>2021-08-25T11:38:39Z</time>
      </trkpt>
      <trkpt lat="47.91305" lon="6.92697">
        <ele>1142</ele>
        <time>2021-08-25T11:39:37Z</time>
      </trkpt>
      <trkpt lat="47.91444" lon="6.92713">
        <ele>1108</ele>
        <time>2021-08-25T11:41:29Z</time>
      </trkpt>
      <trkpt lat="47.915" lon="6.92716">
        <ele>1104</ele>
        <time>2021-08-25T11:42:14Z</time>
      </trkpt>
      <trkpt lat="47.91548" lon="6.92715">
        <ele>1096</ele>
        <time>2021-08-25T11:42:52Z</time>
      </trkpt>
      <trkpt lat="47.91618" lon="6.92696">
        <ele>1082</ele>
        <time>2021-08-25T11:43:49Z</time>
      </trkpt>
      <trkpt lat="47.91695" lon="6.92667">
        <ele>1069</ele>
        <time>2021-08-25T11:44:53Z</time>
      </trkpt>
      <trkpt lat="47.91729" lon="6.92641">
        <ele>1061</ele>
        <time>2021-08-25T11:45:23Z</time>
      </trkpt>
      <trkpt lat="47.91733" lon="6.92628">
        <ele>1059</ele>
        <time>2021-08-25T11:45:31Z</time>
      </trkpt>
      <trkpt lat="47.91748" lon="6.92618">
        <ele>1055</ele>
        <time>2021-08-25T11:45:44Z</time>
      </trkpt>
      <trkpt lat="47.91761" lon="6.92616">
        <ele>1050</ele>
        <time>2021-08-25T11:45:55Z</time>
      </trkpt>
      <trkpt lat="47.91768" lon="6.9259">
        <ele>1045</ele>
        <time>2021-08-25T11:46:10Z</time>
      </trkpt>
      <trkpt lat="47.91764" lon="6.92573">
        <ele>1043</ele>
        <time>2021-08-25T11:46:19Z</time>
      </trkpt>
      <trkpt lat="47.91783" lon="6.92567">
        <ele>1034</ele>
        <time>2021-08-25T11:46:35Z</time>
      </trkpt>
      <trkpt lat="47.91767" lon="6.92525">
        <ele>1031</ele>
        <time>2021-08-25T11:47:01Z</time>
      </trkpt>
      <trkpt lat="47.91808" lon="6.92545">
        <ele>1019</ele>
        <time>2021-08-25T11:47:35Z</time>
      </trkpt>
      <trkpt lat="47.91793" lon="6.92484">
        <ele>1012</ele>
        <time>2021-08-25T11:48:10Z</time>
      </trkpt>
      <trkpt lat="47.91784" lon="6.92465">
        <ele>1010</ele>
        <time>2021-08-25T11:48:23Z</time>
      </trkpt>
      <trkpt lat="47.91778" lon="6.9244">
        <ele>1005</ele>
        <time>2021-08-25T11:48:37Z</time>
      </trkpt>
      <trkpt lat="47.91773" lon="6.92432">
        <ele>1004</ele>
        <time>2021-08-25T11:48:43Z</time>
      </trkpt>
      <trkpt lat="47.91768" lon="6.92415">
        <ele>1001</ele>
        <time>2021-08-25T11:48:53Z</time>
      </trkpt>
      <trkpt lat="47.91765" lon="6.92393">
        <ele>998</ele>
        <time>2021-08-25T11:49:05Z</time>
      </trkpt>
      <trkpt lat="47.91754" lon="6.92373">
        <ele>996</ele>
        <time>2021-08-25T11:49:19Z</time>
      </trkpt>
      <trkpt lat="47.9175" lon="6.92359">
        <ele>994</ele>
        <time>2021-08-25T11:49:27Z</time>
      </trkpt>
      <trkpt lat="47.91731" lon="6.9234">
        <ele>991</ele>
        <time>2021-08-25T11:49:45Z</time>
      </trkpt>
      <trkpt lat="47.91728" lon="6.9232">
        <ele>988</ele>
        <time>2021-08-25T11:49:56Z</time>
      </trkpt>
      <trkpt lat="47.91735" lon="6.92303">
        <ele>985</ele>
        <time>2021-08-25T11:50:07Z</time>
      </trkpt>
      <trkpt lat="47.91766" lon="6.92288">
        <ele>982</ele>
        <time>2021-08-25T11:50:33Z</time>
      </trkpt>
      <trkpt lat="47.91783" lon="6.92294">
        <ele>981</ele>
        <time>2021-08-25T11:50:47Z</time>
      </trkpt>
      <trkpt lat="47.918" lon="6.92283">
        <ele>979</ele>
        <time>2021-08-25T11:51:02Z</time>
      </trkpt>
      <trkpt lat="47.91805" lon="6.92272">
        <ele>978</ele>
        <time>2021-08-25T11:51:09Z</time>
      </trkpt>
      <trkpt lat="47.91807" lon="6.92252">
        <ele>976</ele>
        <time>2021-08-25T11:51:20Z</time>
      </trkpt>
      <trkpt lat="47.91816" lon="6.92231">
        <ele>973</ele>
        <time>2021-08-25T11:51:33Z</time>
      </trkpt>
      <trkpt lat="47.91817" lon="6.92216">
        <ele>971</ele>
        <time>2021-08-25T11:51:41Z</time>
      </trkpt>
      <trkpt lat="47.91826" lon="6.92201">
        <ele>969</ele>
        <time>2021-08-25T11:51:52Z</time>
      </trkpt>
      <trkpt lat="47.91832" lon="6.92161">
        <ele>963</ele>
        <time>2021-08-25T11:52:14Z</time>
      </trkpt>
      <trkpt lat="47.91844" lon="6.92145">
        <ele>959</ele>
        <time>2021-08-25T11:52:27Z</time>
      </trkpt>
      <trkpt lat="47.91864" lon="6.92128">
        <ele>952</ele>
        <time>2021-08-25T11:52:45Z</time>
      </trkpt>
      <trkpt lat="47.91863" lon="6.92116">
        <ele>950</ele>
        <time>2021-08-25T11:52:52Z</time>
      </trkpt>
      <trkpt lat="47.91868" lon="6.92099">
        <ele>947</ele>
        <time>2021-08-25T11:53:02Z</time>
      </trkpt>
      <trkpt lat="47.91854" lon="6.92058">
        <ele>946</ele>
        <time>2021-08-25T11:53:26Z</time>
      </trkpt>
      <trkpt lat="47.91855" lon="6.92045">
        <ele>944</ele>
        <time>2021-08-25T11:53:33Z</time>
      </trkpt>
      <trkpt lat="47.9186" lon="6.92038">
        <ele>942</ele>
        <time>2021-08-25T11:53:39Z</time>
      </trkpt>
      <trkpt lat="47.9186" lon="6.92026">
        <ele>941</ele>
        <time>2021-08-25T11:53:45Z</time>
      </trkpt>
      <trkpt lat="47.91866" lon="6.92011">
        <ele>938</ele>
        <time>2021-08-25T11:53:55Z</time>
      </trkpt>
      <trkpt lat="47.91863" lon="6.91986">
        <ele>938</ele>
        <time>2021-08-25T11:54:08Z</time>
      </trkpt>
      <trkpt lat="47.91869" lon="6.91966">
        <ele>937</ele>
        <time>2021-08-25T11:54:20Z</time>
      </trkpt>
      <trkpt lat="47.91883" lon="6.91961">
        <ele>934</ele>
        <time>2021-08-25T11:54:32Z</time>
      </trkpt>
      <trkpt lat="47.91889" lon="6.91968">
        <ele>932</ele>
        <time>2021-08-25T11:54:38Z</time>
      </trkpt>
      <trkpt lat="47.919" lon="6.91963">
        <ele>930</ele>
        <time>2021-08-25T11:54:47Z</time>
      </trkpt>
      <trkpt lat="47.91905" lon="6.91955">
        <ele>929</ele>
        <time>2021-08-25T11:54:53Z</time>
      </trkpt>
      <trkpt lat="47.91928" lon="6.91962">
        <ele>922</ele>
        <time>2021-08-25T11:55:12Z</time>
      </trkpt>
      <trkpt lat="47.9195" lon="6.91965">
        <ele>915</ele>
        <time>2021-08-25T11:55:29Z</time>
      </trkpt>
      <trkpt lat="47.91967" lon="6.91956">
        <ele>911</ele>
        <time>2021-08-25T11:55:44Z</time>
      </trkpt>
      <trkpt lat="47.91991" lon="6.91904">
        <ele>907</ele>
        <time>2021-08-25T11:56:18Z</time>
      </trkpt>
      <trkpt lat="47.9201" lon="6.919">
        <ele>903</ele>
        <time>2021-08-25T11:56:33Z</time>
      </trkpt>
      <trkpt lat="47.92037" lon="6.91864">
        <ele>904</ele>
        <time>2021-08-25T11:57:02Z</time>
      </trkpt>
      <trkpt lat="47.92064" lon="6.91838">
        <ele>903</ele>
        <time>2021-08-25T11:57:28Z</time>
      </trkpt>
      <trkpt lat="47.92088" lon="6.91806">
        <ele>903</ele>
        <time>2021-08-25T11:57:53Z</time>
      </trkpt>
      <trkpt lat="47.92108" lon="6.91797">
        <ele>904</ele>
        <time>2021-08-25T11:58:10Z</time>
      </trkpt>
      <trkpt lat="47.92136" lon="6.918">
        <ele>903</ele>
        <time>2021-08-25T11:58:33Z</time>
      </trkpt>
      <trkpt lat="47.92175" lon="6.91792">
        <ele>901</ele>
        <time>2021-08-25T11:59:04Z</time>
      </trkpt>
      <trkpt lat="47.92197" lon="6.918">
        <ele>899</ele>
        <time>2021-08-25T11:59:22Z</time>
      </trkpt>
      <trkpt lat="47.92214" lon="6.91774">
        <ele>898</ele>
        <time>2021-08-25T11:59:42Z</time>
      </trkpt>
      <trkpt lat="47.92224" lon="6.91744">
        <ele>898</ele>
        <time>2021-08-25T12:00:00Z</time>
      </trkpt>
      <trkpt lat="47.92242" lon="6.91735">
        <ele>896</ele>
        <time>2021-08-25T12:00:15Z</time>
      </trkpt>
      <trkpt lat="47.92268" lon="6.91748">
        <ele>900</ele>
        <time>2021-08-25T12:00:37Z</time>
      </trkpt>
      <trkpt lat="47.92295" lon="6.91718">
        <ele>904</ele>
        <time>2021-08-25T12:01:04Z</time>
      </trkpt>
      <trkpt lat="47.92331" lon="6.9169">
        <ele>905</ele>
        <time>2021-08-25T12:01:36Z</time>
      </trkpt>
      <trkpt lat="47.92365" lon="6.91675">
        <ele>906</ele>
        <time>2021-08-25T12:02:05Z</time>
      </trkpt>
      <trkpt lat="47.92382" lon="6.91678">
        <ele>910</ele>
        <time>2021-08-25T12:02:19Z</time>
      </trkpt>
      <trkpt lat="47.92387" lon="6.91689">
        <ele>913</ele>
        <time>2021-08-25T12:02:26Z</time>
      </trkpt>
      <trkpt lat="47.92406" lon="6.91708">
        <ele>920</ele>
        <time>2021-08-25T12:02:44Z</time>
      </trkpt>
      <trkpt lat="47.9241" lon="6.91718">
        <ele>923</ele>
        <time>2021-08-25T12:02:50Z</time>
      </trkpt>
      <trkpt lat="47.92394" lon="6.9172">
        <ele>921</ele>
        <time>2021-08-25T12:03:03Z</time>
      </trkpt>
      <trkpt lat="47.92378" lon="6.91718">
        <ele>918</ele>
        <time>2021-08-25T12:03:16Z</time>
      </trkpt>
      <trkpt lat="47.92352" lon="6.91742">
        <ele>919</ele>
        <time>2021-08-25T12:03:40Z</time>
      </trkpt>
      <trkpt lat="47.92352" lon="6.91752">
        <ele>921</ele>
        <time>2021-08-25T12:03:46Z</time>
      </trkpt>
      <trkpt lat="47.9237" lon="6.91743">
        <ele>922</ele>
        <time>2021-08-25T12:04:01Z</time>
      </trkpt>
      <trkpt lat="47.9239" lon="6.91769">
        <ele>931</ele>
        <time>2021-08-25T12:04:22Z</time>
      </trkpt>
      <trkpt lat="47.92418" lon="6.91797">
        <ele>944</ele>
        <time>2021-08-25T12:04:49Z</time>
      </trkpt>
      <trkpt lat="47.92433" lon="6.91807">
        <ele>947</ele>
        <time>2021-08-25T12:05:02Z</time>
      </trkpt>
      <trkpt lat="47.92474" lon="6.91843">
        <ele>955</ele>
        <time>2021-08-25T12:05:40Z</time>
      </trkpt>
      <trkpt lat="47.92496" lon="6.91874">
        <ele>964</ele>
        <time>2021-08-25T12:06:05Z</time>
      </trkpt>
      <trkpt lat="47.92507" lon="6.91884">
        <ele>968</ele>
        <time>2021-08-25T12:06:15Z</time>
      </trkpt>
      <trkpt lat="47.92517" lon="6.91907">
        <ele>975</ele>
        <time>2021-08-25T12:06:30Z</time>
      </trkpt>
      <trkpt lat="47.92534" lon="6.9193">
        <ele>980</ele>
        <time>2021-08-25T12:06:48Z</time>
      </trkpt>
      <trkpt lat="47.92552" lon="6.91946">
        <ele>983</ele>
        <time>2021-08-25T12:07:05Z</time>
      </trkpt>
      <trkpt lat="47.92538" lon="6.9195">
        <ele>983</ele>
        <time>2021-08-25T12:07:16Z</time>
      </trkpt>
      <trkpt lat="47.92527" lon="6.91948">
        <ele>983</ele>
        <time>2021-08-25T12:07:25Z</time>
      </trkpt>
      <trkpt lat="47.92512" lon="6.91958">
        <ele>984</ele>
        <time>2021-08-25T12:07:38Z</time>
      </trkpt>
      <trkpt lat="47.92482" lon="6.9195">
        <ele>978</ele>
        <time>2021-08-25T12:08:03Z</time>
      </trkpt>
      <trkpt lat="47.9247" lon="6.91955">
        <ele>976</ele>
        <time>2021-08-25T12:08:13Z</time>
      </trkpt>
      <trkpt lat="47.92482" lon="6.91966">
        <ele>980</ele>
        <time>2021-08-25T12:08:24Z</time>
      </trkpt>
      <trkpt lat="47.92498" lon="6.9199">
        <ele>989</ele>
        <time>2021-08-25T12:08:42Z</time>
      </trkpt>
      <trkpt lat="47.92519" lon="6.91996">
        <ele>991</ele>
        <time>2021-08-25T12:08:59Z</time>
      </trkpt>
      <trkpt lat="47.92564" lon="6.92021">
        <ele>997</ele>
        <time>2021-08-25T12:09:38Z</time>
      </trkpt>
      <trkpt lat="47.92592" lon="6.92045">
        <ele>1007</ele>
        <time>2021-08-25T12:10:03Z</time>
      </trkpt>
      <trkpt lat="47.92608" lon="6.9205">
        <ele>1010</ele>
        <time>2021-08-25T12:10:17Z</time>
      </trkpt>
      <trkpt lat="47.92593" lon="6.92051">
        <ele>1009</ele>
        <time>2021-08-25T12:10:29Z</time>
      </trkpt>
      <trkpt lat="47.92582" lon="6.92057">
        <ele>1010</ele>
        <time>2021-08-25T12:10:38Z</time>
      </trkpt>
      <trkpt lat="47.92552" lon="6.92067">
        <ele>1006</ele>
        <time>2021-08-25T12:11:03Z</time>
      </trkpt>
      <trkpt lat="47.92602" lon="6.9209">
        <ele>1020</ele>
        <time>2021-08-25T12:11:44Z</time>
      </trkpt>
      <trkpt lat="47.9264" lon="6.92119">
        <ele>1030</ele>
        <time>2021-08-25T12:12:19Z</time>
      </trkpt>
      <trkpt lat="47.92668" lon="6.92132">
        <ele>1036</ele>
        <time>2021-08-25T12:12:42Z</time>
      </trkpt>
      <trkpt lat="47.92666" lon="6.92139">
        <ele>1038</ele>
        <time>2021-08-25T12:12:46Z</time>
      </trkpt>
      <trkpt lat="47.92646" lon="6.9215">
        <ele>1038</ele>
        <time>2021-08-25T12:13:03Z</time>
      </trkpt>
      <trkpt lat="47.92636" lon="6.92149">
        <ele>1037</ele>
        <time>2021-08-25T12:13:11Z</time>
      </trkpt>
      <trkpt lat="47.92613" lon="6.92152">
        <ele>1034</ele>
        <time>2021-08-25T12:13:30Z</time>
      </trkpt>
      <trkpt lat="47.92594" lon="6.92162">
        <ele>1033</ele>
        <time>2021-08-25T12:13:46Z</time>
      </trkpt>
      <trkpt lat="47.92585" lon="6.92175">
        <ele>1033</ele>
        <time>2021-08-25T12:13:56Z</time>
      </trkpt>
      <trkpt lat="47.92581" lon="6.92186">
        <ele>1034</ele>
        <time>2021-08-25T12:14:03Z</time>
      </trkpt>
      <trkpt lat="47.92574" lon="6.92189">
        <ele>1030</ele>
        <time>2021-08-25T12:14:09Z</time>
      </trkpt>
      <trkpt lat="47.92574" lon="6.92206">
        <ele>1032</ele>
        <time>2021-08-25T12:14:18Z</time>
      </trkpt>
      <trkpt lat="47.92578" lon="6.92222">
        <ele>1037</ele>
        <time>2021-08-25T12:14:27Z</time>
      </trkpt>
      <trkpt lat="47.92583" lon="6.92231">
        <ele>1041</ele>
        <time>2021-08-25T12:14:33Z</time>
      </trkpt>
      <trkpt lat="47.92603" lon="6.92242">
        <ele>1047</ele>
        <time>2021-08-25T12:14:50Z</time>
      </trkpt>
      <trkpt lat="47.92626" lon="6.92284">
        <ele>1054</ele>
        <time>2021-08-25T12:15:19Z</time>
      </trkpt>
      <trkpt lat="47.92638" lon="6.92346">
        <ele>1058</ele>
        <time>2021-08-25T12:15:54Z</time>
      </trkpt>
      <trkpt lat="47.92648" lon="6.92383">
        <ele>1059</ele>
        <time>2021-08-25T12:16:15Z</time>
      </trkpt>
      <trkpt lat="47.9266" lon="6.92398">
        <ele>1064</ele>
        <time>2021-08-25T12:16:28Z</time>
      </trkpt>
      <trkpt lat="47.92677" lon="6.92432">
        <ele>1067</ele>
        <time>2021-08-25T12:16:51Z</time>
      </trkpt>
      <trkpt lat="47.92691" lon="6.92468">
        <ele>1064</ele>
        <time>2021-08-25T12:17:13Z</time>
      </trkpt>
      <trkpt lat="47.92715" lon="6.92512">
        <ele>1065</ele>
        <time>2021-08-25T12:17:43Z</time>
      </trkpt>
      <trkpt lat="47.92755" lon="6.92571">
        <ele>1067</ele>
        <time>2021-08-25T12:18:28Z</time>
      </trkpt>
      <trkpt lat="47.9279" lon="6.92662">
        <ele>1065</ele>
        <time>2021-08-25T12:19:25Z</time>
      </trkpt>
      <trkpt lat="47.92872" lon="6.9265">
        <ele>1101</ele>
        <time>2021-08-25T12:20:31Z</time>
      </trkpt>
      <trkpt lat="47.92924" lon="6.92605">
        <ele>1128</ele>
        <time>2021-08-25T12:21:19Z</time>
      </trkpt>
      <trkpt lat="47.92965" lon="6.92553">
        <ele>1141</ele>
        <time>2021-08-25T12:22:02Z</time>
      </trkpt>
      <trkpt lat="47.92987" lon="6.92549">
        <ele>1146</ele>
        <time>2021-08-25T12:22:20Z</time>
      </trkpt>
      <trkpt lat="47.93004" lon="6.92553">
        <ele>1148</ele>
        <time>2021-08-25T12:22:33Z</time>
      </trkpt>
      <trkpt lat="47.93077" lon="6.92592">
        <ele>1150</ele>
        <time>2021-08-25T12:23:35Z</time>
      </trkpt>
      <trkpt lat="47.93088" lon="6.92575">
        <ele>1149</ele>
        <time>2021-08-25T12:23:48Z</time>
      </trkpt>
      <trkpt lat="47.93118" lon="6.92494">
        <ele>1141</ele>
        <time>2021-08-25T12:24:38Z</time>
      </trkpt>
      <trkpt lat="47.93143" lon="6.92454">
        <ele>1139</ele>
        <time>2021-08-25T12:25:07Z</time>
      </trkpt>
      <trkpt lat="47.93163" lon="6.92438">
        <ele>1138</ele>
        <time>2021-08-25T12:25:25Z</time>
      </trkpt>
      <trkpt lat="47.93218" lon="6.92406">
        <ele>1140</ele>
        <time>2021-08-25T12:26:13Z</time>
      </trkpt>
      <trkpt lat="47.93254" lon="6.92392">
        <ele>1140</ele>
        <time>2021-08-25T12:26:42Z</time>
      </trkpt>
      <trkpt lat="47.93269" lon="6.92395">
        <ele>1140</ele>
        <time>2021-08-25T12:26:54Z</time>
      </trkpt>
      <trkpt lat="47.9334" lon="6.92437">
        <ele>1135</ele>
        <time>2021-08-25T12:27:56Z</time>
      </trkpt>
      <trkpt lat="47.93354" lon="6.92448">
        <ele>1134</ele>
        <time>2021-08-25T12:28:08Z</time>
      </trkpt>
      <trkpt lat="47.93375" lon="6.92474">
        <ele>1131</ele>
        <time>2021-08-25T12:28:30Z</time>
      </trkpt>
      <trkpt lat="47.93409" lon="6.92498">
        <ele>1134</ele>
        <time>2021-08-25T12:29:00Z</time>
      </trkpt>
      <trkpt lat="47.93457" lon="6.92503">
        <ele>1136</ele>
        <time>2021-08-25T12:29:39Z</time>
      </trkpt>
      <trkpt lat="47.93475" lon="6.92493">
        <ele>1138</ele>
        <time>2021-08-25T12:29:54Z</time>
      </trkpt>
      <trkpt lat="47.93491" lon="6.92492">
        <ele>1139</ele>
        <time>2021-08-25T12:30:07Z</time>
      </trkpt>
      <trkpt lat="47.93531" lon="6.9248">
        <ele>1138</ele>
        <time>2021-08-25T12:30:40Z</time>
      </trkpt>
      <trkpt lat="47.93563" lon="6.92478">
        <ele>1136</ele>
        <time>2021-08-25T12:31:05Z</time>
      </trkpt>
      <trkpt lat="47.93605" lon="6.92466">
        <ele>1133</ele>
        <time>2021-08-25T12:31:40Z</time>
      </trkpt>
      <trkpt lat="47.93619" lon="6.92465">
        <ele>1131</ele>
        <time>2021-08-25T12:31:51Z</time>
      </trkpt>
      <trkpt lat="47.93635" lon="6.92447">
        <ele>1128</ele>
        <time>2021-08-25T12:32:07Z</time>
      </trkpt>
      <trkpt lat="47.93647" lon="6.92406">
        <ele>1126</ele>
        <time>2021-08-25T12:32:31Z</time>
      </trkpt>
      <trkpt lat="47.93657" lon="6.92389">
        <ele>1123</ele>
        <time>2021-08-25T12:32:43Z</time>
      </trkpt>
      <trkpt lat="47.93669" lon="6.92388">
        <ele>1120</ele>
        <time>2021-08-25T12:32:53Z</time>
      </trkpt>
      <trkpt lat="47.93654" lon="6.92337">
        <ele>1118</ele>
        <time>2021-08-25T12:33:22Z</time>
      </trkpt>
      <trkpt lat="47.93675" lon="6.92347">
        <ele>1113</ele>
        <time>2021-08-25T12:33:40Z</time>
      </trkpt>
      <trkpt lat="47.93694" lon="6.92365">
        <ele>1106</ele>
        <time>2021-08-25T12:33:58Z</time>
      </trkpt>
      <trkpt lat="47.93691" lon="6.92342">
        <ele>1105</ele>
        <time>2021-08-25T12:34:11Z</time>
      </trkpt>
      <trkpt lat="47.93686" lon="6.92327">
        <ele>1106</ele>
        <time>2021-08-25T12:34:20Z</time>
      </trkpt>
      <trkpt lat="47.93682" lon="6.92281">
        <ele>1101</ele>
        <time>2021-08-25T12:34:45Z</time>
      </trkpt>
      <trkpt lat="47.93698" lon="6.92285">
        <ele>1096</ele>
        <time>2021-08-25T12:34:57Z</time>
      </trkpt>
      <trkpt lat="47.93709" lon="6.92309">
        <ele>1093</ele>
        <time>2021-08-25T12:35:13Z</time>
      </trkpt>
      <trkpt lat="47.93712" lon="6.92289">
        <ele>1091</ele>
        <time>2021-08-25T12:35:24Z</time>
      </trkpt>
      <trkpt lat="47.93708" lon="6.92273">
        <ele>1091</ele>
        <time>2021-08-25T12:35:33Z</time>
      </trkpt>
      <trkpt lat="47.93707" lon="6.9225">
        <ele>1089</ele>
        <time>2021-08-25T12:35:46Z</time>
      </trkpt>
      <trkpt lat="47.93709" lon="6.9223">
        <ele>1085</ele>
        <time>2021-08-25T12:35:56Z</time>
      </trkpt>
      <trkpt lat="47.93718" lon="6.92223">
        <ele>1082</ele>
        <time>2021-08-25T12:36:05Z</time>
      </trkpt>
      <trkpt lat="47.9373" lon="6.92219">
        <ele>1078</ele>
        <time>2021-08-25T12:36:14Z</time>
      </trkpt>
      <trkpt lat="47.93745" lon="6.92251">
        <ele>1078</ele>
        <time>2021-08-25T12:36:35Z</time>
      </trkpt>
      <trkpt lat="47.93738" lon="6.92277">
        <ele>1080</ele>
        <time>2021-08-25T12:36:50Z</time>
      </trkpt>
      <trkpt lat="47.9375" lon="6.92267">
        <ele>1076</ele>
        <time>2021-08-25T12:37:01Z</time>
      </trkpt>
      <trkpt lat="47.93751" lon="6.92251">
        <ele>1076</ele>
        <time>2021-08-25T12:37:10Z</time>
      </trkpt>
      <trkpt lat="47.93759" lon="6.92243">
        <ele>1073</ele>
        <time>2021-08-25T12:37:18Z</time>
      </trkpt>
      <trkpt lat="47.93757" lon="6.9223">
        <ele>1072</ele>
        <time>2021-08-25T12:37:25Z</time>
      </trkpt>
      <trkpt lat="47.93761" lon="6.92224">
        <ele>1070</ele>
        <time>2021-08-25T12:37:29Z</time>
      </trkpt>
      <trkpt lat="47.93762" lon="6.922">
        <ele>1068</ele>
        <time>2021-08-25T12:37:42Z</time>
      </trkpt>
      <trkpt lat="47.93768" lon="6.92214">
        <ele>1068</ele>
        <time>2021-08-25T12:37:51Z</time>
      </trkpt>
      <trkpt lat="47.93768" lon="6.92236">
        <ele>1070</ele>
        <time>2021-08-25T12:38:03Z</time>
      </trkpt>
      <trkpt lat="47.93777" lon="6.92265">
        <ele>1067</ele>
        <time>2021-08-25T12:38:20Z</time>
      </trkpt>
      <trkpt lat="47.93783" lon="6.92246">
        <ele>1066</ele>
        <time>2021-08-25T12:38:31Z</time>
      </trkpt>
      <trkpt lat="47.93788" lon="6.92212">
        <ele>1063</ele>
        <time>2021-08-25T12:38:50Z</time>
      </trkpt>
      <trkpt lat="47.93792" lon="6.92203">
        <ele>1062</ele>
        <time>2021-08-25T12:38:56Z</time>
      </trkpt>
      <trkpt lat="47.93808" lon="6.92204">
        <ele>1058</ele>
        <time>2021-08-25T12:39:09Z</time>
      </trkpt>
      <trkpt lat="47.93826" lon="6.92199">
        <ele>1054</ele>
        <time>2021-08-25T12:39:23Z</time>
      </trkpt>
      <trkpt lat="47.93871" lon="6.9221">
        <ele>1059</ele>
        <time>2021-08-25T12:40:00Z</time>
      </trkpt>
      <trkpt lat="47.93876" lon="6.92194">
        <ele>1059</ele>
        <time>2021-08-25T12:40:09Z</time>
      </trkpt>
      <trkpt lat="47.9391" lon="6.92143">
        <ele>1058</ele>
        <time>2021-08-25T12:40:48Z</time>
      </trkpt>
      <trkpt lat="47.93915" lon="6.92227">
        <ele>1068</ele>
        <time>2021-08-25T12:41:33Z</time>
      </trkpt>
      <trkpt lat="47.93938" lon="6.9219">
        <ele>1067</ele>
        <time>2021-08-25T12:42:00Z</time>
      </trkpt>
      <trkpt lat="47.9394" lon="6.92203">
        <ele>1069</ele>
        <time>2021-08-25T12:42:07Z</time>
      </trkpt>
      <trkpt lat="47.93931" lon="6.92219">
        <ele>1069</ele>
        <time>2021-08-25T12:42:19Z</time>
      </trkpt>
      <trkpt lat="47.93931" lon="6.9223">
        <ele>1071</ele>
        <time>2021-08-25T12:42:25Z</time>
      </trkpt>
      <trkpt lat="47.93922" lon="6.92259">
        <ele>1070</ele>
        <time>2021-08-25T12:42:42Z</time>
      </trkpt>
      <trkpt lat="47.93921" lon="6.9228">
        <ele>1066</ele>
        <time>2021-08-25T12:42:53Z</time>
      </trkpt>
      <trkpt lat="47.9393" lon="6.92292">
        <ele>1065</ele>
        <time>2021-08-25T12:43:03Z</time>
      </trkpt>
      <trkpt lat="47.93963" lon="6.92307">
        <ele>1069</ele>
        <time>2021-08-25T12:43:30Z</time>
      </trkpt>
      <trkpt lat="47.93998" lon="6.92306">
        <ele>1076</ele>
        <time>2021-08-25T12:43:58Z</time>
      </trkpt>
      <trkpt lat="47.94037" lon="6.92323">
        <ele>1077</ele>
        <time>2021-08-25T12:44:31Z</time>
      </trkpt>
      <trkpt lat="47.94062" lon="6.9231">
        <ele>1080</ele>
        <time>2021-08-25T12:44:52Z</time>
      </trkpt>
      <trkpt lat="47.94094" lon="6.92315">
        <ele>1080</ele>
        <time>2021-08-25T12:45:18Z</time>
      </trkpt>
      <trkpt lat="47.94119" lon="6.92325">
        <ele>1077</ele>
        <time>2021-08-25T12:45:39Z</time>
      </trkpt>
      <trkpt lat="47.94134" lon="6.92327">
        <ele>1076</ele>
        <time>2021-08-25T12:45:51Z</time>
      </trkpt>
      <trkpt lat="47.94141" lon="6.92309">
        <ele>1077</ele>
        <time>2021-08-25T12:46:02Z</time>
      </trkpt>
      <trkpt lat="47.94139" lon="6.92293">
        <ele>1078</ele>
        <time>2021-08-25T12:46:10Z</time>
      </trkpt>
      <trkpt lat="47.94142" lon="6.92274">
        <ele>1080</ele>
        <time>2021-08-25T12:46:21Z</time>
      </trkpt>
      <trkpt lat="47.94136" lon="6.92231">
        <ele>1081</ele>
        <time>2021-08-25T12:46:44Z</time>
      </trkpt>
      <trkpt lat="47.94147" lon="6.92199">
        <ele>1078</ele>
        <time>2021-08-25T12:47:04Z</time>
      </trkpt>
      <trkpt lat="47.94164" lon="6.92189">
        <ele>1077</ele>
        <time>2021-08-25T12:47:18Z</time>
      </trkpt>
      <trkpt lat="47.9417" lon="6.92177">
        <ele>1077</ele>
        <time>2021-08-25T12:47:26Z</time>
      </trkpt>
      <trkpt lat="47.94195" lon="6.92153">
        <ele>1077</ele>
        <time>2021-08-25T12:47:50Z</time>
      </trkpt>
      <trkpt lat="47.94217" lon="6.92159">
        <ele>1078</ele>
        <time>2021-08-25T12:48:08Z</time>
      </trkpt>
      <trkpt lat="47.94233" lon="6.92169">
        <ele>1078</ele>
        <time>2021-08-25T12:48:22Z</time>
      </trkpt>
      <trkpt lat="47.94243" lon="6.92153">
        <ele>1079</ele>
        <time>2021-08-25T12:48:34Z</time>
      </trkpt>
      <trkpt lat="47.94284" lon="6.92147">
        <ele>1080</ele>
        <time>2021-08-25T12:49:07Z</time>
      </trkpt>
      <trkpt lat="47.94287" lon="6.92155">
        <ele>1079</ele>
        <time>2021-08-25T12:49:12Z</time>
      </trkpt>
      <trkpt lat="47.94301" lon="6.92151">
        <ele>1080</ele>
        <time>2021-08-25T12:49:23Z</time>
      </trkpt>
      <trkpt lat="47.94294" lon="6.92137">
        <ele>1082</ele>
        <time>2021-08-25T12:49:32Z</time>
      </trkpt>
      <trkpt lat="47.94292" lon="6.92127">
        <ele>1084</ele>
        <time>2021-08-25T12:49:38Z</time>
      </trkpt>
      <trkpt lat="47.94318" lon="6.92112">
        <ele>1089</ele>
        <time>2021-08-25T12:50:00Z</time>
      </trkpt>
      <trkpt lat="47.94331" lon="6.92111">
        <ele>1090</ele>
        <time>2021-08-25T12:50:11Z</time>
      </trkpt>
      <trkpt lat="47.94335" lon="6.9208">
        <ele>1098</ele>
        <time>2021-08-25T12:50:28Z</time>
      </trkpt>
      <trkpt lat="47.94335" lon="6.92035">
        <ele>1105</ele>
        <time>2021-08-25T12:50:52Z</time>
      </trkpt>
      <trkpt lat="47.9435" lon="6.9204">
        <ele>1106</ele>
        <time>2021-08-25T12:51:04Z</time>
      </trkpt>
      <trkpt lat="47.94357" lon="6.92057">
        <ele>1103</ele>
        <time>2021-08-25T12:51:15Z</time>
      </trkpt>
      <trkpt lat="47.94368" lon="6.92061">
        <ele>1103</ele>
        <time>2021-08-25T12:51:24Z</time>
      </trkpt>
      <trkpt lat="47.94382" lon="6.92054">
        <ele>1106</ele>
        <time>2021-08-25T12:51:36Z</time>
      </trkpt>
      <trkpt lat="47.94367" lon="6.92038">
        <ele>1108</ele>
        <time>2021-08-25T12:51:51Z</time>
      </trkpt>
      <trkpt lat="47.94373" lon="6.92031">
        <ele>1111</ele>
        <time>2021-08-25T12:51:57Z</time>
      </trkpt>
      <trkpt lat="47.94386" lon="6.92035">
        <ele>1112</ele>
        <time>2021-08-25T12:52:07Z</time>
      </trkpt>
      <trkpt lat="47.94401" lon="6.92028">
        <ele>1116</ele>
        <time>2021-08-25T12:52:20Z</time>
      </trkpt>
      <trkpt lat="47.9439" lon="6.92021">
        <ele>1116</ele>
        <time>2021-08-25T12:52:29Z</time>
      </trkpt>
      <trkpt lat="47.944" lon="6.92013">
        <ele>1120</ele>
        <time>2021-08-25T12:52:38Z</time>
      </trkpt>
      <trkpt lat="47.94389" lon="6.92012">
        <ele>1118</ele>
        <time>2021-08-25T12:52:47Z</time>
      </trkpt>
      <trkpt lat="47.94386" lon="6.92007">
        <ele>1119</ele>
        <time>2021-08-25T12:52:51Z</time>
      </trkpt>
      <trkpt lat="47.944" lon="6.92005">
        <ele>1123</ele>
        <time>2021-08-25T12:53:02Z</time>
      </trkpt>
      <trkpt lat="47.9439" lon="6.91987">
        <ele>1123</ele>
        <time>2021-08-25T12:53:15Z</time>
      </trkpt>
      <trkpt lat="47.94415" lon="6.91996">
        <ele>1128</ele>
        <time>2021-08-25T12:53:35Z</time>
      </trkpt>
      <trkpt lat="47.94418" lon="6.91958">
        <ele>1134</ele>
        <time>2021-08-25T12:53:56Z</time>
      </trkpt>
      <trkpt lat="47.94426" lon="6.91948">
        <ele>1136</ele>
        <time>2021-08-25T12:54:04Z</time>
      </trkpt>
      <trkpt lat="47.94463" lon="6.91958">
        <ele>1139</ele>
        <time>2021-08-25T12:54:34Z</time>
      </trkpt>
      <trkpt lat="47.9449" lon="6.91992">
        <ele>1141</ele>
        <time>2021-08-25T12:55:03Z</time>
      </trkpt>
      <trkpt lat="47.94504" lon="6.92002">
        <ele>1142</ele>
        <time>2021-08-25T12:55:15Z</time>
      </trkpt>
      <trkpt lat="47.9452" lon="6.92002">
        <ele>1142</ele>
        <time>2021-08-25T12:55:28Z</time>
      </trkpt>
      <trkpt lat="47.94543" lon="6.92007">
        <ele>1143</ele>
        <time>2021-08-25T12:55:46Z</time>
      </trkpt>
      <trkpt lat="47.94556" lon="6.91993">
        <ele>1144</ele>
        <time>2021-08-25T12:55:59Z</time>
      </trkpt>
      <trkpt lat="47.94573" lon="6.92021">
        <ele>1142</ele>
        <time>2021-08-25T12:56:20Z</time>
      </trkpt>
      <trkpt lat="47.9457" lon="6.92041">
        <ele>1139</ele>
        <time>2021-08-25T12:56:31Z</time>
      </trkpt>
      <trkpt lat="47.94596" lon="6.92043">
        <ele>1142</ele>
        <time>2021-08-25T12:56:51Z</time>
      </trkpt>
      <trkpt lat="47.94607" lon="6.9205">
        <ele>1142</ele>
        <time>2021-08-25T12:57:01Z</time>
      </trkpt>
      <trkpt lat="47.94621" lon="6.92048">
        <ele>1143</ele>
        <time>2021-08-25T12:57:12Z</time>
      </trkpt>
      <trkpt lat="47.9463" lon="6.92056">
        <ele>1143</ele>
        <time>2021-08-25T12:57:21Z</time>
      </trkpt>
      <trkpt lat="47.94639" lon="6.9205">
        <ele>1145</ele>
        <time>2021-08-25T12:57:28Z</time>
      </trkpt>
      <trkpt lat="47.94652" lon="6.92057">
        <ele>1145</ele>
        <time>2021-08-25T12:57:40Z</time>
      </trkpt>
      <trkpt lat="47.94668" lon="6.9206">
        <ele>1146</ele>
        <time>2021-08-25T12:57:52Z</time>
      </trkpt>
      <trkpt lat="47.94693" lon="6.92083">
        <ele>1145</ele>
        <time>2021-08-25T12:58:16Z</time>
      </trkpt>
      <trkpt lat="47.94697" lon="6.92099">
        <ele>1144</ele>
        <time>2021-08-25T12:58:25Z</time>
      </trkpt>
      <trkpt lat="47.94712" lon="6.92095">
        <ele>1144</ele>
        <time>2021-08-25T12:58:37Z</time>
      </trkpt>
      <trkpt lat="47.94741" lon="6.92108">
        <ele>1144</ele>
        <time>2021-08-25T12:59:02Z</time>
      </trkpt>
      <trkpt lat="47.94755" lon="6.92133">
        <ele>1143</ele>
        <time>2021-08-25T12:59:19Z</time>
      </trkpt>
      <trkpt lat="47.94773" lon="6.92179">
        <ele>1141</ele>
        <time>2021-08-25T12:59:48Z</time>
      </trkpt>
      <trkpt lat="47.94775" lon="6.9219">
        <ele>1140</ele>
        <time>2021-08-25T12:59:54Z</time>
      </trkpt>
      <trkpt lat="47.94814" lon="6.92256">
        <ele>1137</ele>
        <time>2021-08-25T13:00:41Z</time>
      </trkpt>
      <trkpt lat="47.94839" lon="6.92281">
        <ele>1133</ele>
        <time>2021-08-25T13:01:05Z</time>
      </trkpt>
      <trkpt lat="47.94855" lon="6.92277">
        <ele>1130</ele>
        <time>2021-08-25T13:01:18Z</time>
      </trkpt>
      <trkpt lat="47.94873" lon="6.92268">
        <ele>1126</ele>
        <time>2021-08-25T13:01:33Z</time>
      </trkpt>
      <trkpt lat="47.94889" lon="6.92238">
        <ele>1122</ele>
        <time>2021-08-25T13:01:54Z</time>
      </trkpt>
      <trkpt lat="47.94901" lon="6.92244">
        <ele>1118</ele>
        <time>2021-08-25T13:02:04Z</time>
      </trkpt>
      <trkpt lat="47.949" lon="6.92273">
        <ele>1118</ele>
        <time>2021-08-25T13:02:19Z</time>
      </trkpt>
      <trkpt lat="47.94895" lon="6.92301">
        <ele>1119</ele>
        <time>2021-08-25T13:02:35Z</time>
      </trkpt>
      <trkpt lat="47.94893" lon="6.9233">
        <ele>1118</ele>
        <time>2021-08-25T13:02:51Z</time>
      </trkpt>
      <trkpt lat="47.94935" lon="6.92241">
        <ele>1112</ele>
        <time>2021-08-25T13:03:49Z</time>
      </trkpt>
      <trkpt lat="47.94961" lon="6.92254">
        <ele>1110</ele>
        <time>2021-08-25T13:04:11Z</time>
      </trkpt>
      <trkpt lat="47.94973" lon="6.9228">
        <ele>1112</ele>
        <time>2021-08-25T13:04:28Z</time>
      </trkpt>
      <trkpt lat="47.94967" lon="6.92311">
        <ele>1116</ele>
        <time>2021-08-25T13:04:45Z</time>
      </trkpt>
      <trkpt lat="47.94962" lon="6.92325">
        <ele>1117</ele>
        <time>2021-08-25T13:04:54Z</time>
      </trkpt>
      <trkpt lat="47.94963" lon="6.92348">
        <ele>1119</ele>
        <time>2021-08-25T13:05:06Z</time>
      </trkpt>
      <trkpt lat="47.94957" lon="6.9237">
        <ele>1119</ele>
        <time>2021-08-25T13:05:19Z</time>
      </trkpt>
      <trkpt lat="47.94957" lon="6.92394">
        <ele>1120</ele>
        <time>2021-08-25T13:05:32Z</time>
      </trkpt>
      <trkpt lat="47.94976" lon="6.92356">
        <ele>1121</ele>
        <time>2021-08-25T13:05:57Z</time>
      </trkpt>
      <trkpt lat="47.9499" lon="6.92343">
        <ele>1121</ele>
        <time>2021-08-25T13:06:10Z</time>
      </trkpt>
      <trkpt lat="47.95007" lon="6.92334">
        <ele>1122</ele>
        <time>2021-08-25T13:06:25Z</time>
      </trkpt>
      <trkpt lat="47.94982" lon="6.92435">
        <ele>1127</ele>
        <time>2021-08-25T13:07:23Z</time>
      </trkpt>
      <trkpt lat="47.94983" lon="6.92461">
        <ele>1128</ele>
        <time>2021-08-25T13:07:37Z</time>
      </trkpt>
      <trkpt lat="47.94989" lon="6.92489">
        <ele>1131</ele>
        <time>2021-08-25T13:07:52Z</time>
      </trkpt>
      <trkpt lat="47.9499" lon="6.92515">
        <ele>1131</ele>
        <time>2021-08-25T13:08:06Z</time>
      </trkpt>
      <trkpt lat="47.94995" lon="6.9255">
        <ele>1131</ele>
        <time>2021-08-25T13:08:25Z</time>
      </trkpt>
      <trkpt lat="47.95011" lon="6.92567">
        <ele>1133</ele>
        <time>2021-08-25T13:08:41Z</time>
      </trkpt>
      <trkpt lat="47.95073" lon="6.92568">
        <ele>1134</ele>
        <time>2021-08-25T13:09:31Z</time>
      </trkpt>
      <trkpt lat="47.95125" lon="6.92531">
        <ele>1139</ele>
        <time>2021-08-25T13:10:17Z</time>
      </trkpt>
      <trkpt lat="47.95151" lon="6.92499">
        <ele>1145</ele>
        <time>2021-08-25T13:10:44Z</time>
      </trkpt>
      <trkpt lat="47.95163" lon="6.92453">
        <ele>1148</ele>
        <time>2021-08-25T13:11:10Z</time>
      </trkpt>
      <trkpt lat="47.95198" lon="6.92383">
        <ele>1148</ele>
        <time>2021-08-25T13:11:57Z</time>
      </trkpt>
      <trkpt lat="47.95265" lon="6.92348">
        <ele>1147</ele>
        <time>2021-08-25T13:12:54Z</time>
      </trkpt>
      <trkpt lat="47.95339" lon="6.9236">
        <ele>1142</ele>
        <time>2021-08-25T13:13:54Z</time>
      </trkpt>
      <trkpt lat="47.9539" lon="6.92361">
        <ele>1140</ele>
        <time>2021-08-25T13:14:34Z</time>
      </trkpt>
      <trkpt lat="47.95491" lon="6.92396">
        <ele>1144</ele>
        <time>2021-08-25T13:15:58Z</time>
      </trkpt>
      <trkpt lat="47.95527" lon="6.92414">
        <ele>1147</ele>
        <time>2021-08-25T13:16:28Z</time>
      </trkpt>
      <trkpt lat="47.95559" lon="6.92436">
        <ele>1149</ele>
        <time>2021-08-25T13:16:56Z</time>
      </trkpt>
      <trkpt lat="47.95577" lon="6.92458">
        <ele>1151</ele>
        <time>2021-08-25T13:17:15Z</time>
      </trkpt>
      <trkpt lat="47.95589" lon="6.92431">
        <ele>1153</ele>
        <time>2021-08-25T13:17:32Z</time>
      </trkpt>
      <trkpt lat="47.95627" lon="6.92427">
        <ele>1156</ele>
        <time>2021-08-25T13:18:03Z</time>
      </trkpt>
      <trkpt lat="47.95655" lon="6.92411">
        <ele>1157</ele>
        <time>2021-08-25T13:18:27Z</time>
      </trkpt>
      <trkpt lat="47.95711" lon="6.92394">
        <ele>1163</ele>
        <time>2021-08-25T13:19:12Z</time>
      </trkpt>
      <trkpt lat="47.95741" lon="6.92354">
        <ele>1163</ele>
        <time>2021-08-25T13:19:45Z</time>
      </trkpt>
      <trkpt lat="47.9576" lon="6.92339">
        <ele>1164</ele>
        <time>2021-08-25T13:20:02Z</time>
      </trkpt>
      <trkpt lat="47.95785" lon="6.92273">
        <ele>1159</ele>
        <time>2021-08-25T13:20:42Z</time>
      </trkpt>
      <trkpt lat="47.95829" lon="6.92201">
        <ele>1157</ele>
        <time>2021-08-25T13:21:35Z</time>
      </trkpt>
      <trkpt lat="47.95842" lon="6.92153">
        <ele>1151</ele>
        <time>2021-08-25T13:22:02Z</time>
      </trkpt>
      <trkpt lat="47.95881" lon="6.92099">
        <ele>1146</ele>
        <time>2021-08-25T13:22:45Z</time>
      </trkpt>
      <trkpt lat="47.95919" lon="6.92078">
        <ele>1145</ele>
        <time>2021-08-25T13:23:17Z</time>
      </trkpt>
      <trkpt lat="47.95961" lon="6.92078">
        <ele>1146</ele>
        <time>2021-08-25T13:23:51Z</time>
      </trkpt>
      <trkpt lat="47.95991" lon="6.92092">
        <ele>1148</ele>
        <time>2021-08-25T13:24:16Z</time>
      </trkpt>
      <trkpt lat="47.96029" lon="6.92129">
        <ele>1151</ele>
        <time>2021-08-25T13:24:53Z</time>
      </trkpt>
      <trkpt lat="47.96079" lon="6.92166">
        <ele>1151</ele>
        <time>2021-08-25T13:25:37Z</time>
      </trkpt>
      <trkpt lat="47.96116" lon="6.92186">
        <ele>1149</ele>
        <time>2021-08-25T13:26:09Z</time>
      </trkpt>
      <trkpt lat="47.9614" lon="6.92194">
        <ele>1146</ele>
        <time>2021-08-25T13:26:28Z</time>
      </trkpt>
      <trkpt lat="47.96191" lon="6.92204">
        <ele>1140</ele>
        <time>2021-08-25T13:27:10Z</time>
      </trkpt>
      <trkpt lat="47.96243" lon="6.92225">
        <ele>1136</ele>
        <time>2021-08-25T13:27:53Z</time>
      </trkpt>
      <trkpt lat="47.96284" lon="6.92224">
        <ele>1131</ele>
        <time>2021-08-25T13:28:26Z</time>
      </trkpt>
      <trkpt lat="47.96316" lon="6.9225">
        <ele>1129</ele>
        <time>2021-08-25T13:28:55Z</time>
      </trkpt>
      <trkpt lat="47.96356" lon="6.92386">
        <ele>1123</ele>
        <time>2021-08-25T13:30:14Z</time>
      </trkpt>
      <trkpt lat="47.9641" lon="6.92445">
        <ele>1113</ele>
        <time>2021-08-25T13:31:08Z</time>
      </trkpt>
      <trkpt lat="47.96447" lon="6.9245">
        <ele>1108</ele>
        <time>2021-08-25T13:31:38Z</time>
      </trkpt>
      <trkpt lat="47.96469" lon="6.92469">
        <ele>1108</ele>
        <time>2021-08-25T13:31:58Z</time>
      </trkpt>
      <trkpt lat="47.96504" lon="6.92508">
        <ele>1107</ele>
        <time>2021-08-25T13:32:33Z</time>
      </trkpt>
      <trkpt lat="47.96558" lon="6.92506">
        <ele>1103</ele>
        <time>2021-08-25T13:33:16Z</time>
      </trkpt>
      <trkpt lat="47.96599" lon="6.92501">
        <ele>1099</ele>
        <time>2021-08-25T13:33:49Z</time>
      </trkpt>
      <trkpt lat="47.96638" lon="6.92489">
        <ele>1096</ele>
        <time>2021-08-25T13:34:21Z</time>
      </trkpt>
      <trkpt lat="47.9667" lon="6.92472">
        <ele>1093</ele>
        <time>2021-08-25T13:34:48Z</time>
      </trkpt>
      <trkpt lat="47.96744" lon="6.92479">
        <ele>1084</ele>
        <time>2021-08-25T13:35:48Z</time>
      </trkpt>
      <trkpt lat="47.96823" lon="6.9251">
        <ele>1078</ele>
        <time>2021-08-25T13:36:53Z</time>
      </trkpt>
      <trkpt lat="47.96868" lon="6.92545">
        <ele>1072</ele>
        <time>2021-08-25T13:37:34Z</time>
      </trkpt>
      <trkpt lat="47.9698" lon="6.92648">
        <ele>1057</ele>
        <time>2021-08-25T13:39:19Z</time>
      </trkpt>
      <trkpt lat="47.97033" lon="6.92719">
        <ele>1050</ele>
        <time>2021-08-25T13:40:16Z</time>
      </trkpt>
      <trkpt lat="47.97073" lon="6.92756">
        <ele>1044</ele>
        <time>2021-08-25T13:40:54Z</time>
      </trkpt>
      <trkpt lat="47.97103" lon="6.92773">
        <ele>1040</ele>
        <time>2021-08-25T13:41:19Z</time>
      </trkpt>
      <trkpt lat="47.97135" lon="6.92815">
        <ele>1038</ele>
        <time>2021-08-25T13:41:54Z</time>
      </trkpt>
      <trkpt lat="47.97166" lon="6.92839">
        <ele>1035</ele>
        <time>2021-08-25T13:42:21Z</time>
      </trkpt>
      <trkpt lat="47.97194" lon="6.92872">
        <ele>1035</ele>
        <time>2021-08-25T13:42:50Z</time>
      </trkpt>
      <trkpt lat="47.97231" lon="6.92928">
        <ele>1033</ele>
        <time>2021-08-25T13:43:32Z</time>
      </trkpt>
      <trkpt lat="47.97257" lon="6.92958">
        <ele>1028</ele>
        <time>2021-08-25T13:43:59Z</time>
      </trkpt>
      <trkpt lat="47.973" lon="6.93068">
        <ele>1019</ele>
        <time>2021-08-25T13:45:07Z</time>
      </trkpt>
      <trkpt lat="47.97309" lon="6.93102">
        <ele>1017</ele>
        <time>2021-08-25T13:45:26Z</time>
      </trkpt>
      <trkpt lat="47.97318" lon="6.93153">
        <ele>1017</ele>
        <time>2021-08-25T13:45:55Z</time>
      </trkpt>
      <trkpt lat="47.97332" lon="6.93191">
        <ele>1017</ele>
        <time>2021-08-25T13:46:18Z</time>
      </trkpt>
      <trkpt lat="47.97358" lon="6.93224">
        <ele>1014</ele>
        <time>2021-08-25T13:46:45Z</time>
      </trkpt>
      <trkpt lat="47.97386" lon="6.93285">
        <ele>1014</ele>
        <time>2021-08-25T13:47:25Z</time>
      </trkpt>
      <trkpt lat="47.9742" lon="6.93302">
        <ele>1013</ele>
        <time>2021-08-25T13:47:54Z</time>
      </trkpt>
      <trkpt lat="47.97441" lon="6.93327">
        <ele>1012</ele>
        <time>2021-08-25T13:48:15Z</time>
      </trkpt>
      <trkpt lat="47.97469" lon="6.93401">
        <ele>1014</ele>
        <time>2021-08-25T13:49:01Z</time>
      </trkpt>
      <trkpt lat="47.97499" lon="6.93449">
        <ele>1019</ele>
        <time>2021-08-25T13:49:36Z</time>
      </trkpt>
      <trkpt lat="47.97534" lon="6.93482">
        <ele>1019</ele>
        <time>2021-08-25T13:50:09Z</time>
      </trkpt>
      <trkpt lat="47.97553" lon="6.93544">
        <ele>1029</ele>
        <time>2021-08-25T13:50:46Z</time>
      </trkpt>
      <trkpt lat="47.97575" lon="6.93554">
        <ele>1029</ele>
        <time>2021-08-25T13:51:04Z</time>
      </trkpt>
      <trkpt lat="47.97622" lon="6.93518">
        <ele>1022</ele>
        <time>2021-08-25T13:51:46Z</time>
      </trkpt>
      <trkpt lat="47.97695" lon="6.93482">
        <ele>1022</ele>
        <time>2021-08-25T13:52:48Z</time>
      </trkpt>
      <trkpt lat="47.97765" lon="6.93421">
        <ele>1019</ele>
        <time>2021-08-25T13:53:53Z</time>
      </trkpt>
      <trkpt lat="47.97811" lon="6.93408">
        <ele>1022</ele>
        <time>2021-08-25T13:54:30Z</time>
      </trkpt>
      <trkpt lat="47.97913" lon="6.93407">
        <ele>1018</ele>
        <time>2021-08-25T13:55:52Z</time>
      </trkpt>
      <trkpt lat="47.97986" lon="6.93522">
        <ele>1017</ele>
        <time>2021-08-25T13:57:17Z</time>
      </trkpt>
      <trkpt lat="47.9803" lon="6.93667">
        <ele>1019</ele>
        <time>2021-08-25T13:58:42Z</time>
      </trkpt>
      <trkpt lat="47.9809" lon="6.93764">
        <ele>1018</ele>
        <time>2021-08-25T13:59:53Z</time>
      </trkpt>
      <trkpt lat="47.98288" lon="6.93785">
        <ele>1020</ele>
        <time>2021-08-25T14:02:32Z</time>
      </trkpt>
      <trkpt lat="47.98363" lon="6.93767">
        <ele>1024</ele>
        <time>2021-08-25T14:03:33Z</time>
      </trkpt>
      <trkpt lat="47.98389" lon="6.937">
        <ele>1024</ele>
        <time>2021-08-25T14:04:14Z</time>
      </trkpt>
      <trkpt lat="47.98403" lon="6.93642">
        <ele>1024</ele>
        <time>2021-08-25T14:04:47Z</time>
      </trkpt>
      <trkpt lat="47.98495" lon="6.93573">
        <ele>1033</ele>
        <time>2021-08-25T14:06:10Z</time>
      </trkpt>
      <trkpt lat="47.98591" lon="6.93461">
        <ele>1044</ele>
        <time>2021-08-25T14:07:47Z</time>
      </trkpt>
      <trkpt lat="47.98642" lon="6.93272">
        <ele>1049</ele>
        <time>2021-08-25T14:09:36Z</time>
      </trkpt>
      <trkpt lat="47.98654" lon="6.93204">
        <ele>1056</ele>
        <time>2021-08-25T14:10:14Z</time>
      </trkpt>
      <trkpt lat="47.9863" lon="6.93102">
        <ele>1056</ele>
        <time>2021-08-25T14:11:12Z</time>
      </trkpt>
      <trkpt lat="47.98608" lon="6.93026">
        <ele>1053</ele>
        <time>2021-08-25T14:11:56Z</time>
      </trkpt>
      <trkpt lat="47.98615" lon="6.92967">
        <ele>1055</ele>
        <time>2021-08-25T14:12:28Z</time>
      </trkpt>
      <trkpt lat="47.98649" lon="6.92905">
        <ele>1058</ele>
        <time>2021-08-25T14:13:11Z</time>
      </trkpt>
      <trkpt lat="47.98725" lon="6.92858">
        <ele>1060</ele>
        <time>2021-08-25T14:14:17Z</time>
      </trkpt>
      <trkpt lat="47.9881" lon="6.92837">
        <ele>1061</ele>
        <time>2021-08-25T14:15:26Z</time>
      </trkpt>
      <trkpt lat="47.98899" lon="6.92825">
        <ele>1064</ele>
        <time>2021-08-25T14:16:38Z</time>
      </trkpt>
      <trkpt lat="47.98966" lon="6.92802">
        <ele>1067</ele>
        <time>2021-08-25T14:17:33Z</time>
      </trkpt>
      <trkpt lat="47.99009" lon="6.92752">
        <ele>1067</ele>
        <time>2021-08-25T14:18:16Z</time>
      </trkpt>
      <trkpt lat="47.99045" lon="6.92721">
        <ele>1068</ele>
        <time>2021-08-25T14:18:50Z</time>
      </trkpt>
      <trkpt lat="47.99076" lon="6.92775">
        <ele>1070</ele>
        <time>2021-08-25T14:19:28Z</time>
      </trkpt>
      <trkpt lat="47.99078" lon="6.92908">
        <ele>1075</ele>
        <time>2021-08-25T14:20:39Z</time>
      </trkpt>
      <trkpt lat="47.99085" lon="6.92934">
        <ele>1074</ele>
        <time>2021-08-25T14:20:54Z</time>
      </trkpt>
      <trkpt lat="47.99068" lon="6.92974">
        <ele>1076</ele>
        <time>2021-08-25T14:21:20Z</time>
      </trkpt>
      <trkpt lat="47.9905" lon="6.93027">
        <ele>1080</ele>
        <time>2021-08-25T14:21:51Z</time>
      </trkpt>
      <trkpt lat="47.99042" lon="6.93034">
        <ele>1082</ele>
        <time>2021-08-25T14:21:59Z</time>
      </trkpt>
      <trkpt lat="47.9903" lon="6.93174">
        <ele>1094</ele>
        <time>2021-08-25T14:23:14Z</time>
      </trkpt>
      <trkpt lat="47.99019" lon="6.93233">
        <ele>1105</ele>
        <time>2021-08-25T14:23:47Z</time>
      </trkpt>
      <trkpt lat="47.9902" lon="6.9326">
        <ele>1107</ele>
        <time>2021-08-25T14:24:02Z</time>
      </trkpt>
      <trkpt lat="47.99016" lon="6.93306">
        <ele>1113</ele>
        <time>2021-08-25T14:24:27Z</time>
      </trkpt>
      <trkpt lat="47.99018" lon="6.93393">
        <ele>1118</ele>
        <time>2021-08-25T14:25:13Z</time>
      </trkpt>
      <trkpt lat="47.99029" lon="6.93412">
        <ele>1114</ele>
        <time>2021-08-25T14:25:27Z</time>
      </trkpt>
      <trkpt lat="47.99041" lon="6.93514">
        <ele>1112</ele>
        <time>2021-08-25T14:26:22Z</time>
      </trkpt>
      <trkpt lat="47.99074" lon="6.93642">
        <ele>1119</ele>
        <time>2021-08-25T14:27:36Z</time>
      </trkpt>
      <trkpt lat="47.991" lon="6.93702">
        <ele>1124</ele>
        <time>2021-08-25T14:28:14Z</time>
      </trkpt>
      <trkpt lat="47.99144" lon="6.93788">
        <ele>1133</ele>
        <time>2021-08-25T14:29:12Z</time>
      </trkpt>
      <trkpt lat="47.99225" lon="6.93835">
        <ele>1122</ele>
        <time>2021-08-25T14:30:22Z</time>
      </trkpt>
      <trkpt lat="47.99306" lon="6.93903">
        <ele>1113</ele>
        <time>2021-08-25T14:31:36Z</time>
      </trkpt>
      <trkpt lat="47.99577" lon="6.94057">
        <ele>1068</ele>
        <time>2021-08-25T14:35:28Z</time>
      </trkpt>
      <trkpt lat="47.99618" lon="6.94055">
        <ele>1060</ele>
        <time>2021-08-25T14:36:01Z</time>
      </trkpt>
      <trkpt lat="47.99699" lon="6.94089">
        <ele>1051</ele>
        <time>2021-08-25T14:37:08Z</time>
      </trkpt>
      <trkpt lat="47.99711" lon="6.94071">
        <ele>1047</ele>
        <time>2021-08-25T14:37:22Z</time>
      </trkpt>
      <trkpt lat="47.99777" lon="6.94076">
        <ele>1038</ele>
        <time>2021-08-25T14:38:15Z</time>
      </trkpt>
      <trkpt lat="47.99856" lon="6.94093">
        <ele>1026</ele>
        <time>2021-08-25T14:39:19Z</time>
      </trkpt>
      <trkpt lat="47.99926" lon="6.94125">
        <ele>1013</ele>
        <time>2021-08-25T14:40:17Z</time>
      </trkpt>
      <trkpt lat="48.00012" lon="6.94201">
        <ele>989</ele>
        <time>2021-08-25T14:41:37Z</time>
      </trkpt>
      <trkpt lat="48.0004" lon="6.94261">
        <ele>981</ele>
        <time>2021-08-25T14:42:17Z</time>
      </trkpt>
      <trkpt lat="48.00041" lon="6.94324">
        <ele>979</ele>
        <time>2021-08-25T14:42:50Z</time>
      </trkpt>
      <trkpt lat="48.00023" lon="6.94393">
        <ele>980</ele>
        <time>2021-08-25T14:43:30Z</time>
      </trkpt>
      <trkpt lat="48.00021" lon="6.94418">
        <ele>977</ele>
        <time>2021-08-25T14:43:44Z</time>
      </trkpt>
      <trkpt lat="48.00053" lon="6.94445">
        <ele>968</ele>
        <time>2021-08-25T14:44:13Z</time>
      </trkpt>
      <trkpt lat="48.00047" lon="6.94545">
        <ele>970</ele>
        <time>2021-08-25T14:45:07Z</time>
      </trkpt>
      <trkpt lat="48.00023" lon="6.94562">
        <ele>971</ele>
        <time>2021-08-25T14:45:28Z</time>
      </trkpt>
      <trkpt lat="48.00023" lon="6.94595">
        <ele>972</ele>
        <time>2021-08-25T14:45:46Z</time>
      </trkpt>
      <trkpt lat="47.99981" lon="6.94635">
        <ele>971</ele>
        <time>2021-08-25T14:46:26Z</time>
      </trkpt>
      <trkpt lat="47.99984" lon="6.94714">
        <ele>978</ele>
        <time>2021-08-25T14:47:08Z</time>
      </trkpt>
      <trkpt lat="47.99952" lon="6.94934">
        <ele>993</ele>
        <time>2021-08-25T14:49:09Z</time>
      </trkpt>
      <trkpt lat="47.99957" lon="6.94954">
        <ele>999</ele>
        <time>2021-08-25T14:49:20Z</time>
      </trkpt>
      <trkpt lat="47.99977" lon="6.94916">
        <ele>1004</ele>
        <time>2021-08-25T14:49:46Z</time>
      </trkpt>
      <trkpt lat="47.99975" lon="6.94941">
        <ele>1007</ele>
        <time>2021-08-25T14:49:59Z</time>
      </trkpt>
      <trkpt lat="47.99984" lon="6.95083">
        <ele>1024</ele>
        <time>2021-08-25T14:51:16Z</time>
      </trkpt>
      <trkpt lat="47.99994" lon="6.95186">
        <ele>1036</ele>
        <time>2021-08-25T14:52:12Z</time>
      </trkpt>
      <trkpt lat="48.00007" lon="6.95276">
        <ele>1050</ele>
        <time>2021-08-25T14:53:01Z</time>
      </trkpt>
      <trkpt lat="48.00012" lon="6.95328">
        <ele>1053</ele>
        <time>2021-08-25T14:53:29Z</time>
      </trkpt>
      <trkpt lat="48.00012" lon="6.95397">
        <ele>1056</ele>
        <time>2021-08-25T14:54:06Z</time>
      </trkpt>
      <trkpt lat="48.00017" lon="6.95449">
        <ele>1058</ele>
        <time>2021-08-25T14:54:34Z</time>
      </trkpt>
      <trkpt lat="48.00019" lon="6.9552">
        <ele>1057</ele>
        <time>2021-08-25T14:55:12Z</time>
      </trkpt>
      <trkpt lat="48.00033" lon="6.95573">
        <ele>1062</ele>
        <time>2021-08-25T14:55:43Z</time>
      </trkpt>
      <trkpt lat="48.00058" lon="6.95622">
        <ele>1078</ele>
        <time>2021-08-25T14:56:16Z</time>
      </trkpt>
      <trkpt lat="48.0006" lon="6.95642">
        <ele>1081</ele>
        <time>2021-08-25T14:56:27Z</time>
      </trkpt>
      <trkpt lat="48.00015" lon="6.95746">
        <ele>1085</ele>
        <time>2021-08-25T14:57:33Z</time>
      </trkpt>
      <trkpt lat="47.99994" lon="6.95767">
        <ele>1083</ele>
        <time>2021-08-25T14:57:53Z</time>
      </trkpt>
      <trkpt lat="47.99964" lon="6.95825">
        <ele>1092</ele>
        <time>2021-08-25T14:58:32Z</time>
      </trkpt>
      <trkpt lat="47.99954" lon="6.95861">
        <ele>1102</ele>
        <time>2021-08-25T14:58:53Z</time>
      </trkpt>
      <trkpt lat="47.99916" lon="6.95889">
        <ele>1100</ele>
        <time>2021-08-25T14:59:27Z</time>
      </trkpt>
      <trkpt lat="47.99881" lon="6.95931">
        <ele>1098</ele>
        <time>2021-08-25T15:00:03Z</time>
      </trkpt>
      <trkpt lat="47.99872" lon="6.95979">
        <ele>1108</ele>
        <time>2021-08-25T15:00:30Z</time>
      </trkpt>
      <trkpt lat="47.99789" lon="6.96085">
        <ele>1088</ele>
        <time>2021-08-25T15:01:57Z</time>
      </trkpt>
      <trkpt lat="47.99766" lon="6.96124">
        <ele>1078</ele>
        <time>2021-08-25T15:02:25Z</time>
      </trkpt>
      <trkpt lat="47.9976" lon="6.96161">
        <ele>1079</ele>
        <time>2021-08-25T15:02:46Z</time>
      </trkpt>
      <trkpt lat="47.99758" lon="6.96204">
        <ele>1078</ele>
        <time>2021-08-25T15:03:09Z</time>
      </trkpt>
      <trkpt lat="47.99761" lon="6.96237">
        <ele>1079</ele>
        <time>2021-08-25T15:03:27Z</time>
      </trkpt>
      <trkpt lat="47.99802" lon="6.9629">
        <ele>1072</ele>
        <time>2021-08-25T15:04:10Z</time>
      </trkpt>
      <trkpt lat="47.99857" lon="6.96312">
        <ele>1075</ele>
        <time>2021-08-25T15:04:56Z</time>
      </trkpt>
      <trkpt lat="47.99904" lon="6.96343">
        <ele>1071</ele>
        <time>2021-08-25T15:05:37Z</time>
      </trkpt>
      <trkpt lat="47.99951" lon="6.96364">
        <ele>1072</ele>
        <time>2021-08-25T15:06:16Z</time>
      </trkpt>
      <trkpt lat="47.99992" lon="6.96404">
        <ele>1063</ele>
        <time>2021-08-25T15:06:55Z</time>
      </trkpt>
      <trkpt lat="48.00038" lon="6.96429">
        <ele>1059</ele>
        <time>2021-08-25T15:07:34Z</time>
      </trkpt>
      <trkpt lat="48.00086" lon="6.96437">
        <ele>1062</ele>
        <time>2021-08-25T15:08:13Z</time>
      </trkpt>
      <trkpt lat="48.00139" lon="6.96427">
        <ele>1069</ele>
        <time>2021-08-25T15:08:56Z</time>
      </trkpt>
      <trkpt lat="48.00185" lon="6.96432">
        <ele>1066</ele>
        <time>2021-08-25T15:09:33Z</time>
      </trkpt>
      <trkpt lat="48.00209" lon="6.96447">
        <ele>1059</ele>
        <time>2021-08-25T15:09:54Z</time>
      </trkpt>
      <trkpt lat="48.00232" lon="6.96457">
        <ele>1056</ele>
        <time>2021-08-25T15:10:13Z</time>
      </trkpt>
      <trkpt lat="48.00256" lon="6.96485">
        <ele>1052</ele>
        <time>2021-08-25T15:10:37Z</time>
      </trkpt>
      <trkpt lat="48.00282" lon="6.96521">
        <ele>1043</ele>
        <time>2021-08-25T15:11:05Z</time>
      </trkpt>
      <trkpt lat="48.003" lon="6.9654">
        <ele>1039</ele>
        <time>2021-08-25T15:11:23Z</time>
      </trkpt>
      <trkpt lat="48.00318" lon="6.96593">
        <ele>1036</ele>
        <time>2021-08-25T15:11:55Z</time>
      </trkpt>
      <trkpt lat="48.00348" lon="6.96616">
        <ele>1030</ele>
        <time>2021-08-25T15:12:22Z</time>
      </trkpt>
      <trkpt lat="48.00377" lon="6.96686">
        <ele>1024</ele>
        <time>2021-08-25T15:13:06Z</time>
      </trkpt>
      <trkpt lat="48.00387" lon="6.96693">
        <ele>1024</ele>
        <time>2021-08-25T15:13:15Z</time>
      </trkpt>
      <trkpt lat="48.00394" lon="6.96736">
        <ele>1026</ele>
        <time>2021-08-25T15:13:39Z</time>
      </trkpt>
      <trkpt lat="48.00411" lon="6.96767">
        <ele>1029</ele>
        <time>2021-08-25T15:14:00Z</time>
      </trkpt>
      <trkpt lat="48.00433" lon="6.96786">
        <ele>1033</ele>
        <time>2021-08-25T15:14:20Z</time>
      </trkpt>
      <trkpt lat="48.00443" lon="6.96814">
        <ele>1037</ele>
        <time>2021-08-25T15:14:37Z</time>
      </trkpt>
      <trkpt lat="48.00457" lon="6.9683">
        <ele>1043</ele>
        <time>2021-08-25T15:14:52Z</time>
      </trkpt>
      <trkpt lat="48.00469" lon="6.96819">
        <ele>1046</ele>
        <time>2021-08-25T15:15:03Z</time>
      </trkpt>
      <trkpt lat="48.00476" lon="6.96854">
        <ele>1051</ele>
        <time>2021-08-25T15:15:22Z</time>
      </trkpt>
      <trkpt lat="48.00485" lon="6.96846">
        <ele>1054</ele>
        <time>2021-08-25T15:15:31Z</time>
      </trkpt>
      <trkpt lat="48.00496" lon="6.96893">
        <ele>1061</ele>
        <time>2021-08-25T15:15:57Z</time>
      </trkpt>
      <trkpt lat="48.0051" lon="6.96919">
        <ele>1070</ele>
        <time>2021-08-25T15:16:15Z</time>
      </trkpt>
      <trkpt lat="48.00516" lon="6.96899">
        <ele>1071</ele>
        <time>2021-08-25T15:16:27Z</time>
      </trkpt>
      <trkpt lat="48.00527" lon="6.96946">
        <ele>1082</ele>
        <time>2021-08-25T15:16:54Z</time>
      </trkpt>
      <trkpt lat="48.00533" lon="6.9692">
        <ele>1082</ele>
        <time>2021-08-25T15:17:08Z</time>
      </trkpt>
      <trkpt lat="48.00545" lon="6.96926">
        <ele>1089</ele>
        <time>2021-08-25T15:17:19Z</time>
      </trkpt>
      <trkpt lat="48.00555" lon="6.96909">
        <ele>1093</ele>
        <time>2021-08-25T15:17:31Z</time>
      </trkpt>
      <trkpt lat="48.00558" lon="6.96934">
        <ele>1097</ele>
        <time>2021-08-25T15:17:44Z</time>
      </trkpt>
      <trkpt lat="48.00574" lon="6.96907">
        <ele>1102</ele>
        <time>2021-08-25T15:18:04Z</time>
      </trkpt>
      <trkpt lat="48.00577" lon="6.9692">
        <ele>1106</ele>
        <time>2021-08-25T15:18:11Z</time>
      </trkpt>
      <trkpt lat="48.00574" lon="6.96923">
        <ele>1105</ele>
        <time>2021-08-25T15:18:14Z</time>
      </trkpt>
      <trkpt lat="48.00578" lon="6.96951">
        <ele>1111</ele>
        <time>2021-08-25T15:18:29Z</time>
      </trkpt>
      <trkpt lat="48.00608" lon="6.96881">
        <ele>1108</ele>
        <time>2021-08-25T15:19:14Z</time>
      </trkpt>
      <trkpt lat="48.00624" lon="6.96896">
        <ele>1113</ele>
        <time>2021-08-25T15:19:29Z</time>
      </trkpt>
      <trkpt lat="48.00639" lon="6.96956">
        <ele>1125</ele>
        <time>2021-08-25T15:20:03Z</time>
      </trkpt>
      <trkpt lat="48.00644" lon="6.96967">
        <ele>1127</ele>
        <time>2021-08-25T15:20:10Z</time>
      </trkpt>
      <trkpt lat="48.00648" lon="6.96997">
        <ele>1131</ele>
        <time>2021-08-25T15:20:27Z</time>
      </trkpt>
      <trkpt lat="48.00645" lon="6.97024">
        <ele>1133</ele>
        <time>2021-08-25T15:20:41Z</time>
      </trkpt>
      <trkpt lat="48.00659" lon="6.97043">
        <ele>1137</ele>
        <time>2021-08-25T15:20:57Z</time>
      </trkpt>
      <trkpt lat="48.00702" lon="6.97115">
        <ele>1146</ele>
        <time>2021-08-25T15:21:48Z</time>
      </trkpt>
      <trkpt lat="48.00739" lon="6.97165">
        <ele>1154</ele>
        <time>2021-08-25T15:22:28Z</time>
      </trkpt>
      <trkpt lat="48.00798" lon="6.97298">
        <ele>1175</ele>
        <time>2021-08-25T15:23:54Z</time>
      </trkpt>
      <trkpt lat="48.00929" lon="6.97539">
        <ele>1222</ele>
        <time>2021-08-25T15:26:40Z</time>
      </trkpt>
      <trkpt lat="48.00925" lon="6.97607">
        <ele>1228</ele>
        <time>2021-08-25T15:27:17Z</time>
      </trkpt>
      <trkpt lat="48.0087" lon="6.97594">
        <ele>1226</ele>
        <time>2021-08-25T15:28:01Z</time>
      </trkpt>
      <trkpt lat="48.00831" lon="6.97626">
        <ele>1228</ele>
        <time>2021-08-25T15:28:37Z</time>
      </trkpt>
      <trkpt lat="48.00742" lon="6.97784">
        <ele>1221</ele>
        <time>2021-08-25T15:30:27Z</time>
      </trkpt>
      <trkpt lat="48.00691" lon="6.97898">
        <ele>1219</ele>
        <time>2021-08-25T15:31:41Z</time>
      </trkpt>
      <trkpt lat="48.00665" lon="6.97916">
        <ele>1213</ele>
        <time>2021-08-25T15:32:04Z</time>
      </trkpt>
      <trkpt lat="48.00597" lon="6.97974">
        <ele>1206</ele>
        <time>2021-08-25T15:33:06Z</time>
      </trkpt>
      <trkpt lat="48.00548" lon="6.98007">
        <ele>1205</ele>
        <time>2021-08-25T15:33:50Z</time>
      </trkpt>
      <trkpt lat="48.00483" lon="6.97988">
        <ele>1207</ele>
        <time>2021-08-25T15:34:43Z</time>
      </trkpt>
      <trkpt lat="48.00417" lon="6.97999">
        <ele>1215</ele>
        <time>2021-08-25T15:35:36Z</time>
      </trkpt>
      <trkpt lat="48.00315" lon="6.97801">
        <ele>1224</ele>
        <time>2021-08-25T15:37:50Z</time>
      </trkpt>
      <trkpt lat="48.00277" lon="6.97756">
        <ele>1227</ele>
        <time>2021-08-25T15:38:28Z</time>
      </trkpt>
      <trkpt lat="48.00151" lon="6.97737">
        <ele>1245</ele>
        <time>2021-08-25T15:40:10Z</time>
      </trkpt>
      <trkpt lat="48.00055" lon="6.97719">
        <ele>1253</ele>
        <time>2021-08-25T15:41:27Z</time>
      </trkpt>
      <trkpt lat="48.00026" lon="6.97708">
        <ele>1254</ele>
        <time>2021-08-25T15:41:51Z</time>
      </trkpt>
      <trkpt lat="47.99953" lon="6.97673">
        <ele>1251</ele>
        <time>2021-08-25T15:42:53Z</time>
      </trkpt>
      <trkpt lat="47.9992" lon="6.9767">
        <ele>1252</ele>
        <time>2021-08-25T15:43:19Z</time>
      </trkpt>
      <trkpt lat="47.99886" lon="6.97701">
        <ele>1253</ele>
        <time>2021-08-25T15:43:51Z</time>
      </trkpt>
      <trkpt lat="47.9985" lon="6.97747">
        <ele>1256</ele>
        <time>2021-08-25T15:44:29Z</time>
      </trkpt>
      <trkpt lat="47.99793" lon="6.97813">
        <ele>1255</ele>
        <time>2021-08-25T15:45:27Z</time>
      </trkpt>
      <trkpt lat="47.99756" lon="6.97844">
        <ele>1256</ele>
        <time>2021-08-25T15:46:01Z</time>
      </trkpt>
      <trkpt lat="47.99697" lon="6.97852">
        <ele>1253</ele>
        <time>2021-08-25T15:46:48Z</time>
      </trkpt>
      <trkpt lat="47.99573" lon="6.97863">
        <ele>1254</ele>
        <time>2021-08-25T15:48:27Z</time>
      </trkpt>
      <trkpt lat="47.99492" lon="6.97844">
        <ele>1250</ele>
        <time>2021-08-25T15:49:33Z</time>
      </trkpt>
      <trkpt lat="47.99407" lon="6.97845">
        <ele>1248</ele>
        <time>2021-08-25T15:50:41Z</time>
      </trkpt>
      <trkpt lat="47.99354" lon="6.97858">
        <ele>1247</ele>
        <time>2021-08-25T15:51:24Z</time>
      </trkpt>
      <trkpt lat="47.99287" lon="6.97884">
        <ele>1246</ele>
        <time>2021-08-25T15:52:20Z</time>
      </trkpt>
      <trkpt lat="47.99223" lon="6.97916">
        <ele>1245</ele>
        <time>2021-08-25T15:53:14Z</time>
      </trkpt>
      <trkpt lat="47.99169" lon="6.9795">
        <ele>1243</ele>
        <time>2021-08-25T15:54:01Z</time>
      </trkpt>
      <trkpt lat="47.99065" lon="6.98023">
        <ele>1242</ele>
        <time>2021-08-25T15:55:33Z</time>
      </trkpt>
      <trkpt lat="47.98948" lon="6.98014">
        <ele>1239</ele>
        <time>2021-08-25T15:57:06Z</time>
      </trkpt>
      <trkpt lat="47.98915" lon="6.98005">
        <ele>1239</ele>
        <time>2021-08-25T15:57:33Z</time>
      </trkpt>
      <trkpt lat="47.98872" lon="6.98004">
        <ele>1239</ele>
        <time>2021-08-25T15:58:08Z</time>
      </trkpt>
      <trkpt lat="47.98847" lon="6.97992">
        <ele>1238</ele>
        <time>2021-08-25T15:58:29Z</time>
      </trkpt>
      <trkpt lat="47.98819" lon="6.97974">
        <ele>1235</ele>
        <time>2021-08-25T15:58:53Z</time>
      </trkpt>
      <trkpt lat="47.98737" lon="6.97973">
        <ele>1232</ele>
        <time>2021-08-25T15:59:59Z</time>
      </trkpt>
      <trkpt lat="47.9871" lon="6.98007">
        <ele>1234</ele>
        <time>2021-08-25T16:00:27Z</time>
      </trkpt>
      <trkpt lat="47.98679" lon="6.98">
        <ele>1233</ele>
        <time>2021-08-25T16:00:52Z</time>
      </trkpt>
      <trkpt lat="47.98546" lon="6.98035">
        <ele>1221</ele>
        <time>2021-08-25T16:02:40Z</time>
      </trkpt>
      <trkpt lat="47.98502" lon="6.98088">
        <ele>1218</ele>
        <time>2021-08-25T16:03:26Z</time>
      </trkpt>
      <trkpt lat="47.98454" lon="6.98159">
        <ele>1213</ele>
        <time>2021-08-25T16:04:20Z</time>
      </trkpt>
      <trkpt lat="47.98408" lon="6.98209">
        <ele>1214</ele>
        <time>2021-08-25T16:05:05Z</time>
      </trkpt>
      <trkpt lat="47.98391" lon="6.98218">
        <ele>1215</ele>
        <time>2021-08-25T16:05:20Z</time>
      </trkpt>
      <trkpt lat="47.98372" lon="6.98273">
        <ele>1215</ele>
        <time>2021-08-25T16:05:53Z</time>
      </trkpt>
      <trkpt lat="47.98322" lon="6.98285">
        <ele>1217</ele>
        <time>2021-08-25T16:06:33Z</time>
      </trkpt>
      <trkpt lat="47.98277" lon="6.98336">
        <ele>1214</ele>
        <time>2021-08-25T16:07:19Z</time>
      </trkpt>
      <trkpt lat="47.98218" lon="6.98368">
        <ele>1208</ele>
        <time>2021-08-25T16:08:09Z</time>
      </trkpt>
      <trkpt lat="47.98102" lon="6.98408">
        <ele>1195</ele>
        <time>2021-08-25T16:09:44Z</time>
      </trkpt>
      <trkpt lat="47.97976" lon="6.98485">
        <ele>1186</ele>
        <time>2021-08-25T16:11:33Z</time>
      </trkpt>
      <trkpt lat="47.97957" lon="6.98508">
        <ele>1186</ele>
        <time>2021-08-25T16:11:53Z</time>
      </trkpt>
      <trkpt lat="47.97919" lon="6.98536">
        <ele>1188</ele>
        <time>2021-08-25T16:12:27Z</time>
      </trkpt>
      <trkpt lat="47.97882" lon="6.98556">
        <ele>1193</ele>
        <time>2021-08-25T16:12:58Z</time>
      </trkpt>
      <trkpt lat="47.97873" lon="6.98534">
        <ele>1193</ele>
        <time>2021-08-25T16:13:12Z</time>
      </trkpt>
      <trkpt lat="47.97824" lon="6.98517">
        <ele>1198</ele>
        <time>2021-08-25T16:13:52Z</time>
      </trkpt>
      <trkpt lat="47.97785" lon="6.98525">
        <ele>1200</ele>
        <time>2021-08-25T16:14:24Z</time>
      </trkpt>
      <trkpt lat="47.97727" lon="6.98546">
        <ele>1203</ele>
        <time>2021-08-25T16:15:12Z</time>
      </trkpt>
      <trkpt lat="47.97647" lon="6.98567">
        <ele>1203</ele>
        <time>2021-08-25T16:16:17Z</time>
      </trkpt>
      <trkpt lat="47.97589" lon="6.98629">
        <ele>1210</ele>
        <time>2021-08-25T16:17:14Z</time>
      </trkpt>
      <trkpt lat="47.97532" lon="6.98735">
        <ele>1221</ele>
        <time>2021-08-25T16:18:27Z</time>
      </trkpt>
      <trkpt lat="47.97442" lon="6.9883">
        <ele>1228</ele>
        <time>2021-08-25T16:19:55Z</time>
      </trkpt>
      <trkpt lat="47.97389" lon="6.98895">
        <ele>1233</ele>
        <time>2021-08-25T16:20:50Z</time>
      </trkpt>
      <trkpt lat="47.97204" lon="6.99013">
        <ele>1234</ele>
        <time>2021-08-25T16:23:31Z</time>
      </trkpt>
      <trkpt lat="47.97144" lon="6.99045">
        <ele>1232</ele>
        <time>2021-08-25T16:24:22Z</time>
      </trkpt>
      <trkpt lat="47.97115" lon="6.9905">
        <ele>1230</ele>
        <time>2021-08-25T16:24:45Z</time>
      </trkpt>
      <trkpt lat="47.97075" lon="6.99077">
        <ele>1232</ele>
        <time>2021-08-25T16:25:20Z</time>
      </trkpt>
      <trkpt lat="47.97011" lon="6.9909">
        <ele>1228</ele>
        <time>2021-08-25T16:26:12Z</time>
      </trkpt>
      <trkpt lat="47.96946" lon="6.99137">
        <ele>1229</ele>
        <time>2021-08-25T16:27:10Z</time>
      </trkpt>
      <trkpt lat="47.96897" lon="6.99154">
        <ele>1226</ele>
        <time>2021-08-25T16:27:50Z</time>
      </trkpt>
      <trkpt lat="47.9685" lon="6.99207">
        <ele>1222</ele>
        <time>2021-08-25T16:28:37Z</time>
      </trkpt>
      <trkpt lat="47.96845" lon="6.99266">
        <ele>1221</ele>
        <time>2021-08-25T16:29:09Z</time>
      </trkpt>
      <trkpt lat="47.96847" lon="6.99326">
        <ele>1216</ele>
        <time>2021-08-25T16:29:41Z</time>
      </trkpt>
      <trkpt lat="47.96842" lon="6.99372">
        <ele>1210</ele>
        <time>2021-08-25T16:30:06Z</time>
      </trkpt>
      <trkpt lat="47.96814" lon="6.99408">
        <ele>1201</ele>
        <time>2021-08-25T16:30:36Z</time>
      </trkpt>
      <trkpt lat="47.96724" lon="6.99503">
        <ele>1191</ele>
        <time>2021-08-25T16:32:04Z</time>
      </trkpt>
      <trkpt lat="47.96715" lon="6.995">
        <ele>1190</ele>
        <time>2021-08-25T16:32:12Z</time>
      </trkpt>
      <trkpt lat="47.96696" lon="6.99511">
        <ele>1189</ele>
        <time>2021-08-25T16:32:28Z</time>
      </trkpt>
      <trkpt lat="47.96635" lon="6.99593">
        <ele>1195</ele>
        <time>2021-08-25T16:33:34Z</time>
      </trkpt>
      <trkpt lat="47.96603" lon="6.99624">
        <ele>1197</ele>
        <time>2021-08-25T16:34:04Z</time>
      </trkpt>
      <trkpt lat="47.96589" lon="6.99626">
        <ele>1197</ele>
        <time>2021-08-25T16:34:15Z</time>
      </trkpt>
      <trkpt lat="47.96553" lon="6.9966">
        <ele>1200</ele>
        <time>2021-08-25T16:34:49Z</time>
      </trkpt>
      <trkpt lat="47.96517" lon="6.99689">
        <ele>1203</ele>
        <time>2021-08-25T16:35:22Z</time>
      </trkpt>
      <trkpt lat="47.96396" lon="6.99743">
        <ele>1214</ele>
        <time>2021-08-25T16:37:03Z</time>
      </trkpt>
      <trkpt lat="47.96364" lon="6.9975">
        <ele>1215</ele>
        <time>2021-08-25T16:37:29Z</time>
      </trkpt>
      <trkpt lat="47.96335" lon="6.99769">
        <ele>1216</ele>
        <time>2021-08-25T16:37:55Z</time>
      </trkpt>
      <trkpt lat="47.96303" lon="6.9978">
        <ele>1214</ele>
        <time>2021-08-25T16:38:21Z</time>
      </trkpt>
      <trkpt lat="47.96265" lon="6.99814">
        <ele>1214</ele>
        <time>2021-08-25T16:38:56Z</time>
      </trkpt>
      <trkpt lat="47.96239" lon="6.99862">
        <ele>1215</ele>
        <time>2021-08-25T16:39:29Z</time>
      </trkpt>
      <trkpt lat="47.9621" lon="6.99949">
        <ele>1213</ele>
        <time>2021-08-25T16:40:22Z</time>
      </trkpt>
      <trkpt lat="47.96199" lon="7.00059">
        <ele>1216</ele>
        <time>2021-08-25T16:41:21Z</time>
      </trkpt>
      <trkpt lat="47.96187" lon="7.00105">
        <ele>1217</ele>
        <time>2021-08-25T16:41:48Z</time>
      </trkpt>
      <trkpt lat="47.96169" lon="7.00151">
        <ele>1219</ele>
        <time>2021-08-25T16:42:16Z</time>
      </trkpt>
      <trkpt lat="47.96154" lon="7.00174">
        <ele>1218</ele>
        <time>2021-08-25T16:42:33Z</time>
      </trkpt>
      <trkpt lat="47.96145" lon="7.002">
        <ele>1219</ele>
        <time>2021-08-25T16:42:49Z</time>
      </trkpt>
      <trkpt lat="47.961" lon="7.00251">
        <ele>1216</ele>
        <time>2021-08-25T16:43:34Z</time>
      </trkpt>
      <trkpt lat="47.9607" lon="7.00289">
        <ele>1215</ele>
        <time>2021-08-25T16:44:06Z</time>
      </trkpt>
      <trkpt lat="47.96009" lon="7.00383">
        <ele>1209</ele>
        <time>2021-08-25T16:45:16Z</time>
      </trkpt>
      <trkpt lat="47.95972" lon="7.00447">
        <ele>1205</ele>
        <time>2021-08-25T16:46:01Z</time>
      </trkpt>
      <trkpt lat="47.95944" lon="7.00476">
        <ele>1204</ele>
        <time>2021-08-25T16:46:29Z</time>
      </trkpt>
      <trkpt lat="47.95853" lon="7.0048">
        <ele>1202</ele>
        <time>2021-08-25T16:47:42Z</time>
      </trkpt>
      <trkpt lat="47.95829" lon="7.00485">
        <ele>1202</ele>
        <time>2021-08-25T16:48:01Z</time>
      </trkpt>
      <trkpt lat="47.95795" lon="7.00513">
        <ele>1202</ele>
        <time>2021-08-25T16:48:32Z</time>
      </trkpt>
      <trkpt lat="47.95685" lon="7.00592">
        <ele>1201</ele>
        <time>2021-08-25T16:50:10Z</time>
      </trkpt>
      <trkpt lat="47.95634" lon="7.00619">
        <ele>1202</ele>
        <time>2021-08-25T16:50:53Z</time>
      </trkpt>
      <trkpt lat="47.95603" lon="7.00627">
        <ele>1202</ele>
        <time>2021-08-25T16:51:18Z</time>
      </trkpt>
      <trkpt lat="47.9558" lon="7.00639">
        <ele>1202</ele>
        <time>2021-08-25T16:51:38Z</time>
      </trkpt>
      <trkpt lat="47.95552" lon="7.00673">
        <ele>1199</ele>
        <time>2021-08-25T16:52:07Z</time>
      </trkpt>
      <trkpt lat="47.95529" lon="7.0075">
        <ele>1200</ele>
        <time>2021-08-25T16:52:52Z</time>
      </trkpt>
      <trkpt lat="47.95516" lon="7.00818">
        <ele>1201</ele>
        <time>2021-08-25T16:53:30Z</time>
      </trkpt>
      <trkpt lat="47.95503" lon="7.00925">
        <ele>1202</ele>
        <time>2021-08-25T16:54:28Z</time>
      </trkpt>
      <trkpt lat="47.9548" lon="7.01036">
        <ele>1192</ele>
        <time>2021-08-25T16:55:30Z</time>
      </trkpt>
      <trkpt lat="47.95459" lon="7.01159">
        <ele>1188</ele>
        <time>2021-08-25T16:56:38Z</time>
      </trkpt>
      <trkpt lat="47.95441" lon="7.01231">
        <ele>1184</ele>
        <time>2021-08-25T16:57:20Z</time>
      </trkpt>
      <trkpt lat="47.95419" lon="7.01302">
        <ele>1179</ele>
        <time>2021-08-25T16:58:02Z</time>
      </trkpt>
      <trkpt lat="47.95391" lon="7.01407">
        <ele>1177</ele>
        <time>2021-08-25T16:59:02Z</time>
      </trkpt>
      <trkpt lat="47.95378" lon="7.0147">
        <ele>1176</ele>
        <time>2021-08-25T16:59:38Z</time>
      </trkpt>
      <trkpt lat="47.95374" lon="7.01503">
        <ele>1176</ele>
        <time>2021-08-25T16:59:56Z</time>
      </trkpt>
      <trkpt lat="47.95348" lon="7.01597">
        <ele>1175</ele>
        <time>2021-08-25T17:00:50Z</time>
      </trkpt>
      <trkpt lat="47.9534" lon="7.01663">
        <ele>1177</ele>
        <time>2021-08-25T17:01:26Z</time>
      </trkpt>
      <trkpt lat="47.95276" lon="7.01828">
        <ele>1168</ele>
        <time>2021-08-25T17:03:08Z</time>
      </trkpt>
      <trkpt lat="47.95249" lon="7.01876">
        <ele>1176</ele>
        <time>2021-08-25T17:03:42Z</time>
      </trkpt>
      <trkpt lat="47.95232" lon="7.01894">
        <ele>1176</ele>
        <time>2021-08-25T17:03:59Z</time>
      </trkpt>
      <trkpt lat="47.95192" lon="7.01924">
        <ele>1179</ele>
        <time>2021-08-25T17:04:34Z</time>
      </trkpt>
      <trkpt lat="47.95197" lon="7.01952">
        <ele>1181</ele>
        <time>2021-08-25T17:04:50Z</time>
      </trkpt>
      <trkpt lat="47.95172" lon="7.01997">
        <ele>1187</ele>
        <time>2021-08-25T17:05:21Z</time>
      </trkpt>
      <trkpt lat="47.95113" lon="7.01974">
        <ele>1188</ele>
        <time>2021-08-25T17:06:10Z</time>
      </trkpt>
      <trkpt lat="47.94954" lon="7.02031">
        <ele>1205</ele>
        <time>2021-08-25T17:08:21Z</time>
      </trkpt>
      <trkpt lat="47.94814" lon="7.02104">
        <ele>1224</ele>
        <time>2021-08-25T17:10:20Z</time>
      </trkpt>
      <trkpt lat="47.94748" lon="7.02149">
        <ele>1236</ele>
        <time>2021-08-25T17:11:18Z</time>
      </trkpt>
      <trkpt lat="47.94678" lon="7.02226">
        <ele>1250</ele>
        <time>2021-08-25T17:12:28Z</time>
      </trkpt>
      <trkpt lat="47.94643" lon="7.02283">
        <ele>1259</ele>
        <time>2021-08-25T17:13:09Z</time>
      </trkpt>
      <trkpt lat="47.94572" lon="7.02318">
        <ele>1261</ele>
        <time>2021-08-25T17:14:09Z</time>
      </trkpt>
      <trkpt lat="47.94532" lon="7.02306">
        <ele>1259</ele>
        <time>2021-08-25T17:14:42Z</time>
      </trkpt>
      <trkpt lat="47.94496" lon="7.02331">
        <ele>1259</ele>
        <time>2021-08-25T17:15:13Z</time>
      </trkpt>
      <trkpt lat="47.94471" lon="7.02314">
        <ele>1257</ele>
        <time>2021-08-25T17:15:35Z</time>
      </trkpt>
      <trkpt lat="47.94414" lon="7.02341">
        <ele>1251</ele>
        <time>2021-08-25T17:16:23Z</time>
      </trkpt>
      <trkpt lat="47.94388" lon="7.0233">
        <ele>1249</ele>
        <time>2021-08-25T17:16:45Z</time>
      </trkpt>
      <trkpt lat="47.94279" lon="7.02333">
        <ele>1233</ele>
        <time>2021-08-25T17:18:12Z</time>
      </trkpt>
      <trkpt lat="47.94262" lon="7.02347">
        <ele>1229</ele>
        <time>2021-08-25T17:18:28Z</time>
      </trkpt>
      <trkpt lat="47.94105" lon="7.02335">
        <ele>1216</ele>
        <time>2021-08-25T17:20:34Z</time>
      </trkpt>
      <trkpt lat="47.93941" lon="7.02317">
        <ele>1215</ele>
        <time>2021-08-25T17:22:45Z</time>
      </trkpt>
      <trkpt lat="47.93842" lon="7.0228">
        <ele>1210</ele>
        <time>2021-08-25T17:24:07Z</time>
      </trkpt>
      <trkpt lat="47.93654" lon="7.02194">
        <ele>1211</ele>
        <time>2021-08-25T17:26:44Z</time>
      </trkpt>
      <trkpt lat="47.93529" lon="7.02057">
        <ele>1209</ele>
        <time>2021-08-25T17:28:49Z</time>
      </trkpt>
      <trkpt lat="47.93508" lon="7.02053">
        <ele>1210</ele>
        <time>2021-08-25T17:29:06Z</time>
      </trkpt>
      <trkpt lat="47.93493" lon="7.02064">
        <ele>1211</ele>
        <time>2021-08-25T17:29:19Z</time>
      </trkpt>
      <trkpt lat="47.93466" lon="7.02043">
        <ele>1212</ele>
        <time>2021-08-25T17:29:43Z</time>
      </trkpt>
      <trkpt lat="47.93433" lon="7.02005">
        <ele>1213</ele>
        <time>2021-08-25T17:30:17Z</time>
      </trkpt>
      <trkpt lat="47.93312" lon="7.0197">
        <ele>1209</ele>
        <time>2021-08-25T17:31:55Z</time>
      </trkpt>
      <trkpt lat="47.93197" lon="7.01965">
        <ele>1208</ele>
        <time>2021-08-25T17:33:27Z</time>
      </trkpt>
      <trkpt lat="47.93116" lon="7.01942">
        <ele>1211</ele>
        <time>2021-08-25T17:34:33Z</time>
      </trkpt>
      <trkpt lat="47.93037" lon="7.01937">
        <ele>1216</ele>
        <time>2021-08-25T17:35:37Z</time>
      </trkpt>
      <trkpt lat="47.92966" lon="7.01943">
        <ele>1220</ele>
        <time>2021-08-25T17:36:34Z</time>
      </trkpt>
      <trkpt lat="47.92933" lon="7.01963">
        <ele>1220</ele>
        <time>2021-08-25T17:37:02Z</time>
      </trkpt>
      <trkpt lat="47.92869" lon="7.0193">
        <ele>1226</ele>
        <time>2021-08-25T17:37:56Z</time>
      </trkpt>
      <trkpt lat="47.92758" lon="7.0195">
        <ele>1233</ele>
        <time>2021-08-25T17:39:26Z</time>
      </trkpt>
      <trkpt lat="47.92806" lon="7.02133">
        <ele>1215</ele>
        <time>2021-08-25T17:41:11Z</time>
      </trkpt>
      <trkpt lat="47.92792" lon="7.02198">
        <ele>1221</ele>
        <time>2021-08-25T17:41:48Z</time>
      </trkpt>
      <trkpt lat="47.92807" lon="7.02226">
        <ele>1218</ele>
        <time>2021-08-25T17:42:07Z</time>
      </trkpt>
      <trkpt lat="47.92808" lon="7.02359">
        <ele>1220</ele>
        <time>2021-08-25T17:43:19Z</time>
      </trkpt>
      <trkpt lat="47.92803" lon="7.0237">
        <ele>1221</ele>
        <time>2021-08-25T17:43:26Z</time>
      </trkpt>
      <trkpt lat="47.92806" lon="7.02412">
        <ele>1219</ele>
        <time>2021-08-25T17:43:48Z</time>
      </trkpt>
      <trkpt lat="47.92786" lon="7.02496">
        <ele>1220</ele>
        <time>2021-08-25T17:44:36Z</time>
      </trkpt>
      <trkpt lat="47.92757" lon="7.02583">
        <ele>1217</ele>
        <time>2021-08-25T17:45:28Z</time>
      </trkpt>
      <trkpt lat="47.92731" lon="7.02602">
        <ele>1220</ele>
        <time>2021-08-25T17:45:52Z</time>
      </trkpt>
      <trkpt lat="47.92727" lon="7.02619">
        <ele>1218</ele>
        <time>2021-08-25T17:46:01Z</time>
      </trkpt>
      <trkpt lat="47.92708" lon="7.02655">
        <ele>1216</ele>
        <time>2021-08-25T17:46:26Z</time>
      </trkpt>
      <trkpt lat="47.92682" lon="7.02724">
        <ele>1216</ele>
        <time>2021-08-25T17:47:08Z</time>
      </trkpt>
      <trkpt lat="47.92666" lon="7.02775">
        <ele>1216</ele>
        <time>2021-08-25T17:47:39Z</time>
      </trkpt>
      <trkpt lat="47.92625" lon="7.02826">
        <ele>1214</ele>
        <time>2021-08-25T17:48:21Z</time>
      </trkpt>
      <trkpt lat="47.9258" lon="7.02873">
        <ele>1209</ele>
        <time>2021-08-25T17:49:05Z</time>
      </trkpt>
      <trkpt lat="47.92545" lon="7.02894">
        <ele>1205</ele>
        <time>2021-08-25T17:49:35Z</time>
      </trkpt>
      <trkpt lat="47.92512" lon="7.02923">
        <ele>1201</ele>
        <time>2021-08-25T17:50:06Z</time>
      </trkpt>
      <trkpt lat="47.92454" lon="7.0293">
        <ele>1197</ele>
        <time>2021-08-25T17:50:53Z</time>
      </trkpt>
      <trkpt lat="47.9242" lon="7.02962">
        <ele>1193</ele>
        <time>2021-08-25T17:51:25Z</time>
      </trkpt>
      <trkpt lat="47.92433" lon="7.02986">
        <ele>1191</ele>
        <time>2021-08-25T17:51:41Z</time>
      </trkpt>
      <trkpt lat="47.9243" lon="7.03017">
        <ele>1188</ele>
        <time>2021-08-25T17:51:58Z</time>
      </trkpt>
      <trkpt lat="47.92395" lon="7.03048">
        <ele>1187</ele>
        <time>2021-08-25T17:52:31Z</time>
      </trkpt>
      <trkpt lat="47.9236" lon="7.03089">
        <ele>1185</ele>
        <time>2021-08-25T17:53:06Z</time>
      </trkpt>
      <trkpt lat="47.92343" lon="7.03113">
        <ele>1184</ele>
        <time>2021-08-25T17:53:25Z</time>
      </trkpt>
      <trkpt lat="47.92323" lon="7.03167">
        <ele>1182</ele>
        <time>2021-08-25T17:53:58Z</time>
      </trkpt>
      <trkpt lat="47.92309" lon="7.03218">
        <ele>1181</ele>
        <time>2021-08-25T17:54:28Z</time>
      </trkpt>
      <trkpt lat="47.92268" lon="7.0341">
        <ele>1172</ele>
        <time>2021-08-25T17:56:16Z</time>
      </trkpt>
      <trkpt lat="47.92274" lon="7.03431">
        <ele>1171</ele>
        <time>2021-08-25T17:56:28Z</time>
      </trkpt>
      <trkpt lat="47.92283" lon="7.03439">
        <ele>1171</ele>
        <time>2021-08-25T17:56:37Z</time>
      </trkpt>
      <trkpt lat="47.92279" lon="7.0346">
        <ele>1169</ele>
        <time>2021-08-25T17:56:48Z</time>
      </trkpt>
      <trkpt lat="47.92288" lon="7.03535">
        <ele>1167</ele>
        <time>2021-08-25T17:57:29Z</time>
      </trkpt>
      <trkpt lat="47.92294" lon="7.03636">
        <ele>1172</ele>
        <time>2021-08-25T17:58:24Z</time>
      </trkpt>
      <trkpt lat="47.92282" lon="7.03676">
        <ele>1173</ele>
        <time>2021-08-25T17:58:47Z</time>
      </trkpt>
      <trkpt lat="47.92267" lon="7.03708">
        <ele>1174</ele>
        <time>2021-08-25T17:59:08Z</time>
      </trkpt>
      <trkpt lat="47.92253" lon="7.03746">
        <ele>1175</ele>
        <time>2021-08-25T17:59:31Z</time>
      </trkpt>
      <trkpt lat="47.92229" lon="7.03796">
        <ele>1178</ele>
        <time>2021-08-25T18:00:04Z</time>
      </trkpt>
      <trkpt lat="47.92194" lon="7.03841">
        <ele>1178</ele>
        <time>2021-08-25T18:00:41Z</time>
      </trkpt>
      <trkpt lat="47.92155" lon="7.03897">
        <ele>1180</ele>
        <time>2021-08-25T18:01:25Z</time>
      </trkpt>
      <trkpt lat="47.92114" lon="7.03962">
        <ele>1188</ele>
        <time>2021-08-25T18:02:13Z</time>
      </trkpt>
      <trkpt lat="47.92085" lon="7.03984">
        <ele>1188</ele>
        <time>2021-08-25T18:02:39Z</time>
      </trkpt>
      <trkpt lat="47.92034" lon="7.0401">
        <ele>1187</ele>
        <time>2021-08-25T18:03:22Z</time>
      </trkpt>
      <trkpt lat="47.91916" lon="7.04095">
        <ele>1190</ele>
        <time>2021-08-25T18:05:07Z</time>
      </trkpt>
      <trkpt lat="47.91814" lon="7.04138">
        <ele>1183</ele>
        <time>2021-08-25T18:06:32Z</time>
      </trkpt>
      <trkpt lat="47.91753" lon="7.04202">
        <ele>1184</ele>
        <time>2021-08-25T18:07:31Z</time>
      </trkpt>
      <trkpt lat="47.91699" lon="7.04292">
        <ele>1190</ele>
        <time>2021-08-25T18:08:36Z</time>
      </trkpt>
      <trkpt lat="47.91636" lon="7.04363">
        <ele>1194</ele>
        <time>2021-08-25T18:09:39Z</time>
      </trkpt>
      <trkpt lat="47.91532" lon="7.04415">
        <ele>1190</ele>
        <time>2021-08-25T18:11:07Z</time>
      </trkpt>
      <trkpt lat="47.91468" lon="7.04431">
        <ele>1186</ele>
        <time>2021-08-25T18:11:59Z</time>
      </trkpt>
      <trkpt lat="47.91432" lon="7.04436">
        <ele>1185</ele>
        <time>2021-08-25T18:12:28Z</time>
      </trkpt>
      <trkpt lat="47.91398" lon="7.04457">
        <ele>1181</ele>
        <time>2021-08-25T18:12:57Z</time>
      </trkpt>
      <trkpt lat="47.91323" lon="7.04614">
        <ele>1181</ele>
        <time>2021-08-25T18:14:41Z</time>
      </trkpt>
      <trkpt lat="47.91298" lon="7.04676">
        <ele>1180</ele>
        <time>2021-08-25T18:15:20Z</time>
      </trkpt>
      <trkpt lat="47.91253" lon="7.04831">
        <ele>1174</ele>
        <time>2021-08-25T18:16:50Z</time>
      </trkpt>
      <trkpt lat="47.9114" lon="7.04988">
        <ele>1176</ele>
        <time>2021-08-25T18:18:54Z</time>
      </trkpt>
      <trkpt lat="47.91075" lon="7.05069">
        <ele>1183</ele>
        <time>2021-08-25T18:20:02Z</time>
      </trkpt>
      <trkpt lat="47.91068" lon="7.05163">
        <ele>1178</ele>
        <time>2021-08-25T18:20:53Z</time>
      </trkpt>
      <trkpt lat="47.91068" lon="7.05338">
        <ele>1192</ele>
        <time>2021-08-25T18:22:27Z</time>
      </trkpt>
      <trkpt lat="47.91077" lon="7.05454">
        <ele>1203</ele>
        <time>2021-08-25T18:23:29Z</time>
      </trkpt>
      <trkpt lat="47.9108" lon="7.05529">
        <ele>1205</ele>
        <time>2021-08-25T18:24:10Z</time>
      </trkpt>
      <trkpt lat="47.91086" lon="7.05586">
        <ele>1208</ele>
        <time>2021-08-25T18:24:41Z</time>
      </trkpt>
      <trkpt lat="47.9108" lon="7.05624">
        <ele>1209</ele>
        <time>2021-08-25T18:25:01Z</time>
      </trkpt>
      <trkpt lat="47.91082" lon="7.0568">
        <ele>1210</ele>
        <time>2021-08-25T18:25:32Z</time>
      </trkpt>
      <trkpt lat="47.91089" lon="7.05764">
        <ele>1205</ele>
        <time>2021-08-25T18:26:17Z</time>
      </trkpt>
      <trkpt lat="47.91101" lon="7.05833">
        <ele>1200</ele>
        <time>2021-08-25T18:26:55Z</time>
      </trkpt>
      <trkpt lat="47.9114" lon="7.05937">
        <ele>1194</ele>
        <time>2021-08-25T18:27:59Z</time>
      </trkpt>
      <trkpt lat="47.91157" lon="7.06005">
        <ele>1197</ele>
        <time>2021-08-25T18:28:38Z</time>
      </trkpt>
      <trkpt lat="47.91156" lon="7.0609">
        <ele>1202</ele>
        <time>2021-08-25T18:29:24Z</time>
      </trkpt>
      <trkpt lat="47.91149" lon="7.06097">
        <ele>1200</ele>
        <time>2021-08-25T18:29:31Z</time>
      </trkpt>
      <trkpt lat="47.9115" lon="7.06115">
        <ele>1202</ele>
        <time>2021-08-25T18:29:40Z</time>
      </trkpt>
      <trkpt lat="47.91146" lon="7.06133">
        <ele>1202</ele>
        <time>2021-08-25T18:29:50Z</time>
      </trkpt>
      <trkpt lat="47.91135" lon="7.06164">
        <ele>1200</ele>
        <time>2021-08-25T18:30:09Z</time>
      </trkpt>
      <trkpt lat="47.91129" lon="7.06201">
        <ele>1199</ele>
        <time>2021-08-25T18:30:30Z</time>
      </trkpt>
      <trkpt lat="47.91116" lon="7.0623">
        <ele>1195</ele>
        <time>2021-08-25T18:30:48Z</time>
      </trkpt>
      <trkpt lat="47.91114" lon="7.06246">
        <ele>1195</ele>
        <time>2021-08-25T18:30:57Z</time>
      </trkpt>
      <trkpt lat="47.91121" lon="7.06273">
        <ele>1199</ele>
        <time>2021-08-25T18:31:13Z</time>
      </trkpt>
      <trkpt lat="47.91116" lon="7.06277">
        <ele>1197</ele>
        <time>2021-08-25T18:31:17Z</time>
      </trkpt>
      <trkpt lat="47.91117" lon="7.06314">
        <ele>1200</ele>
        <time>2021-08-25T18:31:37Z</time>
      </trkpt>
      <trkpt lat="47.9111" lon="7.06352">
        <ele>1200</ele>
        <time>2021-08-25T18:31:58Z</time>
      </trkpt>
      <trkpt lat="47.91102" lon="7.06374">
        <ele>1200</ele>
        <time>2021-08-25T18:32:12Z</time>
      </trkpt>
      <trkpt lat="47.911" lon="7.06388">
        <ele>1201</ele>
        <time>2021-08-25T18:32:19Z</time>
      </trkpt>
      <trkpt lat="47.91089" lon="7.06406">
        <ele>1200</ele>
        <time>2021-08-25T18:32:32Z</time>
      </trkpt>
      <trkpt lat="47.91083" lon="7.06428">
        <ele>1201</ele>
        <time>2021-08-25T18:32:45Z</time>
      </trkpt>
      <trkpt lat="47.91072" lon="7.06447">
        <ele>1199</ele>
        <time>2021-08-25T18:32:59Z</time>
      </trkpt>
      <trkpt lat="47.91064" lon="7.06475">
        <ele>1200</ele>
        <time>2021-08-25T18:33:15Z</time>
      </trkpt>
      <trkpt lat="47.91051" lon="7.06492">
        <ele>1198</ele>
        <time>2021-08-25T18:33:29Z</time>
      </trkpt>
      <trkpt lat="47.91015" lon="7.06565">
        <ele>1196</ele>
        <time>2021-08-25T18:34:17Z</time>
      </trkpt>
      <trkpt lat="47.90972" lon="7.06635">
        <ele>1194</ele>
        <time>2021-08-25T18:35:08Z</time>
      </trkpt>
      <trkpt lat="47.90935" lon="7.06678">
        <ele>1191</ele>
        <time>2021-08-25T18:35:46Z</time>
      </trkpt>
      <trkpt lat="47.90879" lon="7.06647">
        <ele>1182</ele>
        <time>2021-08-25T18:36:34Z</time>
      </trkpt>
      <trkpt lat="47.90824" lon="7.06633">
        <ele>1173</ele>
        <time>2021-08-25T18:37:18Z</time>
      </trkpt>
      <trkpt lat="47.90756" lon="7.06634">
        <ele>1172</ele>
        <time>2021-08-25T18:38:13Z</time>
      </trkpt>
      <trkpt lat="47.90725" lon="7.06631">
        <ele>1173</ele>
        <time>2021-08-25T18:38:38Z</time>
      </trkpt>
      <trkpt lat="47.90653" lon="7.06617">
        <ele>1175</ele>
        <time>2021-08-25T18:39:36Z</time>
      </trkpt>
      <trkpt lat="47.90602" lon="7.06619">
        <ele>1177</ele>
        <time>2021-08-25T18:40:17Z</time>
      </trkpt>
      <trkpt lat="47.90561" lon="7.06628">
        <ele>1178</ele>
        <time>2021-08-25T18:40:50Z</time>
      </trkpt>
      <trkpt lat="47.90514" lon="7.06649">
        <ele>1182</ele>
        <time>2021-08-25T18:41:29Z</time>
      </trkpt>
      <trkpt lat="47.9048" lon="7.06672">
        <ele>1183</ele>
        <time>2021-08-25T18:41:59Z</time>
      </trkpt>
      <trkpt lat="47.90457" lon="7.06704">
        <ele>1182</ele>
        <time>2021-08-25T18:42:24Z</time>
      </trkpt>
      <trkpt lat="47.90434" lon="7.06761">
        <ele>1186</ele>
        <time>2021-08-25T18:43:00Z</time>
      </trkpt>
      <trkpt lat="47.90417" lon="7.06833">
        <ele>1193</ele>
        <time>2021-08-25T18:43:41Z</time>
      </trkpt>
      <trkpt lat="47.9039" lon="7.07028">
        <ele>1211</ele>
        <time>2021-08-25T18:45:28Z</time>
      </trkpt>
      <trkpt lat="47.90364" lon="7.0718">
        <ele>1219</ele>
        <time>2021-08-25T18:46:52Z</time>
      </trkpt>
      <trkpt lat="47.9032" lon="7.07409">
        <ele>1236</ele>
        <time>2021-08-25T18:49:00Z</time>
      </trkpt>
      <trkpt lat="47.90298" lon="7.07477">
        <ele>1238</ele>
        <time>2021-08-25T18:49:40Z</time>
      </trkpt>
      <trkpt lat="47.90278" lon="7.07515">
        <ele>1240</ele>
        <time>2021-08-25T18:50:06Z</time>
      </trkpt>
      <trkpt lat="47.90256" lon="7.0754">
        <ele>1241</ele>
        <time>2021-08-25T18:50:29Z</time>
      </trkpt>
      <trkpt lat="47.90225" lon="7.07554">
        <ele>1244</ele>
        <time>2021-08-25T18:50:54Z</time>
      </trkpt>
      <trkpt lat="47.90204" lon="7.0754">
        <ele>1239</ele>
        <time>2021-08-25T18:51:13Z</time>
      </trkpt>
      <trkpt lat="47.90119" lon="7.07494">
        <ele>1228</ele>
        <time>2021-08-25T18:52:25Z</time>
      </trkpt>
      <trkpt lat="47.89992" lon="7.07466">
        <ele>1227</ele>
        <time>2021-08-25T18:54:08Z</time>
      </trkpt>
      <trkpt lat="47.89938" lon="7.07409">
        <ele>1221</ele>
        <time>2021-08-25T18:55:01Z</time>
      </trkpt>
      <trkpt lat="47.89875" lon="7.07352">
        <ele>1204</ele>
        <time>2021-08-25T18:56:00Z</time>
      </trkpt>
      <trkpt lat="47.89835" lon="7.07352">
        <ele>1205</ele>
        <time>2021-08-25T18:56:32Z</time>
      </trkpt>
      <trkpt lat="47.898" lon="7.07416">
        <ele>1207</ele>
        <time>2021-08-25T18:57:16Z</time>
      </trkpt>
      <trkpt lat="47.89791" lon="7.07475">
        <ele>1210</ele>
        <time>2021-08-25T18:57:49Z</time>
      </trkpt>
      <trkpt lat="47.89789" lon="7.07551">
        <ele>1210</ele>
        <time>2021-08-25T18:58:30Z</time>
      </trkpt>
      <trkpt lat="47.89814" lon="7.0765">
        <ele>1211</ele>
        <time>2021-08-25T18:59:27Z</time>
      </trkpt>
      <trkpt lat="47.89895" lon="7.07817">
        <ele>1204</ele>
        <time>2021-08-25T19:01:17Z</time>
      </trkpt>
      <trkpt lat="47.89928" lon="7.07905">
        <ele>1201</ele>
        <time>2021-08-25T19:02:11Z</time>
      </trkpt>
      <trkpt lat="47.89996" lon="7.08239">
        <ele>1184</ele>
        <time>2021-08-25T19:05:19Z</time>
      </trkpt>
      <trkpt lat="47.90014" lon="7.08283">
        <ele>1185</ele>
        <time>2021-08-25T19:05:46Z</time>
      </trkpt>
      <trkpt lat="47.90042" lon="7.08369">
        <ele>1182</ele>
        <time>2021-08-25T19:06:38Z</time>
      </trkpt>
      <trkpt lat="47.90069" lon="7.08436">
        <ele>1176</ele>
        <time>2021-08-25T19:07:20Z</time>
      </trkpt>
      <trkpt lat="47.9011" lon="7.08519">
        <ele>1168</ele>
        <time>2021-08-25T19:08:15Z</time>
      </trkpt>
      <trkpt lat="47.9018" lon="7.08559">
        <ele>1181</ele>
        <time>2021-08-25T19:09:15Z</time>
      </trkpt>
      <trkpt lat="47.90301" lon="7.08686">
        <ele>1189</ele>
        <time>2021-08-25T19:11:13Z</time>
      </trkpt>
      <trkpt lat="47.90275" lon="7.08683">
        <ele>1180</ele>
        <time>2021-08-25T19:11:34Z</time>
      </trkpt>
      <trkpt lat="47.9023" lon="7.08654">
        <ele>1170</ele>
        <time>2021-08-25T19:12:14Z</time>
      </trkpt>
      <trkpt lat="47.90218" lon="7.08655">
        <ele>1165</ele>
        <time>2021-08-25T19:12:23Z</time>
      </trkpt>
      <trkpt lat="47.90161" lon="7.08605">
        <ele>1160</ele>
        <time>2021-08-25T19:13:16Z</time>
      </trkpt>
      <trkpt lat="47.90033" lon="7.08593">
        <ele>1125</ele>
        <time>2021-08-25T19:14:59Z</time>
      </trkpt>
      <trkpt lat="47.90017" lon="7.08577">
        <ele>1125</ele>
        <time>2021-08-25T19:15:14Z</time>
      </trkpt>
      <trkpt lat="47.89904" lon="7.08505">
        <ele>1102</ele>
        <time>2021-08-25T19:16:53Z</time>
      </trkpt>
      <trkpt lat="47.89825" lon="7.08377">
        <ele>1079</ele>
        <time>2021-08-25T19:18:26Z</time>
      </trkpt>
      <trkpt lat="47.89775" lon="7.0829">
        <ele>1062</ele>
        <time>2021-08-25T19:19:28Z</time>
      </trkpt>
      <trkpt lat="47.8973" lon="7.08188">
        <ele>1047</ele>
        <time>2021-08-25T19:20:33Z</time>
      </trkpt>
      <trkpt lat="47.89697" lon="7.08051">
        <ele>1049</ele>
        <time>2021-08-25T19:21:51Z</time>
      </trkpt>
      <trkpt lat="47.89676" lon="7.08038">
        <ele>1043</ele>
        <time>2021-08-25T19:22:09Z</time>
      </trkpt>
      <trkpt lat="47.89613" lon="7.08046">
        <ele>1019</ele>
        <time>2021-08-25T19:23:00Z</time>
      </trkpt>
      <trkpt lat="47.89554" lon="7.08058">
        <ele>999</ele>
        <time>2021-08-25T19:23:48Z</time>
      </trkpt>
      <trkpt lat="47.8952" lon="7.08054">
        <ele>992</ele>
        <time>2021-08-25T19:24:15Z</time>
      </trkpt>
      <trkpt lat="47.89501" lon="7.08038">
        <ele>991</ele>
        <time>2021-08-25T19:24:33Z</time>
      </trkpt>
      <trkpt lat="47.89462" lon="7.07967">
        <ele>989</ele>
        <time>2021-08-25T19:25:22Z</time>
      </trkpt>
      <trkpt lat="47.89433" lon="7.0793">
        <ele>984</ele>
        <time>2021-08-25T19:25:52Z</time>
      </trkpt>
      <trkpt lat="47.89408" lon="7.0789">
        <ele>981</ele>
        <time>2021-08-25T19:26:22Z</time>
      </trkpt>
      <trkpt lat="47.89357" lon="7.07845">
        <ele>971</ele>
        <time>2021-08-25T19:27:09Z</time>
      </trkpt>
      <trkpt lat="47.89333" lon="7.07843">
        <ele>963</ele>
        <time>2021-08-25T19:27:28Z</time>
      </trkpt>
      <trkpt lat="47.89289" lon="7.07824">
        <ele>958</ele>
        <time>2021-08-25T19:28:05Z</time>
      </trkpt>
      <trkpt lat="47.89243" lon="7.07864">
        <ele>934</ele>
        <time>2021-08-25T19:28:48Z</time>
      </trkpt>
      <trkpt lat="47.89214" lon="7.07878">
        <ele>924</ele>
        <time>2021-08-25T19:29:12Z</time>
      </trkpt>
      <trkpt lat="47.89191" lon="7.0788">
        <ele>919</ele>
        <time>2021-08-25T19:29:31Z</time>
      </trkpt>
      <trkpt lat="47.8916" lon="7.07856">
        <ele>916</ele>
        <time>2021-08-25T19:29:59Z</time>
      </trkpt>
      <trkpt lat="47.89122" lon="7.07808">
        <ele>915</ele>
        <time>2021-08-25T19:30:38Z</time>
      </trkpt>
      <trkpt lat="47.89091" lon="7.07777">
        <ele>914</ele>
        <time>2021-08-25T19:31:08Z</time>
      </trkpt>
      <trkpt lat="47.89074" lon="7.0777">
        <ele>912</ele>
        <time>2021-08-25T19:31:22Z</time>
      </trkpt>
      <trkpt lat="47.89015" lon="7.07758">
        <ele>902</ele>
        <time>2021-08-25T19:32:10Z</time>
      </trkpt>
      <trkpt lat="47.88967" lon="7.07752">
        <ele>889</ele>
        <time>2021-08-25T19:32:49Z</time>
      </trkpt>
      <trkpt lat="47.88854" lon="7.07721">
        <ele>862</ele>
        <time>2021-08-25T19:34:21Z</time>
      </trkpt>
      <trkpt lat="47.88814" lon="7.07736">
        <ele>852</ele>
        <time>2021-08-25T19:34:54Z</time>
      </trkpt>
      <trkpt lat="47.8868" lon="7.07674">
        <ele>836</ele>
        <time>2021-08-25T19:36:46Z</time>
      </trkpt>
      <trkpt lat="47.88618" lon="7.07652">
        <ele>830</ele>
        <time>2021-08-25T19:37:37Z</time>
      </trkpt>
      <trkpt lat="47.8859" lon="7.07604">
        <ele>826</ele>
        <time>2021-08-25T19:38:11Z</time>
      </trkpt>
      <trkpt lat="47.88552" lon="7.07581">
        <ele>825</ele>
        <time>2021-08-25T19:38:44Z</time>
      </trkpt>
      <trkpt lat="47.88517" lon="7.07579">
        <ele>826</ele>
        <time>2021-08-25T19:39:12Z</time>
      </trkpt>
      <trkpt lat="47.88482" lon="7.07572">
        <ele>825</ele>
        <time>2021-08-25T19:39:40Z</time>
      </trkpt>
      <trkpt lat="47.88431" lon="7.07574">
        <ele>826</ele>
        <time>2021-08-25T19:40:21Z</time>
      </trkpt>
      <trkpt lat="47.88391" lon="7.07553">
        <ele>826</ele>
        <time>2021-08-25T19:40:55Z</time>
      </trkpt>
      <trkpt lat="47.88383" lon="7.07525">
        <ele>824</ele>
        <time>2021-08-25T19:41:11Z</time>
      </trkpt>
      <trkpt lat="47.88335" lon="7.07454">
        <ele>816</ele>
        <time>2021-08-25T19:42:06Z</time>
      </trkpt>
      <trkpt lat="47.8829" lon="7.07406">
        <ele>810</ele>
        <time>2021-08-25T19:42:50Z</time>
      </trkpt>
      <trkpt lat="47.88247" lon="7.07373">
        <ele>806</ele>
        <time>2021-08-25T19:43:29Z</time>
      </trkpt>
      <trkpt lat="47.88212" lon="7.07355">
        <ele>799</ele>
        <time>2021-08-25T19:43:58Z</time>
      </trkpt>
      <trkpt lat="47.88168" lon="7.07344">
        <ele>794</ele>
        <time>2021-08-25T19:44:34Z</time>
      </trkpt>
      <trkpt lat="47.881" lon="7.07331">
        <ele>789</ele>
        <time>2021-08-25T19:45:29Z</time>
      </trkpt>
      <trkpt lat="47.87989" lon="7.07324">
        <ele>783</ele>
        <time>2021-08-25T19:46:58Z</time>
      </trkpt>
      <trkpt lat="47.87976" lon="7.07375">
        <ele>784</ele>
        <time>2021-08-25T19:47:27Z</time>
      </trkpt>
      <trkpt lat="47.87867" lon="7.07329">
        <ele>807</ele>
        <time>2021-08-25T19:48:58Z</time>
      </trkpt>
      <trkpt lat="47.87756" lon="7.0735">
        <ele>802</ele>
        <time>2021-08-25T19:50:27Z</time>
      </trkpt>
      <trkpt lat="47.877" lon="7.07273">
        <ele>806</ele>
        <time>2021-08-25T19:51:28Z</time>
      </trkpt>
      <trkpt lat="47.87637" lon="7.07256">
        <ele>800</ele>
        <time>2021-08-25T19:52:20Z</time>
      </trkpt>
      <trkpt lat="47.87586" lon="7.07277">
        <ele>795</ele>
        <time>2021-08-25T19:53:02Z</time>
      </trkpt>
      <trkpt lat="47.87544" lon="7.07266">
        <ele>795</ele>
        <time>2021-08-25T19:53:36Z</time>
      </trkpt>
      <trkpt lat="47.87522" lon="7.07287">
        <ele>793</ele>
        <time>2021-08-25T19:53:57Z</time>
      </trkpt>
      <trkpt lat="47.87442" lon="7.07284">
        <ele>789</ele>
        <time>2021-08-25T19:55:01Z</time>
      </trkpt>
      <trkpt lat="47.87305" lon="7.07265">
        <ele>775</ele>
        <time>2021-08-25T19:56:51Z</time>
      </trkpt>
      <trkpt lat="47.87255" lon="7.07227">
        <ele>771</ele>
        <time>2021-08-25T19:57:36Z</time>
      </trkpt>
      <trkpt lat="47.87216" lon="7.07218">
        <ele>771</ele>
        <time>2021-08-25T19:58:08Z</time>
      </trkpt>
      <trkpt lat="47.87195" lon="7.07195">
        <ele>772</ele>
        <time>2021-08-25T19:58:29Z</time>
      </trkpt>
      <trkpt lat="47.8717" lon="7.07125">
        <ele>774</ele>
        <time>2021-08-25T19:59:11Z</time>
      </trkpt>
      <trkpt lat="47.87143" lon="7.07106">
        <ele>776</ele>
        <time>2021-08-25T19:59:35Z</time>
      </trkpt>
      <trkpt lat="47.87113" lon="7.07079">
        <ele>779</ele>
        <time>2021-08-25T20:00:03Z</time>
      </trkpt>
      <trkpt lat="47.87078" lon="7.07055">
        <ele>781</ele>
        <time>2021-08-25T20:00:34Z</time>
      </trkpt>
      <trkpt lat="47.87059" lon="7.07031">
        <ele>778</ele>
        <time>2021-08-25T20:00:54Z</time>
      </trkpt>
      <trkpt lat="47.87035" lon="7.07006">
        <ele>779</ele>
        <time>2021-08-25T20:01:18Z</time>
      </trkpt>
      <trkpt lat="47.87025" lon="7.06966">
        <ele>781</ele>
        <time>2021-08-25T20:01:40Z</time>
      </trkpt>
      <trkpt lat="47.87006" lon="7.06929">
        <ele>787</ele>
        <time>2021-08-25T20:02:06Z</time>
      </trkpt>
      <trkpt lat="47.86985" lon="7.06897">
        <ele>788</ele>
        <time>2021-08-25T20:02:30Z</time>
      </trkpt>
      <trkpt lat="47.86946" lon="7.06847">
        <ele>788</ele>
        <time>2021-08-25T20:03:11Z</time>
      </trkpt>
      <trkpt lat="47.86914" lon="7.06799">
        <ele>787</ele>
        <time>2021-08-25T20:03:47Z</time>
      </trkpt>
      <trkpt lat="47.86902" lon="7.06792">
        <ele>784</ele>
        <time>2021-08-25T20:03:57Z</time>
      </trkpt>
      <trkpt lat="47.86889" lon="7.06771">
        <ele>779</ele>
        <time>2021-08-25T20:04:13Z</time>
      </trkpt>
      <trkpt lat="47.8685" lon="7.06762">
        <ele>772</ele>
        <time>2021-08-25T20:04:44Z</time>
      </trkpt>
      <trkpt lat="47.8683" lon="7.06772">
        <ele>769</ele>
        <time>2021-08-25T20:05:01Z</time>
      </trkpt>
      <trkpt lat="47.86783" lon="7.06802">
        <ele>758</ele>
        <time>2021-08-25T20:05:42Z</time>
      </trkpt>
      <trkpt lat="47.86754" lon="7.06825">
        <ele>751</ele>
        <time>2021-08-25T20:06:08Z</time>
      </trkpt>
      <trkpt lat="47.86729" lon="7.06824">
        <ele>746</ele>
        <time>2021-08-25T20:06:29Z</time>
      </trkpt>
      <trkpt lat="47.86648" lon="7.06781">
        <ele>735</ele>
        <time>2021-08-25T20:07:37Z</time>
      </trkpt>
      <trkpt lat="47.86601" lon="7.06737">
        <ele>734</ele>
        <time>2021-08-25T20:08:22Z</time>
      </trkpt>
      <trkpt lat="47.86593" lon="7.06725">
        <ele>731</ele>
        <time>2021-08-25T20:08:31Z</time>
      </trkpt>
      <trkpt lat="47.86602" lon="7.0672">
        <ele>729</ele>
        <time>2021-08-25T20:08:39Z</time>
      </trkpt>
      <trkpt lat="47.86593" lon="7.0671">
        <ele>727</ele>
        <time>2021-08-25T20:08:48Z</time>
      </trkpt>
      <trkpt lat="47.86578" lon="7.06704">
        <ele>727</ele>
        <time>2021-08-25T20:09:00Z</time>
      </trkpt>
      <trkpt lat="47.86566" lon="7.06683">
        <ele>724</ele>
        <time>2021-08-25T20:09:15Z</time>
      </trkpt>
      <trkpt lat="47.86551" lon="7.06675">
        <ele>726</ele>
        <time>2021-08-25T20:09:28Z</time>
      </trkpt>
      <trkpt lat="47.86515" lon="7.06616">
        <ele>715</ele>
        <time>2021-08-25T20:10:10Z</time>
      </trkpt>
      <trkpt lat="47.86495" lon="7.06594">
        <ele>714</ele>
        <time>2021-08-25T20:10:30Z</time>
      </trkpt>
      <trkpt lat="47.8648" lon="7.06568">
        <ele>708</ele>
        <time>2021-08-25T20:10:49Z</time>
      </trkpt>
      <trkpt lat="47.86465" lon="7.06568">
        <ele>712</ele>
        <time>2021-08-25T20:11:01Z</time>
      </trkpt>
      <trkpt lat="47.86461" lon="7.06555">
        <ele>707</ele>
        <time>2021-08-25T20:11:08Z</time>
      </trkpt>
      <trkpt lat="47.86441" lon="7.06544">
        <ele>708</ele>
        <time>2021-08-25T20:11:25Z</time>
      </trkpt>
      <trkpt lat="47.86428" lon="7.06532">
        <ele>706</ele>
        <time>2021-08-25T20:11:38Z</time>
      </trkpt>
      <trkpt lat="47.86424" lon="7.06519">
        <ele>701</ele>
        <time>2021-08-25T20:11:45Z</time>
      </trkpt>
      <trkpt lat="47.86413" lon="7.06514">
        <ele>701</ele>
        <time>2021-08-25T20:11:55Z</time>
      </trkpt>
      <trkpt lat="47.86387" lon="7.06496">
        <ele>697</ele>
        <time>2021-08-25T20:12:18Z</time>
      </trkpt>
      <trkpt lat="47.86367" lon="7.06471">
        <ele>691</ele>
        <time>2021-08-25T20:12:38Z</time>
      </trkpt>
      <trkpt lat="47.86358" lon="7.06422">
        <ele>677</ele>
        <time>2021-08-25T20:13:06Z</time>
      </trkpt>
      <trkpt lat="47.86351" lon="7.0641">
        <ele>675</ele>
        <time>2021-08-25T20:13:14Z</time>
      </trkpt>
      <trkpt lat="47.86346" lon="7.06357">
        <ele>663</ele>
        <time>2021-08-25T20:13:43Z</time>
      </trkpt>
      <trkpt lat="47.86337" lon="7.06318">
        <ele>658</ele>
        <time>2021-08-25T20:14:05Z</time>
      </trkpt>
      <trkpt lat="47.86297" lon="7.06244">
        <ele>638</ele>
        <time>2021-08-25T20:14:56Z</time>
      </trkpt>
      <trkpt lat="47.86277" lon="7.06202">
        <ele>627</ele>
        <time>2021-08-25T20:15:24Z</time>
      </trkpt>
      <trkpt lat="47.86341" lon="7.06245">
        <ele>639</ele>
        <time>2021-08-25T20:16:20Z</time>
      </trkpt>
      <trkpt lat="47.86311" lon="7.0619">
        <ele>625</ele>
        <time>2021-08-25T20:16:58Z</time>
      </trkpt>
      <trkpt lat="47.86279" lon="7.06111">
        <ele>608</ele>
        <time>2021-08-25T20:17:48Z</time>
      </trkpt>
      <trkpt lat="47.86308" lon="7.0611">
        <ele>604</ele>
        <time>2021-08-25T20:18:11Z</time>
      </trkpt>
      <trkpt lat="47.86281" lon="7.06075">
        <ele>599</ele>
        <time>2021-08-25T20:18:40Z</time>
      </trkpt>
      <trkpt lat="47.86227" lon="7.06055">
        <ele>593</ele>
        <time>2021-08-25T20:19:24Z</time>
      </trkpt>
      <trkpt lat="47.86164" lon="7.06043">
        <ele>574</ele>
        <time>2021-08-25T20:20:15Z</time>
      </trkpt>
      <trkpt lat="47.86175" lon="7.06027">
        <ele>575</ele>
        <time>2021-08-25T20:20:27Z</time>
      </trkpt>
      <trkpt lat="47.86156" lon="7.06017">
        <ele>567</ele>
        <time>2021-08-25T20:20:44Z</time>
      </trkpt>
      <trkpt lat="47.86132" lon="7.0599">
        <ele>553</ele>
        <time>2021-08-25T20:21:08Z</time>
      </trkpt>
      <trkpt lat="47.86138" lon="7.05985">
        <ele>554</ele>
        <time>2021-08-25T20:21:13Z</time>
      </trkpt>
      <trkpt lat="47.86127" lon="7.05981">
        <ele>550</ele>
        <time>2021-08-25T20:21:22Z</time>
      </trkpt>
      <trkpt lat="47.86084" lon="7.05926">
        <ele>538</ele>
        <time>2021-08-25T20:22:08Z</time>
      </trkpt>
      <trkpt lat="47.86062" lon="7.05909">
        <ele>528</ele>
        <time>2021-08-25T20:22:27Z</time>
      </trkpt>
      <trkpt lat="47.86053" lon="7.05887">
        <ele>522</ele>
        <time>2021-08-25T20:22:41Z</time>
      </trkpt>
      <trkpt lat="47.86039" lon="7.05867">
        <ele>517</ele>
        <time>2021-08-25T20:22:57Z</time>
      </trkpt>
      <trkpt lat="47.85999" lon="7.05828">
        <ele>511</ele>
        <time>2021-08-25T20:23:35Z</time>
      </trkpt>
      <trkpt lat="47.86035" lon="7.05829">
        <ele>513</ele>
        <time>2021-08-25T20:24:04Z</time>
      </trkpt>
      <trkpt lat="47.86017" lon="7.05793">
        <ele>503</ele>
        <time>2021-08-25T20:24:28Z</time>
      </trkpt>
      <trkpt lat="47.86038" lon="7.05791">
        <ele>502</ele>
        <time>2021-08-25T20:24:45Z</time>
      </trkpt>
      <trkpt lat="47.86" lon="7.05753">
        <ele>496</ele>
        <time>2021-08-25T20:25:21Z</time>
      </trkpt>
      <trkpt lat="47.85974" lon="7.05754">
        <ele>492</ele>
        <time>2021-08-25T20:25:42Z</time>
      </trkpt>
      <trkpt lat="47.85912" lon="7.05782">
        <ele>484</ele>
        <time>2021-08-25T20:26:34Z</time>
      </trkpt>
      <trkpt lat="47.85948" lon="7.05732">
        <ele>481</ele>
        <time>2021-08-25T20:27:14Z</time>
      </trkpt>
      <trkpt lat="47.85981" lon="7.0567">
        <ele>469</ele>
        <time>2021-08-25T20:27:56Z</time>
      </trkpt>
      <trkpt lat="47.86002" lon="7.05647">
        <ele>467</ele>
        <time>2021-08-25T20:28:17Z</time>
      </trkpt>
      <trkpt lat="47.86038" lon="7.05662">
        <ele>465</ele>
        <time>2021-08-25T20:28:47Z</time>
      </trkpt>
      <trkpt lat="47.86081" lon="7.0569">
        <ele>466</ele>
        <time>2021-08-25T20:29:24Z</time>
      </trkpt>
      <trkpt lat="47.86164" lon="7.05715">
        <ele>458</ele>
        <time>2021-08-25T20:30:32Z</time>
      </trkpt>
      <trkpt lat="47.86207" lon="7.05708">
        <ele>456</ele>
        <time>2021-08-25T20:31:07Z</time>
      </trkpt>
      <trkpt lat="47.86265" lon="7.05674">
        <ele>446</ele>
        <time>2021-08-25T20:31:57Z</time>
      </trkpt>
      <trkpt lat="47.86338" lon="7.05627">
        <ele>437</ele>
        <time>2021-08-25T20:33:00Z</time>
      </trkpt>
      <trkpt lat="47.86385" lon="7.05633">
        <ele>435</ele>
        <time>2021-08-25T20:33:38Z</time>
      </trkpt>
      <trkpt lat="47.86412" lon="7.05602">
        <ele>428</ele>
        <time>2021-08-25T20:34:05Z</time>
      </trkpt>
      <trkpt lat="47.86394" lon="7.05563">
        <ele>424</ele>
        <time>2021-08-25T20:34:31Z</time>
      </trkpt>
      <trkpt lat="47.86348" lon="7.05548">
        <ele>421</ele>
        <time>2021-08-25T20:35:09Z</time>
      </trkpt>
      <trkpt lat="47.86341" lon="7.05524">
        <ele>418</ele>
        <time>2021-08-25T20:35:23Z</time>
      </trkpt>
      <trkpt lat="47.86342" lon="7.05493">
        <ele>416</ele>
        <time>2021-08-25T20:35:39Z</time>
      </trkpt>
      <trkpt lat="47.8631" lon="7.0546">
        <ele>416</ele>
        <time>2021-08-25T20:36:10Z</time>
      </trkpt>
      <trkpt lat="47.86272" lon="7.05438">
        <ele>413</ele>
        <time>2021-08-25T20:36:43Z</time>
      </trkpt>
      <trkpt lat="47.86212" lon="7.05416">
        <ele>407</ele>
        <time>2021-08-25T20:37:33Z</time>
      </trkpt>
      <trkpt lat="47.86203" lon="7.05382">
        <ele>408</ele>
        <time>2021-08-25T20:37:52Z</time>
      </trkpt>
      <trkpt lat="47.86199" lon="7.05315">
        <ele>410</ele>
        <time>2021-08-25T20:38:28Z</time>
      </trkpt>
      <trkpt lat="47.86183" lon="7.05252">
        <ele>406</ele>
        <time>2021-08-25T20:39:05Z</time>
      </trkpt>
      <trkpt lat="47.8618" lon="7.05201">
        <ele>403</ele>
        <time>2021-08-25T20:39:32Z</time>
      </trkpt>
      <trkpt lat="47.86148" lon="7.05125">
        <ele>396</ele>
        <time>2021-08-25T20:40:20Z</time>
      </trkpt>
      <trkpt lat="47.86046" lon="7.04917">
        <ele>391</ele>
        <time>2021-08-25T20:42:39Z</time>
      </trkpt>
      <trkpt lat="47.86035" lon="7.04915">
        <ele>390</ele>
        <time>2021-08-25T20:42:48Z</time>
      </trkpt>
      <trkpt lat="47.86028" lon="7.04926">
        <ele>390</ele>
        <time>2021-08-25T20:42:56Z</time>
      </trkpt>
      <trkpt lat="47.8601" lon="7.0489">
        <ele>388</ele>
        <time>2021-08-25T20:43:20Z</time>
      </trkpt>
      <trkpt lat="47.85988" lon="7.04871">
        <ele>387</ele>
        <time>2021-08-25T20:43:40Z</time>
      </trkpt>
      <trkpt lat="47.85982" lon="7.04815">
        <ele>386</ele>
        <time>2021-08-25T20:44:11Z</time>
      </trkpt>
      <trkpt lat="47.85924" lon="7.04757">
        <ele>385</ele>
        <time>2021-08-25T20:45:07Z</time>
      </trkpt>
      <trkpt lat="47.85896" lon="7.04776">
        <ele>385</ele>
        <time>2021-08-25T20:45:31Z</time>
      </trkpt>
      <trkpt lat="47.85849" lon="7.0468">
        <ele>386</ele>
        <time>2021-08-25T20:46:35Z</time>
      </trkpt>
    </trkseg>
  </trk>
</gpx>